<?xml version="1.0" encoding="UTF-8" standalone="no" ?>
<gpx xmlns="http://www.topografix.com/GPX/1/1" xmlns:xsi="http://www.w3.org/2001/XMLSchema-instance" xsi:schemaLocation="http://www.topografix.com/GPX/1/1 http://www.topografix.com/GPX/1/1/gpx.xsd" version="1.1" creator="VisuGPX - https://www.visugpx.com">
  <metadata>
    <name>Ambel Pic Chauvet Beaufin</name>
    <desc><![CDATA[Randonnée groupe B du jeudi 21 août 2014
Avec Monique et Bernard
18 participants]]></desc>
  </metadata>
  <trk>
    <name><![CDATA[2014 08 21 : Pic Chauvet Ambel]]></name>
    <trkseg>
      <trkpt lat="44.8009" lon="5.9318">
        <ele>951.84</ele>
        <time>2014-08-21T06:04:00Z</time>
      </trkpt>
      <trkpt lat="44.80089" lon="5.9318">
        <ele>949.44</ele>
        <time>2014-08-21T06:04:03Z</time>
      </trkpt>
      <trkpt lat="44.80089" lon="5.93189">
        <ele>949.44</ele>
        <time>2014-08-21T06:04:22Z</time>
      </trkpt>
      <trkpt lat="44.80088" lon="5.93189">
        <ele>949.92</ele>
        <time>2014-08-21T06:04:23Z</time>
      </trkpt>
      <trkpt lat="44.80077" lon="5.9318">
        <ele>948.96</ele>
        <time>2014-08-21T06:04:38Z</time>
      </trkpt>
      <trkpt lat="44.80076" lon="5.93178">
        <ele>949.44</ele>
        <time>2014-08-21T06:05:08Z</time>
      </trkpt>
      <trkpt lat="44.80077" lon="5.93177">
        <ele>949.44</ele>
        <time>2014-08-21T06:05:18Z</time>
      </trkpt>
      <trkpt lat="44.80081" lon="5.93194">
        <ele>950.88</ele>
        <time>2014-08-21T06:05:32Z</time>
      </trkpt>
      <trkpt lat="44.80081" lon="5.93201">
        <ele>951.36</ele>
        <time>2014-08-21T06:05:49Z</time>
      </trkpt>
      <trkpt lat="44.8008" lon="5.93212">
        <ele>951.84</ele>
        <time>2014-08-21T06:06:13Z</time>
      </trkpt>
      <trkpt lat="44.80081" lon="5.9321">
        <ele>951.84</ele>
        <time>2014-08-21T06:06:37Z</time>
      </trkpt>
      <trkpt lat="44.80081" lon="5.93205">
        <ele>952.32</ele>
        <time>2014-08-21T06:07:05Z</time>
      </trkpt>
      <trkpt lat="44.80079" lon="5.93206">
        <ele>951.84</ele>
        <time>2014-08-21T06:07:31Z</time>
      </trkpt>
      <trkpt lat="44.80078" lon="5.93199">
        <ele>951.84</ele>
        <time>2014-08-21T06:07:53Z</time>
      </trkpt>
      <trkpt lat="44.80078" lon="5.93219">
        <ele>953.28</ele>
        <time>2014-08-21T06:08:17Z</time>
      </trkpt>
      <trkpt lat="44.80075" lon="5.93232">
        <ele>955.21</ele>
        <time>2014-08-21T06:08:34Z</time>
      </trkpt>
      <trkpt lat="44.80065" lon="5.93246">
        <ele>957.61</ele>
        <time>2014-08-21T06:08:53Z</time>
      </trkpt>
      <trkpt lat="44.80056" lon="5.9325">
        <ele>959.53</ele>
        <time>2014-08-21T06:09:11Z</time>
      </trkpt>
      <trkpt lat="44.80047" lon="5.93256">
        <ele>961.94</ele>
        <time>2014-08-21T06:09:29Z</time>
      </trkpt>
      <trkpt lat="44.8004" lon="5.93261">
        <ele>963.38</ele>
        <time>2014-08-21T06:09:42Z</time>
      </trkpt>
      <trkpt lat="44.80035" lon="5.93265">
        <ele>964.34</ele>
        <time>2014-08-21T06:09:57Z</time>
      </trkpt>
      <trkpt lat="44.80025" lon="5.93272">
        <ele>966.26</ele>
        <time>2014-08-21T06:10:12Z</time>
      </trkpt>
      <trkpt lat="44.80016" lon="5.93275">
        <ele>967.7</ele>
        <time>2014-08-21T06:10:26Z</time>
      </trkpt>
      <trkpt lat="44.80005" lon="5.93277">
        <ele>969.63</ele>
        <time>2014-08-21T06:10:43Z</time>
      </trkpt>
      <trkpt lat="44.79997" lon="5.93287">
        <ele>971.07</ele>
        <time>2014-08-21T06:10:57Z</time>
      </trkpt>
      <trkpt lat="44.79988" lon="5.93292">
        <ele>973.47</ele>
        <time>2014-08-21T06:11:13Z</time>
      </trkpt>
      <trkpt lat="44.79987" lon="5.9329">
        <ele>973.95</ele>
        <time>2014-08-21T06:11:31Z</time>
      </trkpt>
      <trkpt lat="44.79984" lon="5.93294">
        <ele>974.91</ele>
        <time>2014-08-21T06:11:54Z</time>
      </trkpt>
      <trkpt lat="44.79981" lon="5.93298">
        <ele>975.39</ele>
        <time>2014-08-21T06:12:09Z</time>
      </trkpt>
      <trkpt lat="44.79977" lon="5.93297">
        <ele>975.39</ele>
        <time>2014-08-21T06:12:26Z</time>
      </trkpt>
      <trkpt lat="44.79976" lon="5.93298">
        <ele>975.39</ele>
        <time>2014-08-21T06:12:42Z</time>
      </trkpt>
      <trkpt lat="44.79971" lon="5.93298">
        <ele>975.88</ele>
        <time>2014-08-21T06:12:47Z</time>
      </trkpt>
      <trkpt lat="44.79959" lon="5.93297">
        <ele>977.8</ele>
        <time>2014-08-21T06:13:02Z</time>
      </trkpt>
      <trkpt lat="44.79949" lon="5.93305">
        <ele>980.2</ele>
        <time>2014-08-21T06:13:20Z</time>
      </trkpt>
      <trkpt lat="44.79942" lon="5.93308">
        <ele>981.16</ele>
        <time>2014-08-21T06:13:33Z</time>
      </trkpt>
      <trkpt lat="44.79939" lon="5.93306">
        <ele>982.12</ele>
        <time>2014-08-21T06:13:45Z</time>
      </trkpt>
      <trkpt lat="44.79931" lon="5.93309">
        <ele>984.53</ele>
        <time>2014-08-21T06:14:00Z</time>
      </trkpt>
      <trkpt lat="44.79934" lon="5.93309">
        <ele>984.53</ele>
        <time>2014-08-21T06:14:15Z</time>
      </trkpt>
      <trkpt lat="44.79931" lon="5.93312">
        <ele>984.05</ele>
        <time>2014-08-21T06:14:40Z</time>
      </trkpt>
      <trkpt lat="44.79916" lon="5.93315">
        <ele>986.93</ele>
        <time>2014-08-21T06:14:56Z</time>
      </trkpt>
      <trkpt lat="44.79907" lon="5.93314">
        <ele>988.85</ele>
        <time>2014-08-21T06:15:10Z</time>
      </trkpt>
      <trkpt lat="44.799" lon="5.93314">
        <ele>990.3</ele>
        <time>2014-08-21T06:15:26Z</time>
      </trkpt>
      <trkpt lat="44.79893" lon="5.93315">
        <ele>991.74</ele>
        <time>2014-08-21T06:15:42Z</time>
      </trkpt>
      <trkpt lat="44.79883" lon="5.93313">
        <ele>994.62</ele>
        <time>2014-08-21T06:16:01Z</time>
      </trkpt>
      <trkpt lat="44.79877" lon="5.93306">
        <ele>996.54</ele>
        <time>2014-08-21T06:16:19Z</time>
      </trkpt>
      <trkpt lat="44.79872" lon="5.93299">
        <ele>998.47</ele>
        <time>2014-08-21T06:16:39Z</time>
      </trkpt>
      <trkpt lat="44.79865" lon="5.93289">
        <ele>1001.35</ele>
        <time>2014-08-21T06:17:02Z</time>
      </trkpt>
      <trkpt lat="44.79853" lon="5.93292">
        <ele>1004.72</ele>
        <time>2014-08-21T06:17:26Z</time>
      </trkpt>
      <trkpt lat="44.79846" lon="5.93299">
        <ele>1006.16</ele>
        <time>2014-08-21T06:17:48Z</time>
      </trkpt>
      <trkpt lat="44.79839" lon="5.93303">
        <ele>1008.08</ele>
        <time>2014-08-21T06:18:06Z</time>
      </trkpt>
      <trkpt lat="44.79832" lon="5.93308">
        <ele>1009.52</ele>
        <time>2014-08-21T06:18:25Z</time>
      </trkpt>
      <trkpt lat="44.79823" lon="5.93311">
        <ele>1012.41</ele>
        <time>2014-08-21T06:18:50Z</time>
      </trkpt>
      <trkpt lat="44.79818" lon="5.93315">
        <ele>1014.33</ele>
        <time>2014-08-21T06:19:12Z</time>
      </trkpt>
      <trkpt lat="44.79814" lon="5.93325">
        <ele>1017.21</ele>
        <time>2014-08-21T06:19:31Z</time>
      </trkpt>
      <trkpt lat="44.79812" lon="5.9333">
        <ele>1019.13</ele>
        <time>2014-08-21T06:19:50Z</time>
      </trkpt>
      <trkpt lat="44.79808" lon="5.93344">
        <ele>1022.02</ele>
        <time>2014-08-21T06:20:12Z</time>
      </trkpt>
      <trkpt lat="44.79803" lon="5.93352">
        <ele>1023.94</ele>
        <time>2014-08-21T06:20:30Z</time>
      </trkpt>
      <trkpt lat="44.79795" lon="5.93365">
        <ele>1027.31</ele>
        <time>2014-08-21T06:20:49Z</time>
      </trkpt>
      <trkpt lat="44.7979" lon="5.93375">
        <ele>1029.23</ele>
        <time>2014-08-21T06:21:09Z</time>
      </trkpt>
      <trkpt lat="44.79784" lon="5.93383">
        <ele>1031.15</ele>
        <time>2014-08-21T06:21:29Z</time>
      </trkpt>
      <trkpt lat="44.79784" lon="5.93394">
        <ele>1034.04</ele>
        <time>2014-08-21T06:21:50Z</time>
      </trkpt>
      <trkpt lat="44.79779" lon="5.93402">
        <ele>1035.96</ele>
        <time>2014-08-21T06:22:16Z</time>
      </trkpt>
      <trkpt lat="44.79779" lon="5.93415">
        <ele>1038.84</ele>
        <time>2014-08-21T06:22:35Z</time>
      </trkpt>
      <trkpt lat="44.79767" lon="5.93429">
        <ele>1041.25</ele>
        <time>2014-08-21T06:22:54Z</time>
      </trkpt>
      <trkpt lat="44.79763" lon="5.93437">
        <ele>1044.61</ele>
        <time>2014-08-21T06:23:09Z</time>
      </trkpt>
      <trkpt lat="44.79762" lon="5.93445">
        <ele>1044.61</ele>
        <time>2014-08-21T06:23:28Z</time>
      </trkpt>
      <trkpt lat="44.79755" lon="5.93445">
        <ele>1046.53</ele>
        <time>2014-08-21T06:23:48Z</time>
      </trkpt>
      <trkpt lat="44.7975" lon="5.93435">
        <ele>1049.9</ele>
        <time>2014-08-21T06:24:05Z</time>
      </trkpt>
      <trkpt lat="44.79749" lon="5.9342">
        <ele>1052.3</ele>
        <time>2014-08-21T06:24:26Z</time>
      </trkpt>
      <trkpt lat="44.79742" lon="5.9341">
        <ele>1055.18</ele>
        <time>2014-08-21T06:24:48Z</time>
      </trkpt>
      <trkpt lat="44.79737" lon="5.93404">
        <ele>1059.03</ele>
        <time>2014-08-21T06:25:10Z</time>
      </trkpt>
      <trkpt lat="44.79725" lon="5.93394">
        <ele>1060.95</ele>
        <time>2014-08-21T06:25:37Z</time>
      </trkpt>
      <trkpt lat="44.79718" lon="5.93388">
        <ele>1064.8</ele>
        <time>2014-08-21T06:25:55Z</time>
      </trkpt>
      <trkpt lat="44.79712" lon="5.93383">
        <ele>1065.76</ele>
        <time>2014-08-21T06:26:18Z</time>
      </trkpt>
      <trkpt lat="44.79708" lon="5.93374">
        <ele>1068.64</ele>
        <time>2014-08-21T06:26:42Z</time>
      </trkpt>
      <trkpt lat="44.79699" lon="5.93364">
        <ele>1072.01</ele>
        <time>2014-08-21T06:27:08Z</time>
      </trkpt>
      <trkpt lat="44.79688" lon="5.93356">
        <ele>1074.89</ele>
        <time>2014-08-21T06:27:33Z</time>
      </trkpt>
      <trkpt lat="44.79683" lon="5.93353">
        <ele>1076.33</ele>
        <time>2014-08-21T06:27:54Z</time>
      </trkpt>
      <trkpt lat="44.79679" lon="5.93347">
        <ele>1079.7</ele>
        <time>2014-08-21T06:28:18Z</time>
      </trkpt>
      <trkpt lat="44.79672" lon="5.93344">
        <ele>1082.58</ele>
        <time>2014-08-21T06:28:40Z</time>
      </trkpt>
      <trkpt lat="44.79663" lon="5.93342">
        <ele>1084.99</ele>
        <time>2014-08-21T06:28:59Z</time>
      </trkpt>
      <trkpt lat="44.79661" lon="5.9333">
        <ele>1087.87</ele>
        <time>2014-08-21T06:29:21Z</time>
      </trkpt>
      <trkpt lat="44.79644" lon="5.93322">
        <ele>1090.75</ele>
        <time>2014-08-21T06:29:44Z</time>
      </trkpt>
      <trkpt lat="44.79632" lon="5.93308">
        <ele>1092.68</ele>
        <time>2014-08-21T06:30:08Z</time>
      </trkpt>
      <trkpt lat="44.79627" lon="5.93302">
        <ele>1095.08</ele>
        <time>2014-08-21T06:30:28Z</time>
      </trkpt>
      <trkpt lat="44.79621" lon="5.93289">
        <ele>1097.96</ele>
        <time>2014-08-21T06:30:50Z</time>
      </trkpt>
      <trkpt lat="44.7962" lon="5.93282">
        <ele>1100.37</ele>
        <time>2014-08-21T06:31:11Z</time>
      </trkpt>
      <trkpt lat="44.79617" lon="5.93273">
        <ele>1103.73</ele>
        <time>2014-08-21T06:31:33Z</time>
      </trkpt>
      <trkpt lat="44.79606" lon="5.93266">
        <ele>1106.61</ele>
        <time>2014-08-21T06:31:53Z</time>
      </trkpt>
      <trkpt lat="44.79604" lon="5.93257">
        <ele>1107.58</ele>
        <time>2014-08-21T06:32:11Z</time>
      </trkpt>
      <trkpt lat="44.79593" lon="5.93252">
        <ele>1110.46</ele>
        <time>2014-08-21T06:32:32Z</time>
      </trkpt>
      <trkpt lat="44.79583" lon="5.93247">
        <ele>1113.34</ele>
        <time>2014-08-21T06:32:55Z</time>
      </trkpt>
      <trkpt lat="44.79573" lon="5.93243">
        <ele>1116.23</ele>
        <time>2014-08-21T06:33:19Z</time>
      </trkpt>
      <trkpt lat="44.79566" lon="5.93245">
        <ele>1119.11</ele>
        <time>2014-08-21T06:33:43Z</time>
      </trkpt>
      <trkpt lat="44.79559" lon="5.93244">
        <ele>1121.03</ele>
        <time>2014-08-21T06:34:03Z</time>
      </trkpt>
      <trkpt lat="44.79549" lon="5.93248">
        <ele>1123.92</ele>
        <time>2014-08-21T06:34:26Z</time>
      </trkpt>
      <trkpt lat="44.79543" lon="5.93246">
        <ele>1126.32</ele>
        <time>2014-08-21T06:34:46Z</time>
      </trkpt>
      <trkpt lat="44.79536" lon="5.93253">
        <ele>1129.21</ele>
        <time>2014-08-21T06:35:05Z</time>
      </trkpt>
      <trkpt lat="44.79529" lon="5.93255">
        <ele>1132.57</ele>
        <time>2014-08-21T06:35:25Z</time>
      </trkpt>
      <trkpt lat="44.79518" lon="5.9326">
        <ele>1135.45</ele>
        <time>2014-08-21T06:35:44Z</time>
      </trkpt>
      <trkpt lat="44.79511" lon="5.93261">
        <ele>1138.34</ele>
        <time>2014-08-21T06:36:04Z</time>
      </trkpt>
      <trkpt lat="44.79499" lon="5.93252">
        <ele>1141.7</ele>
        <time>2014-08-21T06:36:26Z</time>
      </trkpt>
      <trkpt lat="44.7949" lon="5.93244">
        <ele>1144.59</ele>
        <time>2014-08-21T06:36:48Z</time>
      </trkpt>
      <trkpt lat="44.7948" lon="5.93234">
        <ele>1147.47</ele>
        <time>2014-08-21T06:37:11Z</time>
      </trkpt>
      <trkpt lat="44.7947" lon="5.93235">
        <ele>1150.35</ele>
        <time>2014-08-21T06:37:33Z</time>
      </trkpt>
      <trkpt lat="44.79459" lon="5.93232">
        <ele>1152.76</ele>
        <time>2014-08-21T06:37:56Z</time>
      </trkpt>
      <trkpt lat="44.7945" lon="5.93236">
        <ele>1156.12</ele>
        <time>2014-08-21T06:38:19Z</time>
      </trkpt>
      <trkpt lat="44.79444" lon="5.9324">
        <ele>1158.05</ele>
        <time>2014-08-21T06:38:39Z</time>
      </trkpt>
      <trkpt lat="44.79431" lon="5.93249">
        <ele>1160.93</ele>
        <time>2014-08-21T06:39:04Z</time>
      </trkpt>
      <trkpt lat="44.7942" lon="5.93257">
        <ele>1163.81</ele>
        <time>2014-08-21T06:39:28Z</time>
      </trkpt>
      <trkpt lat="44.79405" lon="5.93263">
        <ele>1166.7</ele>
        <time>2014-08-21T06:39:50Z</time>
      </trkpt>
      <trkpt lat="44.79394" lon="5.93259">
        <ele>1168.62</ele>
        <time>2014-08-21T06:40:13Z</time>
      </trkpt>
      <trkpt lat="44.79386" lon="5.93259">
        <ele>1170.06</ele>
        <time>2014-08-21T06:40:34Z</time>
      </trkpt>
      <trkpt lat="44.79391" lon="5.93263">
        <ele>1170.54</ele>
        <time>2014-08-21T06:40:48Z</time>
      </trkpt>
      <trkpt lat="44.79396" lon="5.93285">
        <ele>1173.43</ele>
        <time>2014-08-21T06:41:08Z</time>
      </trkpt>
      <trkpt lat="44.79397" lon="5.93306">
        <ele>1176.79</ele>
        <time>2014-08-21T06:41:30Z</time>
      </trkpt>
      <trkpt lat="44.79401" lon="5.93321">
        <ele>1178.71</ele>
        <time>2014-08-21T06:41:48Z</time>
      </trkpt>
      <trkpt lat="44.79405" lon="5.93334">
        <ele>1180.64</ele>
        <time>2014-08-21T06:42:06Z</time>
      </trkpt>
      <trkpt lat="44.79406" lon="5.93333">
        <ele>1179.19</ele>
        <time>2014-08-21T06:42:25Z</time>
      </trkpt>
      <trkpt lat="44.79406" lon="5.93336">
        <ele>1179.19</ele>
        <time>2014-08-21T06:42:51Z</time>
      </trkpt>
      <trkpt lat="44.79403" lon="5.93336">
        <ele>1179.67</ele>
        <time>2014-08-21T06:43:20Z</time>
      </trkpt>
      <trkpt lat="44.79403" lon="5.93336">
        <ele>1179.19</ele>
        <time>2014-08-21T06:43:49Z</time>
      </trkpt>
      <trkpt lat="44.79406" lon="5.93333">
        <ele>1179.67</ele>
        <time>2014-08-21T06:44:24Z</time>
      </trkpt>
      <trkpt lat="44.79406" lon="5.93333">
        <ele>1180.64</ele>
        <time>2014-08-21T06:44:27Z</time>
      </trkpt>
      <trkpt lat="44.79409" lon="5.93339">
        <ele>1181.6</ele>
        <time>2014-08-21T06:44:46Z</time>
      </trkpt>
      <trkpt lat="44.79407" lon="5.93339">
        <ele>1182.08</ele>
        <time>2014-08-21T06:45:07Z</time>
      </trkpt>
      <trkpt lat="44.79405" lon="5.93344">
        <ele>1182.08</ele>
        <time>2014-08-21T06:45:21Z</time>
      </trkpt>
      <trkpt lat="44.79401" lon="5.93344">
        <ele>1183.04</ele>
        <time>2014-08-21T06:45:42Z</time>
      </trkpt>
      <trkpt lat="44.79395" lon="5.93343">
        <ele>1184.48</ele>
        <time>2014-08-21T06:46:02Z</time>
      </trkpt>
      <trkpt lat="44.79382" lon="5.93349">
        <ele>1185.44</ele>
        <time>2014-08-21T06:46:23Z</time>
      </trkpt>
      <trkpt lat="44.79362" lon="5.9335">
        <ele>1187.37</ele>
        <time>2014-08-21T06:46:44Z</time>
      </trkpt>
      <trkpt lat="44.79348" lon="5.93347">
        <ele>1189.29</ele>
        <time>2014-08-21T06:47:01Z</time>
      </trkpt>
      <trkpt lat="44.79334" lon="5.93347">
        <ele>1191.69</ele>
        <time>2014-08-21T06:47:25Z</time>
      </trkpt>
      <trkpt lat="44.7932" lon="5.93356">
        <ele>1194.09</ele>
        <time>2014-08-21T06:47:48Z</time>
      </trkpt>
      <trkpt lat="44.79306" lon="5.93365">
        <ele>1195.54</ele>
        <time>2014-08-21T06:48:07Z</time>
      </trkpt>
      <trkpt lat="44.79294" lon="5.93379">
        <ele>1197.46</ele>
        <time>2014-08-21T06:48:23Z</time>
      </trkpt>
      <trkpt lat="44.79308" lon="5.93379">
        <ele>1199.38</ele>
        <time>2014-08-21T06:48:41Z</time>
      </trkpt>
      <trkpt lat="44.79315" lon="5.93383">
        <ele>1200.34</ele>
        <time>2014-08-21T06:48:57Z</time>
      </trkpt>
      <trkpt lat="44.79327" lon="5.93389">
        <ele>1202.27</ele>
        <time>2014-08-21T06:49:12Z</time>
      </trkpt>
      <trkpt lat="44.79336" lon="5.93396">
        <ele>1203.23</ele>
        <time>2014-08-21T06:49:26Z</time>
      </trkpt>
      <trkpt lat="44.79346" lon="5.93401">
        <ele>1204.67</ele>
        <time>2014-08-21T06:49:41Z</time>
      </trkpt>
      <trkpt lat="44.79353" lon="5.93408">
        <ele>1205.15</ele>
        <time>2014-08-21T06:49:57Z</time>
      </trkpt>
      <trkpt lat="44.79341" lon="5.93412">
        <ele>1206.11</ele>
        <time>2014-08-21T06:50:10Z</time>
      </trkpt>
      <trkpt lat="44.79329" lon="5.93411">
        <ele>1207.07</ele>
        <time>2014-08-21T06:50:25Z</time>
      </trkpt>
      <trkpt lat="44.79317" lon="5.93413">
        <ele>1208.51</ele>
        <time>2014-08-21T06:50:40Z</time>
      </trkpt>
      <trkpt lat="44.79305" lon="5.93412">
        <ele>1209.48</ele>
        <time>2014-08-21T06:50:55Z</time>
      </trkpt>
      <trkpt lat="44.79291" lon="5.9341">
        <ele>1211.4</ele>
        <time>2014-08-21T06:51:14Z</time>
      </trkpt>
      <trkpt lat="44.79281" lon="5.93409">
        <ele>1212.36</ele>
        <time>2014-08-21T06:51:28Z</time>
      </trkpt>
      <trkpt lat="44.79268" lon="5.93407">
        <ele>1213.8</ele>
        <time>2014-08-21T06:51:43Z</time>
      </trkpt>
      <trkpt lat="44.79254" lon="5.9341">
        <ele>1215.24</ele>
        <time>2014-08-21T06:51:59Z</time>
      </trkpt>
      <trkpt lat="44.79241" lon="5.93412">
        <ele>1216.21</ele>
        <time>2014-08-21T06:52:15Z</time>
      </trkpt>
      <trkpt lat="44.79226" lon="5.9342">
        <ele>1217.65</ele>
        <time>2014-08-21T06:52:32Z</time>
      </trkpt>
      <trkpt lat="44.79211" lon="5.93426">
        <ele>1219.57</ele>
        <time>2014-08-21T06:52:50Z</time>
      </trkpt>
      <trkpt lat="44.79198" lon="5.93431">
        <ele>1221.01</ele>
        <time>2014-08-21T06:53:06Z</time>
      </trkpt>
      <trkpt lat="44.79186" lon="5.93432">
        <ele>1222.45</ele>
        <time>2014-08-21T06:53:22Z</time>
      </trkpt>
      <trkpt lat="44.79172" lon="5.93435">
        <ele>1223.9</ele>
        <time>2014-08-21T06:53:40Z</time>
      </trkpt>
      <trkpt lat="44.79172" lon="5.93449">
        <ele>1224.86</ele>
        <time>2014-08-21T06:53:53Z</time>
      </trkpt>
      <trkpt lat="44.79184" lon="5.93452">
        <ele>1226.3</ele>
        <time>2014-08-21T06:54:07Z</time>
      </trkpt>
      <trkpt lat="44.79195" lon="5.93454">
        <ele>1227.74</ele>
        <time>2014-08-21T06:54:22Z</time>
      </trkpt>
      <trkpt lat="44.79198" lon="5.93456">
        <ele>1228.22</ele>
        <time>2014-08-21T06:54:26Z</time>
      </trkpt>
      <trkpt lat="44.79209" lon="5.93455">
        <ele>1229.18</ele>
        <time>2014-08-21T06:54:41Z</time>
      </trkpt>
      <trkpt lat="44.79208" lon="5.93458">
        <ele>1229.18</ele>
        <time>2014-08-21T06:54:57Z</time>
      </trkpt>
      <trkpt lat="44.79214" lon="5.93459">
        <ele>1229.66</ele>
        <time>2014-08-21T06:55:11Z</time>
      </trkpt>
      <trkpt lat="44.79216" lon="5.93458">
        <ele>1230.14</ele>
        <time>2014-08-21T06:55:30Z</time>
      </trkpt>
      <trkpt lat="44.79221" lon="5.9346">
        <ele>1230.62</ele>
        <time>2014-08-21T06:55:48Z</time>
      </trkpt>
      <trkpt lat="44.79221" lon="5.9346">
        <ele>1231.11</ele>
        <time>2014-08-21T06:56:07Z</time>
      </trkpt>
      <trkpt lat="44.79229" lon="5.93465">
        <ele>1232.07</ele>
        <time>2014-08-21T06:56:22Z</time>
      </trkpt>
      <trkpt lat="44.79241" lon="5.9347">
        <ele>1233.51</ele>
        <time>2014-08-21T06:56:37Z</time>
      </trkpt>
      <trkpt lat="44.79254" lon="5.93477">
        <ele>1234.95</ele>
        <time>2014-08-21T06:56:54Z</time>
      </trkpt>
      <trkpt lat="44.79263" lon="5.93483">
        <ele>1235.91</ele>
        <time>2014-08-21T06:57:07Z</time>
      </trkpt>
      <trkpt lat="44.79274" lon="5.93492">
        <ele>1236.87</ele>
        <time>2014-08-21T06:57:22Z</time>
      </trkpt>
      <trkpt lat="44.79284" lon="5.93494">
        <ele>1237.83</ele>
        <time>2014-08-21T06:57:38Z</time>
      </trkpt>
      <trkpt lat="44.79289" lon="5.93513">
        <ele>1238.8</ele>
        <time>2014-08-21T06:57:53Z</time>
      </trkpt>
      <trkpt lat="44.79277" lon="5.93512">
        <ele>1241.2</ele>
        <time>2014-08-21T06:58:09Z</time>
      </trkpt>
      <trkpt lat="44.79264" lon="5.93507">
        <ele>1242.64</ele>
        <time>2014-08-21T06:58:24Z</time>
      </trkpt>
      <trkpt lat="44.79251" lon="5.93511">
        <ele>1244.56</ele>
        <time>2014-08-21T06:58:40Z</time>
      </trkpt>
      <trkpt lat="44.7924" lon="5.93513">
        <ele>1246.01</ele>
        <time>2014-08-21T06:58:54Z</time>
      </trkpt>
      <trkpt lat="44.79225" lon="5.9352">
        <ele>1247.93</ele>
        <time>2014-08-21T06:59:13Z</time>
      </trkpt>
      <trkpt lat="44.79212" lon="5.93522">
        <ele>1249.37</ele>
        <time>2014-08-21T06:59:30Z</time>
      </trkpt>
      <trkpt lat="44.79203" lon="5.93522">
        <ele>1250.33</ele>
        <time>2014-08-21T06:59:41Z</time>
      </trkpt>
      <trkpt lat="44.79188" lon="5.93523">
        <ele>1252.25</ele>
        <time>2014-08-21T06:59:57Z</time>
      </trkpt>
      <trkpt lat="44.79175" lon="5.93526">
        <ele>1253.7</ele>
        <time>2014-08-21T07:00:13Z</time>
      </trkpt>
      <trkpt lat="44.79164" lon="5.93531">
        <ele>1255.62</ele>
        <time>2014-08-21T07:00:28Z</time>
      </trkpt>
      <trkpt lat="44.79154" lon="5.93533">
        <ele>1257.06</ele>
        <time>2014-08-21T07:00:44Z</time>
      </trkpt>
      <trkpt lat="44.79148" lon="5.93536">
        <ele>1257.54</ele>
        <time>2014-08-21T07:01:03Z</time>
      </trkpt>
      <trkpt lat="44.79146" lon="5.93538">
        <ele>1258.02</ele>
        <time>2014-08-21T07:01:26Z</time>
      </trkpt>
      <trkpt lat="44.79139" lon="5.93539">
        <ele>1258.5</ele>
        <time>2014-08-21T07:01:40Z</time>
      </trkpt>
      <trkpt lat="44.7913" lon="5.93543">
        <ele>1259.94</ele>
        <time>2014-08-21T07:01:55Z</time>
      </trkpt>
      <trkpt lat="44.79118" lon="5.93546">
        <ele>1261.39</ele>
        <time>2014-08-21T07:02:10Z</time>
      </trkpt>
      <trkpt lat="44.79105" lon="5.93548">
        <ele>1262.83</ele>
        <time>2014-08-21T07:02:25Z</time>
      </trkpt>
      <trkpt lat="44.7909" lon="5.93552">
        <ele>1264.27</ele>
        <time>2014-08-21T07:02:42Z</time>
      </trkpt>
      <trkpt lat="44.79075" lon="5.93555">
        <ele>1265.71</ele>
        <time>2014-08-21T07:03:00Z</time>
      </trkpt>
      <trkpt lat="44.79063" lon="5.93557">
        <ele>1267.16</ele>
        <time>2014-08-21T07:03:15Z</time>
      </trkpt>
      <trkpt lat="44.79047" lon="5.93556">
        <ele>1268.6</ele>
        <time>2014-08-21T07:03:33Z</time>
      </trkpt>
      <trkpt lat="44.79031" lon="5.93558">
        <ele>1270.04</ele>
        <time>2014-08-21T07:03:50Z</time>
      </trkpt>
      <trkpt lat="44.79017" lon="5.9356">
        <ele>1271.96</ele>
        <time>2014-08-21T07:04:05Z</time>
      </trkpt>
      <trkpt lat="44.79004" lon="5.93563">
        <ele>1272.92</ele>
        <time>2014-08-21T07:04:21Z</time>
      </trkpt>
      <trkpt lat="44.7899" lon="5.93568">
        <ele>1274.85</ele>
        <time>2014-08-21T07:04:36Z</time>
      </trkpt>
      <trkpt lat="44.78979" lon="5.93573">
        <ele>1275.81</ele>
        <time>2014-08-21T07:04:51Z</time>
      </trkpt>
      <trkpt lat="44.78967" lon="5.93576">
        <ele>1277.25</ele>
        <time>2014-08-21T07:05:07Z</time>
      </trkpt>
      <trkpt lat="44.78956" lon="5.9358">
        <ele>1278.69</ele>
        <time>2014-08-21T07:05:23Z</time>
      </trkpt>
      <trkpt lat="44.78944" lon="5.93578">
        <ele>1279.65</ele>
        <time>2014-08-21T07:05:39Z</time>
      </trkpt>
      <trkpt lat="44.7893" lon="5.93584">
        <ele>1281.09</ele>
        <time>2014-08-21T07:05:56Z</time>
      </trkpt>
      <trkpt lat="44.78923" lon="5.93581">
        <ele>1282.54</ele>
        <time>2014-08-21T07:06:19Z</time>
      </trkpt>
      <trkpt lat="44.78914" lon="5.936">
        <ele>1283.98</ele>
        <time>2014-08-21T07:06:45Z</time>
      </trkpt>
      <trkpt lat="44.78902" lon="5.93606">
        <ele>1285.9</ele>
        <time>2014-08-21T07:07:08Z</time>
      </trkpt>
      <trkpt lat="44.78903" lon="5.936">
        <ele>1286.38</ele>
        <time>2014-08-21T07:07:28Z</time>
      </trkpt>
      <trkpt lat="44.789" lon="5.93599">
        <ele>1286.38</ele>
        <time>2014-08-21T07:07:45Z</time>
      </trkpt>
      <trkpt lat="44.78901" lon="5.93606">
        <ele>1286.86</ele>
        <time>2014-08-21T07:08:16Z</time>
      </trkpt>
      <trkpt lat="44.78899" lon="5.93599">
        <ele>1287.34</ele>
        <time>2014-08-21T07:08:35Z</time>
      </trkpt>
      <trkpt lat="44.78884" lon="5.93606">
        <ele>1288.78</ele>
        <time>2014-08-21T07:08:55Z</time>
      </trkpt>
      <trkpt lat="44.78873" lon="5.93609">
        <ele>1290.71</ele>
        <time>2014-08-21T07:09:13Z</time>
      </trkpt>
      <trkpt lat="44.78856" lon="5.93616">
        <ele>1292.63</ele>
        <time>2014-08-21T07:09:33Z</time>
      </trkpt>
      <trkpt lat="44.78841" lon="5.93622">
        <ele>1294.07</ele>
        <time>2014-08-21T07:09:53Z</time>
      </trkpt>
      <trkpt lat="44.78827" lon="5.93628">
        <ele>1295.51</ele>
        <time>2014-08-21T07:10:10Z</time>
      </trkpt>
      <trkpt lat="44.78806" lon="5.93637">
        <ele>1297.44</ele>
        <time>2014-08-21T07:10:33Z</time>
      </trkpt>
      <trkpt lat="44.7879" lon="5.93646">
        <ele>1299.36</ele>
        <time>2014-08-21T07:10:54Z</time>
      </trkpt>
      <trkpt lat="44.78773" lon="5.93657">
        <ele>1301.28</ele>
        <time>2014-08-21T07:11:16Z</time>
      </trkpt>
      <trkpt lat="44.78755" lon="5.93664">
        <ele>1302.72</ele>
        <time>2014-08-21T07:11:39Z</time>
      </trkpt>
      <trkpt lat="44.78738" lon="5.93671">
        <ele>1304.17</ele>
        <time>2014-08-21T07:11:59Z</time>
      </trkpt>
      <trkpt lat="44.78725" lon="5.93673">
        <ele>1305.61</ele>
        <time>2014-08-21T07:12:18Z</time>
      </trkpt>
      <trkpt lat="44.78713" lon="5.93688">
        <ele>1306.09</ele>
        <time>2014-08-21T07:12:37Z</time>
      </trkpt>
      <trkpt lat="44.78709" lon="5.93701">
        <ele>1308.01</ele>
        <time>2014-08-21T07:12:56Z</time>
      </trkpt>
      <trkpt lat="44.78712" lon="5.93686">
        <ele>1308.97</ele>
        <time>2014-08-21T07:13:11Z</time>
      </trkpt>
      <trkpt lat="44.78725" lon="5.9368">
        <ele>1310.41</ele>
        <time>2014-08-21T07:13:26Z</time>
      </trkpt>
      <trkpt lat="44.78737" lon="5.93682">
        <ele>1311.38</ele>
        <time>2014-08-21T07:13:39Z</time>
      </trkpt>
      <trkpt lat="44.78746" lon="5.93678">
        <ele>1312.34</ele>
        <time>2014-08-21T07:13:57Z</time>
      </trkpt>
      <trkpt lat="44.78764" lon="5.93682">
        <ele>1313.3</ele>
        <time>2014-08-21T07:14:13Z</time>
      </trkpt>
      <trkpt lat="44.78775" lon="5.93683">
        <ele>1314.74</ele>
        <time>2014-08-21T07:14:27Z</time>
      </trkpt>
      <trkpt lat="44.78788" lon="5.93684">
        <ele>1316.18</ele>
        <time>2014-08-21T07:14:44Z</time>
      </trkpt>
      <trkpt lat="44.78801" lon="5.93685">
        <ele>1318.1</ele>
        <time>2014-08-21T07:14:59Z</time>
      </trkpt>
      <trkpt lat="44.78815" lon="5.93685">
        <ele>1320.03</ele>
        <time>2014-08-21T07:15:18Z</time>
      </trkpt>
      <trkpt lat="44.78829" lon="5.93689">
        <ele>1320.99</ele>
        <time>2014-08-21T07:15:36Z</time>
      </trkpt>
      <trkpt lat="44.78844" lon="5.9369">
        <ele>1322.43</ele>
        <time>2014-08-21T07:15:52Z</time>
      </trkpt>
      <trkpt lat="44.78862" lon="5.93696">
        <ele>1323.87</ele>
        <time>2014-08-21T07:16:12Z</time>
      </trkpt>
      <trkpt lat="44.78875" lon="5.93695">
        <ele>1325.31</ele>
        <time>2014-08-21T07:16:29Z</time>
      </trkpt>
      <trkpt lat="44.78891" lon="5.93693">
        <ele>1326.76</ele>
        <time>2014-08-21T07:16:46Z</time>
      </trkpt>
      <trkpt lat="44.78905" lon="5.93695">
        <ele>1328.2</ele>
        <time>2014-08-21T07:17:03Z</time>
      </trkpt>
      <trkpt lat="44.7892" lon="5.937">
        <ele>1330.12</ele>
        <time>2014-08-21T07:17:21Z</time>
      </trkpt>
      <trkpt lat="44.78931" lon="5.93702">
        <ele>1331.08</ele>
        <time>2014-08-21T07:17:37Z</time>
      </trkpt>
      <trkpt lat="44.78938" lon="5.9371">
        <ele>1331.56</ele>
        <time>2014-08-21T07:17:54Z</time>
      </trkpt>
      <trkpt lat="44.78952" lon="5.93717">
        <ele>1333.01</ele>
        <time>2014-08-21T07:18:12Z</time>
      </trkpt>
      <trkpt lat="44.78965" lon="5.93721">
        <ele>1334.45</ele>
        <time>2014-08-21T07:18:27Z</time>
      </trkpt>
      <trkpt lat="44.7898" lon="5.93726">
        <ele>1336.37</ele>
        <time>2014-08-21T07:18:46Z</time>
      </trkpt>
      <trkpt lat="44.78993" lon="5.93727">
        <ele>1337.81</ele>
        <time>2014-08-21T07:19:03Z</time>
      </trkpt>
      <trkpt lat="44.79006" lon="5.93727">
        <ele>1339.25</ele>
        <time>2014-08-21T07:19:20Z</time>
      </trkpt>
      <trkpt lat="44.79018" lon="5.93729">
        <ele>1341.18</ele>
        <time>2014-08-21T07:19:35Z</time>
      </trkpt>
      <trkpt lat="44.79033" lon="5.93728">
        <ele>1342.62</ele>
        <time>2014-08-21T07:19:52Z</time>
      </trkpt>
      <trkpt lat="44.79046" lon="5.93727">
        <ele>1343.58</ele>
        <time>2014-08-21T07:20:09Z</time>
      </trkpt>
      <trkpt lat="44.79061" lon="5.93733">
        <ele>1345.02</ele>
        <time>2014-08-21T07:20:27Z</time>
      </trkpt>
      <trkpt lat="44.79079" lon="5.93742">
        <ele>1346.46</ele>
        <time>2014-08-21T07:20:46Z</time>
      </trkpt>
      <trkpt lat="44.79089" lon="5.93748">
        <ele>1347.43</ele>
        <time>2014-08-21T07:21:02Z</time>
      </trkpt>
      <trkpt lat="44.79103" lon="5.93757">
        <ele>1349.35</ele>
        <time>2014-08-21T07:21:19Z</time>
      </trkpt>
      <trkpt lat="44.79117" lon="5.93767">
        <ele>1350.79</ele>
        <time>2014-08-21T07:21:38Z</time>
      </trkpt>
      <trkpt lat="44.79131" lon="5.93779">
        <ele>1352.71</ele>
        <time>2014-08-21T07:21:56Z</time>
      </trkpt>
      <trkpt lat="44.7914" lon="5.93786">
        <ele>1353.67</ele>
        <time>2014-08-21T07:22:10Z</time>
      </trkpt>
      <trkpt lat="44.79152" lon="5.9379">
        <ele>1354.63</ele>
        <time>2014-08-21T07:22:25Z</time>
      </trkpt>
      <trkpt lat="44.79166" lon="5.93798">
        <ele>1356.08</ele>
        <time>2014-08-21T07:22:42Z</time>
      </trkpt>
      <trkpt lat="44.79176" lon="5.93796">
        <ele>1357.52</ele>
        <time>2014-08-21T07:22:55Z</time>
      </trkpt>
      <trkpt lat="44.7919" lon="5.93798">
        <ele>1358.96</ele>
        <time>2014-08-21T07:23:08Z</time>
      </trkpt>
      <trkpt lat="44.79206" lon="5.93804">
        <ele>1361.36</ele>
        <time>2014-08-21T07:23:24Z</time>
      </trkpt>
      <trkpt lat="44.79218" lon="5.93811">
        <ele>1362.81</ele>
        <time>2014-08-21T07:23:38Z</time>
      </trkpt>
      <trkpt lat="44.79225" lon="5.93823">
        <ele>1363.29</ele>
        <time>2014-08-21T07:23:53Z</time>
      </trkpt>
      <trkpt lat="44.79222" lon="5.93832">
        <ele>1364.73</ele>
        <time>2014-08-21T07:24:11Z</time>
      </trkpt>
      <trkpt lat="44.79215" lon="5.93829">
        <ele>1366.17</ele>
        <time>2014-08-21T07:24:30Z</time>
      </trkpt>
      <trkpt lat="44.79206" lon="5.93825">
        <ele>1368.09</ele>
        <time>2014-08-21T07:24:45Z</time>
      </trkpt>
      <trkpt lat="44.79195" lon="5.9382">
        <ele>1370.5</ele>
        <time>2014-08-21T07:25:05Z</time>
      </trkpt>
      <trkpt lat="44.79184" lon="5.93821">
        <ele>1372.9</ele>
        <time>2014-08-21T07:25:25Z</time>
      </trkpt>
      <trkpt lat="44.79171" lon="5.93825">
        <ele>1375.78</ele>
        <time>2014-08-21T07:25:46Z</time>
      </trkpt>
      <trkpt lat="44.79158" lon="5.93828">
        <ele>1378.19</ele>
        <time>2014-08-21T07:26:05Z</time>
      </trkpt>
      <trkpt lat="44.79147" lon="5.9383">
        <ele>1380.11</ele>
        <time>2014-08-21T07:26:23Z</time>
      </trkpt>
      <trkpt lat="44.79135" lon="5.93834">
        <ele>1382.99</ele>
        <time>2014-08-21T07:26:43Z</time>
      </trkpt>
      <trkpt lat="44.79119" lon="5.93837">
        <ele>1384.92</ele>
        <time>2014-08-21T07:27:05Z</time>
      </trkpt>
      <trkpt lat="44.79107" lon="5.93836">
        <ele>1387.32</ele>
        <time>2014-08-21T07:27:25Z</time>
      </trkpt>
      <trkpt lat="44.79094" lon="5.93838">
        <ele>1389.72</ele>
        <time>2014-08-21T07:27:43Z</time>
      </trkpt>
      <trkpt lat="44.79083" lon="5.93837">
        <ele>1392.13</ele>
        <time>2014-08-21T07:28:03Z</time>
      </trkpt>
      <trkpt lat="44.79071" lon="5.93843">
        <ele>1395.49</ele>
        <time>2014-08-21T07:28:26Z</time>
      </trkpt>
      <trkpt lat="44.79061" lon="5.93847">
        <ele>1396.93</ele>
        <time>2014-08-21T07:28:44Z</time>
      </trkpt>
      <trkpt lat="44.7905" lon="5.93851">
        <ele>1398.86</ele>
        <time>2014-08-21T07:29:02Z</time>
      </trkpt>
      <trkpt lat="44.79037" lon="5.93856">
        <ele>1400.3</ele>
        <time>2014-08-21T07:29:18Z</time>
      </trkpt>
      <trkpt lat="44.79029" lon="5.9386">
        <ele>1399.82</ele>
        <time>2014-08-21T07:29:42Z</time>
      </trkpt>
      <trkpt lat="44.79019" lon="5.93861">
        <ele>1403.18</ele>
        <time>2014-08-21T07:29:59Z</time>
      </trkpt>
      <trkpt lat="44.79013" lon="5.93866">
        <ele>1404.14</ele>
        <time>2014-08-21T07:30:14Z</time>
      </trkpt>
      <trkpt lat="44.7902" lon="5.93873">
        <ele>1406.07</ele>
        <time>2014-08-21T07:30:26Z</time>
      </trkpt>
      <trkpt lat="44.79028" lon="5.9388">
        <ele>1408.47</ele>
        <time>2014-08-21T07:30:40Z</time>
      </trkpt>
      <trkpt lat="44.79045" lon="5.9388">
        <ele>1411.35</ele>
        <time>2014-08-21T07:30:55Z</time>
      </trkpt>
      <trkpt lat="44.79061" lon="5.93877">
        <ele>1413.76</ele>
        <time>2014-08-21T07:31:12Z</time>
      </trkpt>
      <trkpt lat="44.79072" lon="5.93882">
        <ele>1416.16</ele>
        <time>2014-08-21T07:31:26Z</time>
      </trkpt>
      <trkpt lat="44.79073" lon="5.93898">
        <ele>1418.08</ele>
        <time>2014-08-21T07:31:42Z</time>
      </trkpt>
      <trkpt lat="44.79063" lon="5.93909">
        <ele>1420.49</ele>
        <time>2014-08-21T07:31:57Z</time>
      </trkpt>
      <trkpt lat="44.79055" lon="5.93917">
        <ele>1422.41</ele>
        <time>2014-08-21T07:32:15Z</time>
      </trkpt>
      <trkpt lat="44.79052" lon="5.93924">
        <ele>1423.85</ele>
        <time>2014-08-21T07:32:32Z</time>
      </trkpt>
      <trkpt lat="44.79044" lon="5.93934">
        <ele>1426.25</ele>
        <time>2014-08-21T07:32:49Z</time>
      </trkpt>
      <trkpt lat="44.79035" lon="5.93943">
        <ele>1429.14</ele>
        <time>2014-08-21T07:33:09Z</time>
      </trkpt>
      <trkpt lat="44.79026" lon="5.93946">
        <ele>1431.54</ele>
        <time>2014-08-21T07:33:25Z</time>
      </trkpt>
      <trkpt lat="44.79014" lon="5.93956">
        <ele>1434.42</ele>
        <time>2014-08-21T07:33:46Z</time>
      </trkpt>
      <trkpt lat="44.79004" lon="5.93949">
        <ele>1437.31</ele>
        <time>2014-08-21T07:34:02Z</time>
      </trkpt>
      <trkpt lat="44.78996" lon="5.93945">
        <ele>1438.75</ele>
        <time>2014-08-21T07:34:20Z</time>
      </trkpt>
      <trkpt lat="44.78985" lon="5.93941">
        <ele>1440.19</ele>
        <time>2014-08-21T07:34:39Z</time>
      </trkpt>
      <trkpt lat="44.78975" lon="5.93941">
        <ele>1442.6</ele>
        <time>2014-08-21T07:34:55Z</time>
      </trkpt>
      <trkpt lat="44.78964" lon="5.93944">
        <ele>1445</ele>
        <time>2014-08-21T07:35:15Z</time>
      </trkpt>
      <trkpt lat="44.78956" lon="5.93942">
        <ele>1445.96</ele>
        <time>2014-08-21T07:35:30Z</time>
      </trkpt>
      <trkpt lat="44.78949" lon="5.93947">
        <ele>1446.92</ele>
        <time>2014-08-21T07:35:50Z</time>
      </trkpt>
      <trkpt lat="44.78949" lon="5.93949">
        <ele>1447.88</ele>
        <time>2014-08-21T07:36:08Z</time>
      </trkpt>
      <trkpt lat="44.78941" lon="5.93955">
        <ele>1449.81</ele>
        <time>2014-08-21T07:36:25Z</time>
      </trkpt>
      <trkpt lat="44.78933" lon="5.93954">
        <ele>1451.25</ele>
        <time>2014-08-21T07:36:42Z</time>
      </trkpt>
      <trkpt lat="44.78929" lon="5.93952">
        <ele>1451.73</ele>
        <time>2014-08-21T07:37:08Z</time>
      </trkpt>
      <trkpt lat="44.78932" lon="5.93949">
        <ele>1452.21</ele>
        <time>2014-08-21T07:37:33Z</time>
      </trkpt>
      <trkpt lat="44.78933" lon="5.93954">
        <ele>1452.21</ele>
        <time>2014-08-21T07:37:55Z</time>
      </trkpt>
      <trkpt lat="44.78928" lon="5.93963">
        <ele>1454.13</ele>
        <time>2014-08-21T07:38:09Z</time>
      </trkpt>
      <trkpt lat="44.78915" lon="5.93971">
        <ele>1457.02</ele>
        <time>2014-08-21T07:38:26Z</time>
      </trkpt>
      <trkpt lat="44.78903" lon="5.93981">
        <ele>1460.38</ele>
        <time>2014-08-21T07:38:44Z</time>
      </trkpt>
      <trkpt lat="44.78891" lon="5.93987">
        <ele>1463.26</ele>
        <time>2014-08-21T07:39:02Z</time>
      </trkpt>
      <trkpt lat="44.7888" lon="5.93993">
        <ele>1466.63</ele>
        <time>2014-08-21T07:39:19Z</time>
      </trkpt>
      <trkpt lat="44.78869" lon="5.93999">
        <ele>1468.07</ele>
        <time>2014-08-21T07:39:36Z</time>
      </trkpt>
      <trkpt lat="44.78854" lon="5.94003">
        <ele>1470.95</ele>
        <time>2014-08-21T07:39:55Z</time>
      </trkpt>
      <trkpt lat="44.78853" lon="5.94005">
        <ele>1470.95</ele>
        <time>2014-08-21T07:40:14Z</time>
      </trkpt>
      <trkpt lat="44.78854" lon="5.94009">
        <ele>1470.95</ele>
        <time>2014-08-21T07:40:37Z</time>
      </trkpt>
      <trkpt lat="44.78849" lon="5.9401">
        <ele>1471.44</ele>
        <time>2014-08-21T07:40:56Z</time>
      </trkpt>
      <trkpt lat="44.78837" lon="5.94011">
        <ele>1473.84</ele>
        <time>2014-08-21T07:41:13Z</time>
      </trkpt>
      <trkpt lat="44.78832" lon="5.94012">
        <ele>1474.8</ele>
        <time>2014-08-21T07:41:30Z</time>
      </trkpt>
      <trkpt lat="44.78825" lon="5.94016">
        <ele>1476.24</ele>
        <time>2014-08-21T07:41:45Z</time>
      </trkpt>
      <trkpt lat="44.78814" lon="5.9402">
        <ele>1477.2</ele>
        <time>2014-08-21T07:42:00Z</time>
      </trkpt>
      <trkpt lat="44.7881" lon="5.94021">
        <ele>1479.13</ele>
        <time>2014-08-21T07:42:06Z</time>
      </trkpt>
      <trkpt lat="44.78795" lon="5.94026">
        <ele>1480.09</ele>
        <time>2014-08-21T07:42:23Z</time>
      </trkpt>
      <trkpt lat="44.78785" lon="5.94033">
        <ele>1480.57</ele>
        <time>2014-08-21T07:42:41Z</time>
      </trkpt>
      <trkpt lat="44.78783" lon="5.94028">
        <ele>1482.01</ele>
        <time>2014-08-21T07:42:53Z</time>
      </trkpt>
      <trkpt lat="44.78778" lon="5.94028">
        <ele>1482.01</ele>
        <time>2014-08-21T07:43:22Z</time>
      </trkpt>
      <trkpt lat="44.78787" lon="5.9403">
        <ele>1480.57</ele>
        <time>2014-08-21T07:43:39Z</time>
      </trkpt>
      <trkpt lat="44.78802" lon="5.94023">
        <ele>1479.13</ele>
        <time>2014-08-21T07:43:56Z</time>
      </trkpt>
      <trkpt lat="44.78807" lon="5.9402">
        <ele>1478.65</ele>
        <time>2014-08-21T07:44:13Z</time>
      </trkpt>
      <trkpt lat="44.78808" lon="5.94021">
        <ele>1478.65</ele>
        <time>2014-08-21T07:44:34Z</time>
      </trkpt>
      <trkpt lat="44.78809" lon="5.94018">
        <ele>1477.2</ele>
        <time>2014-08-21T07:44:55Z</time>
      </trkpt>
      <trkpt lat="44.7881" lon="5.94018">
        <ele>1477.2</ele>
        <time>2014-08-21T07:45:31Z</time>
      </trkpt>
      <trkpt lat="44.78809" lon="5.94019">
        <ele>1477.68</ele>
        <time>2014-08-21T07:46:07Z</time>
      </trkpt>
      <trkpt lat="44.78807" lon="5.94016">
        <ele>1477.68</ele>
        <time>2014-08-21T07:46:39Z</time>
      </trkpt>
      <trkpt lat="44.78804" lon="5.94014">
        <ele>1478.16</ele>
        <time>2014-08-21T07:47:01Z</time>
      </trkpt>
      <trkpt lat="44.78804" lon="5.94013">
        <ele>1478.16</ele>
        <time>2014-08-21T07:47:27Z</time>
      </trkpt>
      <trkpt lat="44.78805" lon="5.94015">
        <ele>1478.65</ele>
        <time>2014-08-21T07:47:53Z</time>
      </trkpt>
      <trkpt lat="44.78807" lon="5.94018">
        <ele>1478.16</ele>
        <time>2014-08-21T07:48:22Z</time>
      </trkpt>
      <trkpt lat="44.78809" lon="5.94018">
        <ele>1478.65</ele>
        <time>2014-08-21T07:48:54Z</time>
      </trkpt>
      <trkpt lat="44.78807" lon="5.94018">
        <ele>1478.65</ele>
        <time>2014-08-21T07:49:17Z</time>
      </trkpt>
      <trkpt lat="44.78809" lon="5.94017">
        <ele>1478.16</ele>
        <time>2014-08-21T07:49:47Z</time>
      </trkpt>
      <trkpt lat="44.78808" lon="5.94017">
        <ele>1478.65</ele>
        <time>2014-08-21T07:49:55Z</time>
      </trkpt>
      <trkpt lat="44.78807" lon="5.94018">
        <ele>1480.57</ele>
        <time>2014-08-21T07:50:13Z</time>
      </trkpt>
      <trkpt lat="44.78806" lon="5.94022">
        <ele>1480.09</ele>
        <time>2014-08-21T07:50:41Z</time>
      </trkpt>
      <trkpt lat="44.78807" lon="5.94024">
        <ele>1480.57</ele>
        <time>2014-08-21T07:51:02Z</time>
      </trkpt>
      <trkpt lat="44.78808" lon="5.94029">
        <ele>1480.57</ele>
        <time>2014-08-21T07:51:29Z</time>
      </trkpt>
      <trkpt lat="44.78802" lon="5.94031">
        <ele>1481.05</ele>
        <time>2014-08-21T07:51:58Z</time>
      </trkpt>
      <trkpt lat="44.78798" lon="5.94026">
        <ele>1481.05</ele>
        <time>2014-08-21T07:52:22Z</time>
      </trkpt>
      <trkpt lat="44.78797" lon="5.94022">
        <ele>1481.53</ele>
        <time>2014-08-21T07:52:48Z</time>
      </trkpt>
      <trkpt lat="44.78794" lon="5.94024">
        <ele>1482.01</ele>
        <time>2014-08-21T07:53:05Z</time>
      </trkpt>
      <trkpt lat="44.78792" lon="5.94024">
        <ele>1482.01</ele>
        <time>2014-08-21T07:53:33Z</time>
      </trkpt>
      <trkpt lat="44.78783" lon="5.94031">
        <ele>1482.97</ele>
        <time>2014-08-21T07:53:46Z</time>
      </trkpt>
      <trkpt lat="44.78773" lon="5.94037">
        <ele>1483.45</ele>
        <time>2014-08-21T07:54:02Z</time>
      </trkpt>
      <trkpt lat="44.78768" lon="5.94046">
        <ele>1484.89</ele>
        <time>2014-08-21T07:54:16Z</time>
      </trkpt>
      <trkpt lat="44.78759" lon="5.94059">
        <ele>1485.85</ele>
        <time>2014-08-21T07:54:30Z</time>
      </trkpt>
      <trkpt lat="44.78749" lon="5.94069">
        <ele>1487.3</ele>
        <time>2014-08-21T07:54:46Z</time>
      </trkpt>
      <trkpt lat="44.78741" lon="5.94076">
        <ele>1488.26</ele>
        <time>2014-08-21T07:54:59Z</time>
      </trkpt>
      <trkpt lat="44.78732" lon="5.94082">
        <ele>1489.22</ele>
        <time>2014-08-21T07:55:14Z</time>
      </trkpt>
      <trkpt lat="44.78725" lon="5.94086">
        <ele>1490.66</ele>
        <time>2014-08-21T07:55:28Z</time>
      </trkpt>
      <trkpt lat="44.78729" lon="5.94088">
        <ele>1490.18</ele>
        <time>2014-08-21T07:55:51Z</time>
      </trkpt>
      <trkpt lat="44.78724" lon="5.94086">
        <ele>1490.18</ele>
        <time>2014-08-21T07:56:10Z</time>
      </trkpt>
      <trkpt lat="44.78705" lon="5.94094">
        <ele>1491.14</ele>
        <time>2014-08-21T07:56:26Z</time>
      </trkpt>
      <trkpt lat="44.78691" lon="5.94099">
        <ele>1492.1</ele>
        <time>2014-08-21T07:56:40Z</time>
      </trkpt>
      <trkpt lat="44.78673" lon="5.94102">
        <ele>1492.58</ele>
        <time>2014-08-21T07:56:56Z</time>
      </trkpt>
      <trkpt lat="44.78663" lon="5.94107">
        <ele>1493.06</ele>
        <time>2014-08-21T07:57:11Z</time>
      </trkpt>
      <trkpt lat="44.78658" lon="5.94111">
        <ele>1494.51</ele>
        <time>2014-08-21T07:57:29Z</time>
      </trkpt>
      <trkpt lat="44.78655" lon="5.94114">
        <ele>1494.99</ele>
        <time>2014-08-21T07:57:48Z</time>
      </trkpt>
      <trkpt lat="44.78646" lon="5.94112">
        <ele>1495.95</ele>
        <time>2014-08-21T07:58:06Z</time>
      </trkpt>
      <trkpt lat="44.7864" lon="5.9411">
        <ele>1496.91</ele>
        <time>2014-08-21T07:58:25Z</time>
      </trkpt>
      <trkpt lat="44.78629" lon="5.94113">
        <ele>1498.83</ele>
        <time>2014-08-21T07:58:45Z</time>
      </trkpt>
      <trkpt lat="44.78621" lon="5.94115">
        <ele>1501.24</ele>
        <time>2014-08-21T07:59:06Z</time>
      </trkpt>
      <trkpt lat="44.78612" lon="5.9411">
        <ele>1502.2</ele>
        <time>2014-08-21T07:59:25Z</time>
      </trkpt>
      <trkpt lat="44.78606" lon="5.94105">
        <ele>1503.16</ele>
        <time>2014-08-21T07:59:41Z</time>
      </trkpt>
      <trkpt lat="44.78597" lon="5.94102">
        <ele>1504.12</ele>
        <time>2014-08-21T07:59:55Z</time>
      </trkpt>
      <trkpt lat="44.78588" lon="5.94095">
        <ele>1504.6</ele>
        <time>2014-08-21T08:00:10Z</time>
      </trkpt>
      <trkpt lat="44.78573" lon="5.94082">
        <ele>1505.56</ele>
        <time>2014-08-21T08:00:27Z</time>
      </trkpt>
      <trkpt lat="44.7856" lon="5.94068">
        <ele>1506.04</ele>
        <time>2014-08-21T08:00:43Z</time>
      </trkpt>
      <trkpt lat="44.78555" lon="5.94063">
        <ele>1506.52</ele>
        <time>2014-08-21T08:00:58Z</time>
      </trkpt>
      <trkpt lat="44.78554" lon="5.94061">
        <ele>1506.52</ele>
        <time>2014-08-21T08:01:28Z</time>
      </trkpt>
      <trkpt lat="44.78547" lon="5.94056">
        <ele>1506.52</ele>
        <time>2014-08-21T08:01:46Z</time>
      </trkpt>
      <trkpt lat="44.78549" lon="5.94059">
        <ele>1506.04</ele>
        <time>2014-08-21T08:02:07Z</time>
      </trkpt>
      <trkpt lat="44.78549" lon="5.9406">
        <ele>1506.04</ele>
        <time>2014-08-21T08:02:30Z</time>
      </trkpt>
      <trkpt lat="44.78553" lon="5.94058">
        <ele>1507.48</ele>
        <time>2014-08-21T08:02:45Z</time>
      </trkpt>
      <trkpt lat="44.78552" lon="5.94066">
        <ele>1508.45</ele>
        <time>2014-08-21T08:03:02Z</time>
      </trkpt>
      <trkpt lat="44.78557" lon="5.9407">
        <ele>1509.89</ele>
        <time>2014-08-21T08:03:17Z</time>
      </trkpt>
      <trkpt lat="44.78558" lon="5.94077">
        <ele>1511.33</ele>
        <time>2014-08-21T08:03:34Z</time>
      </trkpt>
      <trkpt lat="44.78555" lon="5.94079">
        <ele>1513.25</ele>
        <time>2014-08-21T08:03:50Z</time>
      </trkpt>
      <trkpt lat="44.78555" lon="5.94083">
        <ele>1514.21</ele>
        <time>2014-08-21T08:04:04Z</time>
      </trkpt>
      <trkpt lat="44.78558" lon="5.94086">
        <ele>1517.1</ele>
        <time>2014-08-21T08:04:18Z</time>
      </trkpt>
      <trkpt lat="44.78554" lon="5.9409">
        <ele>1517.58</ele>
        <time>2014-08-21T08:04:36Z</time>
      </trkpt>
      <trkpt lat="44.7855" lon="5.94086">
        <ele>1519.02</ele>
        <time>2014-08-21T08:04:55Z</time>
      </trkpt>
      <trkpt lat="44.7855" lon="5.94085">
        <ele>1519.02</ele>
        <time>2014-08-21T08:05:16Z</time>
      </trkpt>
      <trkpt lat="44.78551" lon="5.9409">
        <ele>1520.46</ele>
        <time>2014-08-21T08:05:33Z</time>
      </trkpt>
      <trkpt lat="44.78548" lon="5.94095">
        <ele>1522.39</ele>
        <time>2014-08-21T08:05:50Z</time>
      </trkpt>
      <trkpt lat="44.78548" lon="5.94097">
        <ele>1523.83</ele>
        <time>2014-08-21T08:06:06Z</time>
      </trkpt>
      <trkpt lat="44.78551" lon="5.94102">
        <ele>1525.75</ele>
        <time>2014-08-21T08:06:25Z</time>
      </trkpt>
      <trkpt lat="44.78552" lon="5.94105">
        <ele>1526.23</ele>
        <time>2014-08-21T08:06:29Z</time>
      </trkpt>
      <trkpt lat="44.78555" lon="5.94114">
        <ele>1528.63</ele>
        <time>2014-08-21T08:06:46Z</time>
      </trkpt>
      <trkpt lat="44.78555" lon="5.9412">
        <ele>1530.08</ele>
        <time>2014-08-21T08:07:02Z</time>
      </trkpt>
      <trkpt lat="44.78558" lon="5.94126">
        <ele>1531.52</ele>
        <time>2014-08-21T08:07:18Z</time>
      </trkpt>
      <trkpt lat="44.7856" lon="5.94133">
        <ele>1532.48</ele>
        <time>2014-08-21T08:07:34Z</time>
      </trkpt>
      <trkpt lat="44.78563" lon="5.94139">
        <ele>1534.4</ele>
        <time>2014-08-21T08:07:47Z</time>
      </trkpt>
      <trkpt lat="44.78566" lon="5.94146">
        <ele>1537.29</ele>
        <time>2014-08-21T08:08:04Z</time>
      </trkpt>
      <trkpt lat="44.7857" lon="5.94154">
        <ele>1538.73</ele>
        <time>2014-08-21T08:08:23Z</time>
      </trkpt>
      <trkpt lat="44.78574" lon="5.94163">
        <ele>1541.13</ele>
        <time>2014-08-21T08:08:39Z</time>
      </trkpt>
      <trkpt lat="44.78578" lon="5.9417">
        <ele>1542.57</ele>
        <time>2014-08-21T08:08:52Z</time>
      </trkpt>
      <trkpt lat="44.78583" lon="5.94178">
        <ele>1544.5</ele>
        <time>2014-08-21T08:09:09Z</time>
      </trkpt>
      <trkpt lat="44.78591" lon="5.94186">
        <ele>1544.98</ele>
        <time>2014-08-21T08:09:25Z</time>
      </trkpt>
      <trkpt lat="44.78594" lon="5.94192">
        <ele>1545.94</ele>
        <time>2014-08-21T08:09:40Z</time>
      </trkpt>
      <trkpt lat="44.78601" lon="5.94195">
        <ele>1545.46</ele>
        <time>2014-08-21T08:09:53Z</time>
      </trkpt>
      <trkpt lat="44.78604" lon="5.942">
        <ele>1546.42</ele>
        <time>2014-08-21T08:10:07Z</time>
      </trkpt>
      <trkpt lat="44.78608" lon="5.94206">
        <ele>1547.86</ele>
        <time>2014-08-21T08:10:25Z</time>
      </trkpt>
      <trkpt lat="44.78613" lon="5.94212">
        <ele>1548.82</ele>
        <time>2014-08-21T08:10:40Z</time>
      </trkpt>
      <trkpt lat="44.78613" lon="5.94215">
        <ele>1550.74</ele>
        <time>2014-08-21T08:10:53Z</time>
      </trkpt>
      <trkpt lat="44.78618" lon="5.94223">
        <ele>1554.11</ele>
        <time>2014-08-21T08:11:12Z</time>
      </trkpt>
      <trkpt lat="44.78623" lon="5.94229">
        <ele>1554.59</ele>
        <time>2014-08-21T08:11:30Z</time>
      </trkpt>
      <trkpt lat="44.78623" lon="5.94236">
        <ele>1556.99</ele>
        <time>2014-08-21T08:11:46Z</time>
      </trkpt>
      <trkpt lat="44.78624" lon="5.94245">
        <ele>1559.88</ele>
        <time>2014-08-21T08:12:03Z</time>
      </trkpt>
      <trkpt lat="44.78629" lon="5.94253">
        <ele>1561.32</ele>
        <time>2014-08-21T08:12:17Z</time>
      </trkpt>
      <trkpt lat="44.78631" lon="5.94255">
        <ele>1562.28</ele>
        <time>2014-08-21T08:12:31Z</time>
      </trkpt>
      <trkpt lat="44.78631" lon="5.94254">
        <ele>1562.28</ele>
        <time>2014-08-21T08:12:54Z</time>
      </trkpt>
      <trkpt lat="44.78633" lon="5.9426">
        <ele>1563.24</ele>
        <time>2014-08-21T08:13:11Z</time>
      </trkpt>
      <trkpt lat="44.78634" lon="5.94269">
        <ele>1566.12</ele>
        <time>2014-08-21T08:13:26Z</time>
      </trkpt>
      <trkpt lat="44.78639" lon="5.94279">
        <ele>1568.53</ele>
        <time>2014-08-21T08:13:40Z</time>
      </trkpt>
      <trkpt lat="44.7864" lon="5.94292">
        <ele>1571.41</ele>
        <time>2014-08-21T08:13:56Z</time>
      </trkpt>
      <trkpt lat="44.78641" lon="5.94305">
        <ele>1573.82</ele>
        <time>2014-08-21T08:14:12Z</time>
      </trkpt>
      <trkpt lat="44.78641" lon="5.94308">
        <ele>1573.82</ele>
        <time>2014-08-21T08:14:32Z</time>
      </trkpt>
      <trkpt lat="44.7864" lon="5.94309">
        <ele>1573.33</ele>
        <time>2014-08-21T08:14:58Z</time>
      </trkpt>
      <trkpt lat="44.78641" lon="5.94307">
        <ele>1572.85</ele>
        <time>2014-08-21T08:15:20Z</time>
      </trkpt>
      <trkpt lat="44.78637" lon="5.94307">
        <ele>1574.78</ele>
        <time>2014-08-21T08:15:37Z</time>
      </trkpt>
      <trkpt lat="44.78628" lon="5.94309">
        <ele>1575.74</ele>
        <time>2014-08-21T08:15:51Z</time>
      </trkpt>
      <trkpt lat="44.78619" lon="5.94309">
        <ele>1577.18</ele>
        <time>2014-08-21T08:16:05Z</time>
      </trkpt>
      <trkpt lat="44.7861" lon="5.9431">
        <ele>1578.62</ele>
        <time>2014-08-21T08:16:20Z</time>
      </trkpt>
      <trkpt lat="44.78601" lon="5.94308">
        <ele>1581.03</ele>
        <time>2014-08-21T08:16:37Z</time>
      </trkpt>
      <trkpt lat="44.78592" lon="5.94307">
        <ele>1582.95</ele>
        <time>2014-08-21T08:16:52Z</time>
      </trkpt>
      <trkpt lat="44.78582" lon="5.94308">
        <ele>1585.35</ele>
        <time>2014-08-21T08:17:09Z</time>
      </trkpt>
      <trkpt lat="44.78572" lon="5.94307">
        <ele>1587.75</ele>
        <time>2014-08-21T08:17:23Z</time>
      </trkpt>
      <trkpt lat="44.78563" lon="5.94306">
        <ele>1590.16</ele>
        <time>2014-08-21T08:17:39Z</time>
      </trkpt>
      <trkpt lat="44.78554" lon="5.94307">
        <ele>1591.6</ele>
        <time>2014-08-21T08:17:54Z</time>
      </trkpt>
      <trkpt lat="44.78545" lon="5.94306">
        <ele>1594.48</ele>
        <time>2014-08-21T08:18:08Z</time>
      </trkpt>
      <trkpt lat="44.78544" lon="5.94307">
        <ele>1594.48</ele>
        <time>2014-08-21T08:18:10Z</time>
      </trkpt>
      <trkpt lat="44.78534" lon="5.94305">
        <ele>1596.89</ele>
        <time>2014-08-21T08:18:27Z</time>
      </trkpt>
      <trkpt lat="44.78525" lon="5.94306">
        <ele>1598.33</ele>
        <time>2014-08-21T08:18:41Z</time>
      </trkpt>
      <trkpt lat="44.78515" lon="5.94305">
        <ele>1599.77</ele>
        <time>2014-08-21T08:18:55Z</time>
      </trkpt>
      <trkpt lat="44.78509" lon="5.94302">
        <ele>1599.77</ele>
        <time>2014-08-21T08:19:07Z</time>
      </trkpt>
      <trkpt lat="44.78507" lon="5.94304">
        <ele>1599.77</ele>
        <time>2014-08-21T08:19:19Z</time>
      </trkpt>
      <trkpt lat="44.78507" lon="5.94304">
        <ele>1599.29</ele>
        <time>2014-08-21T08:19:39Z</time>
      </trkpt>
      <trkpt lat="44.78507" lon="5.94301">
        <ele>1599.29</ele>
        <time>2014-08-21T08:19:55Z</time>
      </trkpt>
      <trkpt lat="44.78508" lon="5.94304">
        <ele>1599.77</ele>
        <time>2014-08-21T08:20:12Z</time>
      </trkpt>
      <trkpt lat="44.78506" lon="5.94306">
        <ele>1599.77</ele>
        <time>2014-08-21T08:20:34Z</time>
      </trkpt>
      <trkpt lat="44.78507" lon="5.94307">
        <ele>1599.77</ele>
        <time>2014-08-21T08:20:54Z</time>
      </trkpt>
      <trkpt lat="44.78506" lon="5.94318">
        <ele>1599.77</ele>
        <time>2014-08-21T08:21:12Z</time>
      </trkpt>
      <trkpt lat="44.78505" lon="5.94324">
        <ele>1599.77</ele>
        <time>2014-08-21T08:21:17Z</time>
      </trkpt>
      <trkpt lat="44.78497" lon="5.94329">
        <ele>1599.29</ele>
        <time>2014-08-21T08:21:31Z</time>
      </trkpt>
      <trkpt lat="44.78491" lon="5.94342">
        <ele>1598.81</ele>
        <time>2014-08-21T08:21:44Z</time>
      </trkpt>
      <trkpt lat="44.78485" lon="5.94352">
        <ele>1597.85</ele>
        <time>2014-08-21T08:21:55Z</time>
      </trkpt>
      <trkpt lat="44.78475" lon="5.94361">
        <ele>1596.41</ele>
        <time>2014-08-21T08:22:10Z</time>
      </trkpt>
      <trkpt lat="44.78468" lon="5.94371">
        <ele>1594.48</ele>
        <time>2014-08-21T08:22:23Z</time>
      </trkpt>
      <trkpt lat="44.78462" lon="5.9438">
        <ele>1592.56</ele>
        <time>2014-08-21T08:22:37Z</time>
      </trkpt>
      <trkpt lat="44.78453" lon="5.94389">
        <ele>1591.12</ele>
        <time>2014-08-21T08:22:51Z</time>
      </trkpt>
      <trkpt lat="44.78445" lon="5.94396">
        <ele>1588.72</ele>
        <time>2014-08-21T08:23:05Z</time>
      </trkpt>
      <trkpt lat="44.78436" lon="5.94403">
        <ele>1586.31</ele>
        <time>2014-08-21T08:23:21Z</time>
      </trkpt>
      <trkpt lat="44.78426" lon="5.9441">
        <ele>1583.91</ele>
        <time>2014-08-21T08:23:35Z</time>
      </trkpt>
      <trkpt lat="44.7842" lon="5.94422">
        <ele>1581.99</ele>
        <time>2014-08-21T08:23:50Z</time>
      </trkpt>
      <trkpt lat="44.7841" lon="5.94434">
        <ele>1578.62</ele>
        <time>2014-08-21T08:24:07Z</time>
      </trkpt>
      <trkpt lat="44.78403" lon="5.9444">
        <ele>1576.22</ele>
        <time>2014-08-21T08:24:21Z</time>
      </trkpt>
      <trkpt lat="44.78396" lon="5.94447">
        <ele>1574.3</ele>
        <time>2014-08-21T08:24:34Z</time>
      </trkpt>
      <trkpt lat="44.78389" lon="5.94457">
        <ele>1571.89</ele>
        <time>2014-08-21T08:24:49Z</time>
      </trkpt>
      <trkpt lat="44.78385" lon="5.9446">
        <ele>1570.93</ele>
        <time>2014-08-21T08:24:54Z</time>
      </trkpt>
      <trkpt lat="44.78374" lon="5.94469">
        <ele>1569.49</ele>
        <time>2014-08-21T08:25:09Z</time>
      </trkpt>
      <trkpt lat="44.78366" lon="5.94479">
        <ele>1567.09</ele>
        <time>2014-08-21T08:25:24Z</time>
      </trkpt>
      <trkpt lat="44.78355" lon="5.94487">
        <ele>1565.16</ele>
        <time>2014-08-21T08:25:40Z</time>
      </trkpt>
      <trkpt lat="44.7835" lon="5.94489">
        <ele>1563.72</ele>
        <time>2014-08-21T08:25:47Z</time>
      </trkpt>
      <trkpt lat="44.7834" lon="5.94498">
        <ele>1561.32</ele>
        <time>2014-08-21T08:26:02Z</time>
      </trkpt>
      <trkpt lat="44.78336" lon="5.945">
        <ele>1560.84</ele>
        <time>2014-08-21T08:26:15Z</time>
      </trkpt>
      <trkpt lat="44.78325" lon="5.94509">
        <ele>1558.43</ele>
        <time>2014-08-21T08:26:29Z</time>
      </trkpt>
      <trkpt lat="44.78315" lon="5.94518">
        <ele>1556.51</ele>
        <time>2014-08-21T08:26:44Z</time>
      </trkpt>
      <trkpt lat="44.78304" lon="5.94523">
        <ele>1554.59</ele>
        <time>2014-08-21T08:26:58Z</time>
      </trkpt>
      <trkpt lat="44.783" lon="5.94527">
        <ele>1553.63</ele>
        <time>2014-08-21T08:27:04Z</time>
      </trkpt>
      <trkpt lat="44.78289" lon="5.94534">
        <ele>1552.67</ele>
        <time>2014-08-21T08:27:17Z</time>
      </trkpt>
      <trkpt lat="44.78285" lon="5.94542">
        <ele>1552.19</ele>
        <time>2014-08-21T08:27:29Z</time>
      </trkpt>
      <trkpt lat="44.78276" lon="5.94548">
        <ele>1552.67</ele>
        <time>2014-08-21T08:27:44Z</time>
      </trkpt>
      <trkpt lat="44.78264" lon="5.94556">
        <ele>1551.22</ele>
        <time>2014-08-21T08:27:58Z</time>
      </trkpt>
      <trkpt lat="44.78263" lon="5.94556">
        <ele>1551.22</ele>
        <time>2014-08-21T08:27:59Z</time>
      </trkpt>
      <trkpt lat="44.78247" lon="5.94566">
        <ele>1550.26</ele>
        <time>2014-08-21T08:28:16Z</time>
      </trkpt>
      <trkpt lat="44.78244" lon="5.94571">
        <ele>1550.26</ele>
        <time>2014-08-21T08:28:21Z</time>
      </trkpt>
      <trkpt lat="44.78232" lon="5.94581">
        <ele>1550.74</ele>
        <time>2014-08-21T08:28:35Z</time>
      </trkpt>
      <trkpt lat="44.78225" lon="5.94588">
        <ele>1551.22</ele>
        <time>2014-08-21T08:28:45Z</time>
      </trkpt>
      <trkpt lat="44.7822" lon="5.9459">
        <ele>1551.71</ele>
        <time>2014-08-21T08:29:00Z</time>
      </trkpt>
      <trkpt lat="44.78209" lon="5.94589">
        <ele>1551.22</ele>
        <time>2014-08-21T08:29:14Z</time>
      </trkpt>
      <trkpt lat="44.78206" lon="5.94586">
        <ele>1550.74</ele>
        <time>2014-08-21T08:29:26Z</time>
      </trkpt>
      <trkpt lat="44.78206" lon="5.94587">
        <ele>1550.74</ele>
        <time>2014-08-21T08:29:43Z</time>
      </trkpt>
      <trkpt lat="44.78206" lon="5.9459">
        <ele>1551.22</ele>
        <time>2014-08-21T08:30:14Z</time>
      </trkpt>
      <trkpt lat="44.78201" lon="5.94596">
        <ele>1553.15</ele>
        <time>2014-08-21T08:30:29Z</time>
      </trkpt>
      <trkpt lat="44.78194" lon="5.94605">
        <ele>1553.15</ele>
        <time>2014-08-21T08:30:42Z</time>
      </trkpt>
      <trkpt lat="44.78186" lon="5.94617">
        <ele>1555.55</ele>
        <time>2014-08-21T08:30:56Z</time>
      </trkpt>
      <trkpt lat="44.78178" lon="5.94624">
        <ele>1557.95</ele>
        <time>2014-08-21T08:31:10Z</time>
      </trkpt>
      <trkpt lat="44.78171" lon="5.94631">
        <ele>1560.84</ele>
        <time>2014-08-21T08:31:25Z</time>
      </trkpt>
      <trkpt lat="44.78164" lon="5.94636">
        <ele>1563.24</ele>
        <time>2014-08-21T08:31:43Z</time>
      </trkpt>
      <trkpt lat="44.78158" lon="5.94644">
        <ele>1565.64</ele>
        <time>2014-08-21T08:31:59Z</time>
      </trkpt>
      <trkpt lat="44.78153" lon="5.94647">
        <ele>1567.57</ele>
        <time>2014-08-21T08:32:12Z</time>
      </trkpt>
      <trkpt lat="44.78153" lon="5.94646">
        <ele>1568.05</ele>
        <time>2014-08-21T08:32:38Z</time>
      </trkpt>
      <trkpt lat="44.78147" lon="5.9465">
        <ele>1569.01</ele>
        <time>2014-08-21T08:32:57Z</time>
      </trkpt>
      <trkpt lat="44.78132" lon="5.94651">
        <ele>1568.05</ele>
        <time>2014-08-21T08:33:13Z</time>
      </trkpt>
      <trkpt lat="44.7812" lon="5.94648">
        <ele>1566.12</ele>
        <time>2014-08-21T08:33:27Z</time>
      </trkpt>
      <trkpt lat="44.78111" lon="5.94647">
        <ele>1564.68</ele>
        <time>2014-08-21T08:33:44Z</time>
      </trkpt>
      <trkpt lat="44.78105" lon="5.94645">
        <ele>1564.2</ele>
        <time>2014-08-21T08:33:57Z</time>
      </trkpt>
      <trkpt lat="44.78104" lon="5.94647">
        <ele>1563.72</ele>
        <time>2014-08-21T08:34:13Z</time>
      </trkpt>
      <trkpt lat="44.78103" lon="5.94648">
        <ele>1562.76</ele>
        <time>2014-08-21T08:34:28Z</time>
      </trkpt>
      <trkpt lat="44.78104" lon="5.94644">
        <ele>1562.76</ele>
        <time>2014-08-21T08:34:44Z</time>
      </trkpt>
      <trkpt lat="44.78102" lon="5.94644">
        <ele>1562.28</ele>
        <time>2014-08-21T08:35:08Z</time>
      </trkpt>
      <trkpt lat="44.78103" lon="5.94644">
        <ele>1562.28</ele>
        <time>2014-08-21T08:35:32Z</time>
      </trkpt>
      <trkpt lat="44.78097" lon="5.94645">
        <ele>1562.28</ele>
        <time>2014-08-21T08:35:57Z</time>
      </trkpt>
      <trkpt lat="44.78088" lon="5.94645">
        <ele>1559.88</ele>
        <time>2014-08-21T08:36:13Z</time>
      </trkpt>
      <trkpt lat="44.78082" lon="5.94648">
        <ele>1558.92</ele>
        <time>2014-08-21T08:36:26Z</time>
      </trkpt>
      <trkpt lat="44.78083" lon="5.94645">
        <ele>1558.43</ele>
        <time>2014-08-21T08:36:40Z</time>
      </trkpt>
      <trkpt lat="44.78084" lon="5.94646">
        <ele>1557.95</ele>
        <time>2014-08-21T08:37:05Z</time>
      </trkpt>
      <trkpt lat="44.7808" lon="5.94649">
        <ele>1557.95</ele>
        <time>2014-08-21T08:37:30Z</time>
      </trkpt>
      <trkpt lat="44.78063" lon="5.94645">
        <ele>1555.55</ele>
        <time>2014-08-21T08:37:45Z</time>
      </trkpt>
      <trkpt lat="44.78054" lon="5.94652">
        <ele>1557.47</ele>
        <time>2014-08-21T08:38:00Z</time>
      </trkpt>
      <trkpt lat="44.78044" lon="5.94658">
        <ele>1559.88</ele>
        <time>2014-08-21T08:38:18Z</time>
      </trkpt>
      <trkpt lat="44.78031" lon="5.94671">
        <ele>1562.28</ele>
        <time>2014-08-21T08:38:42Z</time>
      </trkpt>
      <trkpt lat="44.78024" lon="5.94672">
        <ele>1564.2</ele>
        <time>2014-08-21T08:39:01Z</time>
      </trkpt>
      <trkpt lat="44.78015" lon="5.94679">
        <ele>1567.09</ele>
        <time>2014-08-21T08:39:21Z</time>
      </trkpt>
      <trkpt lat="44.78003" lon="5.94689">
        <ele>1569.01</ele>
        <time>2014-08-21T08:39:39Z</time>
      </trkpt>
      <trkpt lat="44.77991" lon="5.94703">
        <ele>1570.45</ele>
        <time>2014-08-21T08:40:01Z</time>
      </trkpt>
      <trkpt lat="44.77979" lon="5.94711">
        <ele>1572.37</ele>
        <time>2014-08-21T08:40:22Z</time>
      </trkpt>
      <trkpt lat="44.77969" lon="5.94721">
        <ele>1574.3</ele>
        <time>2014-08-21T08:40:42Z</time>
      </trkpt>
      <trkpt lat="44.77959" lon="5.94742">
        <ele>1574.3</ele>
        <time>2014-08-21T08:41:03Z</time>
      </trkpt>
      <trkpt lat="44.77951" lon="5.94749">
        <ele>1575.74</ele>
        <time>2014-08-21T08:41:21Z</time>
      </trkpt>
      <trkpt lat="44.77943" lon="5.94761">
        <ele>1577.66</ele>
        <time>2014-08-21T08:41:38Z</time>
      </trkpt>
      <trkpt lat="44.77939" lon="5.94768">
        <ele>1577.66</ele>
        <time>2014-08-21T08:41:54Z</time>
      </trkpt>
      <trkpt lat="44.77938" lon="5.94771">
        <ele>1577.66</ele>
        <time>2014-08-21T08:42:13Z</time>
      </trkpt>
      <trkpt lat="44.77929" lon="5.94778">
        <ele>1580.06</ele>
        <time>2014-08-21T08:42:30Z</time>
      </trkpt>
      <trkpt lat="44.77922" lon="5.94784">
        <ele>1581.51</ele>
        <time>2014-08-21T08:42:45Z</time>
      </trkpt>
      <trkpt lat="44.77919" lon="5.94786">
        <ele>1582.95</ele>
        <time>2014-08-21T08:42:58Z</time>
      </trkpt>
      <trkpt lat="44.77914" lon="5.94793">
        <ele>1583.43</ele>
        <time>2014-08-21T08:43:18Z</time>
      </trkpt>
      <trkpt lat="44.77908" lon="5.94804">
        <ele>1584.39</ele>
        <time>2014-08-21T08:43:35Z</time>
      </trkpt>
      <trkpt lat="44.77905" lon="5.94814">
        <ele>1586.31</ele>
        <time>2014-08-21T08:43:51Z</time>
      </trkpt>
      <trkpt lat="44.779" lon="5.94822">
        <ele>1586.79</ele>
        <time>2014-08-21T08:44:07Z</time>
      </trkpt>
      <trkpt lat="44.77898" lon="5.94832">
        <ele>1586.31</ele>
        <time>2014-08-21T08:44:23Z</time>
      </trkpt>
      <trkpt lat="44.77896" lon="5.94836">
        <ele>1585.83</ele>
        <time>2014-08-21T08:44:36Z</time>
      </trkpt>
      <trkpt lat="44.77891" lon="5.94846">
        <ele>1587.75</ele>
        <time>2014-08-21T08:44:50Z</time>
      </trkpt>
      <trkpt lat="44.77887" lon="5.94848">
        <ele>1588.72</ele>
        <time>2014-08-21T08:45:04Z</time>
      </trkpt>
      <trkpt lat="44.77885" lon="5.94863">
        <ele>1588.72</ele>
        <time>2014-08-21T08:45:21Z</time>
      </trkpt>
      <trkpt lat="44.77881" lon="5.94871">
        <ele>1591.12</ele>
        <time>2014-08-21T08:45:38Z</time>
      </trkpt>
      <trkpt lat="44.77874" lon="5.94873">
        <ele>1591.6</ele>
        <time>2014-08-21T08:45:53Z</time>
      </trkpt>
      <trkpt lat="44.77868" lon="5.94879">
        <ele>1592.08</ele>
        <time>2014-08-21T08:46:07Z</time>
      </trkpt>
      <trkpt lat="44.77866" lon="5.94887">
        <ele>1592.56</ele>
        <time>2014-08-21T08:46:21Z</time>
      </trkpt>
      <trkpt lat="44.77858" lon="5.949">
        <ele>1593.04</ele>
        <time>2014-08-21T08:46:39Z</time>
      </trkpt>
      <trkpt lat="44.77855" lon="5.94906">
        <ele>1593.04</ele>
        <time>2014-08-21T08:46:45Z</time>
      </trkpt>
      <trkpt lat="44.77848" lon="5.9492">
        <ele>1594</ele>
        <time>2014-08-21T08:47:00Z</time>
      </trkpt>
      <trkpt lat="44.77845" lon="5.94926">
        <ele>1594</ele>
        <time>2014-08-21T08:47:08Z</time>
      </trkpt>
      <trkpt lat="44.77842" lon="5.94929">
        <ele>1594.48</ele>
        <time>2014-08-21T08:47:25Z</time>
      </trkpt>
      <trkpt lat="44.7784" lon="5.9493">
        <ele>1594.48</ele>
        <time>2014-08-21T08:47:41Z</time>
      </trkpt>
      <trkpt lat="44.77838" lon="5.94938">
        <ele>1595.93</ele>
        <time>2014-08-21T08:48:07Z</time>
      </trkpt>
      <trkpt lat="44.77837" lon="5.94942">
        <ele>1595.45</ele>
        <time>2014-08-21T08:48:10Z</time>
      </trkpt>
      <trkpt lat="44.77831" lon="5.94957">
        <ele>1595.45</ele>
        <time>2014-08-21T08:48:25Z</time>
      </trkpt>
      <trkpt lat="44.77826" lon="5.94969">
        <ele>1595.93</ele>
        <time>2014-08-21T08:48:38Z</time>
      </trkpt>
      <trkpt lat="44.77826" lon="5.94968">
        <ele>1595.45</ele>
        <time>2014-08-21T08:49:06Z</time>
      </trkpt>
      <trkpt lat="44.77827" lon="5.9497">
        <ele>1595.45</ele>
        <time>2014-08-21T08:49:35Z</time>
      </trkpt>
      <trkpt lat="44.77825" lon="5.94968">
        <ele>1596.41</ele>
        <time>2014-08-21T08:49:57Z</time>
      </trkpt>
      <trkpt lat="44.77826" lon="5.94973">
        <ele>1595.45</ele>
        <time>2014-08-21T08:50:20Z</time>
      </trkpt>
      <trkpt lat="44.77825" lon="5.94984">
        <ele>1596.89</ele>
        <time>2014-08-21T08:50:32Z</time>
      </trkpt>
      <trkpt lat="44.77814" lon="5.95005">
        <ele>1596.89</ele>
        <time>2014-08-21T08:50:49Z</time>
      </trkpt>
      <trkpt lat="44.77805" lon="5.95025">
        <ele>1597.37</ele>
        <time>2014-08-21T08:51:06Z</time>
      </trkpt>
      <trkpt lat="44.77799" lon="5.9504">
        <ele>1596.89</ele>
        <time>2014-08-21T08:51:21Z</time>
      </trkpt>
      <trkpt lat="44.77796" lon="5.95054">
        <ele>1597.37</ele>
        <time>2014-08-21T08:51:34Z</time>
      </trkpt>
      <trkpt lat="44.77796" lon="5.95067">
        <ele>1597.85</ele>
        <time>2014-08-21T08:51:49Z</time>
      </trkpt>
      <trkpt lat="44.77793" lon="5.95067">
        <ele>1598.33</ele>
        <time>2014-08-21T08:52:08Z</time>
      </trkpt>
      <trkpt lat="44.77791" lon="5.95072">
        <ele>1598.33</ele>
        <time>2014-08-21T08:52:35Z</time>
      </trkpt>
      <trkpt lat="44.77788" lon="5.95087">
        <ele>1599.29</ele>
        <time>2014-08-21T08:52:47Z</time>
      </trkpt>
      <trkpt lat="44.77784" lon="5.95092">
        <ele>1599.77</ele>
        <time>2014-08-21T08:53:02Z</time>
      </trkpt>
      <trkpt lat="44.77785" lon="5.95106">
        <ele>1599.77</ele>
        <time>2014-08-21T08:53:17Z</time>
      </trkpt>
      <trkpt lat="44.77781" lon="5.95125">
        <ele>1600.73</ele>
        <time>2014-08-21T08:53:31Z</time>
      </trkpt>
      <trkpt lat="44.77775" lon="5.95143">
        <ele>1601.21</ele>
        <time>2014-08-21T08:53:44Z</time>
      </trkpt>
      <trkpt lat="44.77768" lon="5.95155">
        <ele>1600.73</ele>
        <time>2014-08-21T08:53:54Z</time>
      </trkpt>
      <trkpt lat="44.77763" lon="5.95176">
        <ele>1598.81</ele>
        <time>2014-08-21T08:54:10Z</time>
      </trkpt>
      <trkpt lat="44.77758" lon="5.95191">
        <ele>1599.29</ele>
        <time>2014-08-21T08:54:25Z</time>
      </trkpt>
      <trkpt lat="44.77752" lon="5.95215">
        <ele>1598.81</ele>
        <time>2014-08-21T08:54:44Z</time>
      </trkpt>
      <trkpt lat="44.77748" lon="5.95237">
        <ele>1598.33</ele>
        <time>2014-08-21T08:54:59Z</time>
      </trkpt>
      <trkpt lat="44.7774" lon="5.95249">
        <ele>1597.37</ele>
        <time>2014-08-21T08:55:14Z</time>
      </trkpt>
      <trkpt lat="44.77724" lon="5.95252">
        <ele>1597.37</ele>
        <time>2014-08-21T08:55:31Z</time>
      </trkpt>
      <trkpt lat="44.77718" lon="5.95256">
        <ele>1596.41</ele>
        <time>2014-08-21T08:55:41Z</time>
      </trkpt>
      <trkpt lat="44.7771" lon="5.95261">
        <ele>1595.93</ele>
        <time>2014-08-21T08:55:57Z</time>
      </trkpt>
      <trkpt lat="44.77698" lon="5.9527">
        <ele>1595.93</ele>
        <time>2014-08-21T08:56:11Z</time>
      </trkpt>
      <trkpt lat="44.77686" lon="5.95274">
        <ele>1595.45</ele>
        <time>2014-08-21T08:56:26Z</time>
      </trkpt>
      <trkpt lat="44.77673" lon="5.95281">
        <ele>1594.48</ele>
        <time>2014-08-21T08:56:42Z</time>
      </trkpt>
      <trkpt lat="44.77661" lon="5.95285">
        <ele>1594</ele>
        <time>2014-08-21T08:56:57Z</time>
      </trkpt>
      <trkpt lat="44.77647" lon="5.95284">
        <ele>1593.52</ele>
        <time>2014-08-21T08:57:12Z</time>
      </trkpt>
      <trkpt lat="44.77646" lon="5.95284">
        <ele>1593.04</ele>
        <time>2014-08-21T08:57:20Z</time>
      </trkpt>
      <trkpt lat="44.77635" lon="5.95291">
        <ele>1592.56</ele>
        <time>2014-08-21T08:57:37Z</time>
      </trkpt>
      <trkpt lat="44.77636" lon="5.95305">
        <ele>1591.6</ele>
        <time>2014-08-21T08:57:48Z</time>
      </trkpt>
      <trkpt lat="44.77631" lon="5.95317">
        <ele>1591.12</ele>
        <time>2014-08-21T08:58:03Z</time>
      </trkpt>
      <trkpt lat="44.7763" lon="5.95324">
        <ele>1591.12</ele>
        <time>2014-08-21T08:58:23Z</time>
      </trkpt>
      <trkpt lat="44.77623" lon="5.95334">
        <ele>1590.64</ele>
        <time>2014-08-21T08:58:38Z</time>
      </trkpt>
      <trkpt lat="44.77617" lon="5.95353">
        <ele>1589.68</ele>
        <time>2014-08-21T08:58:55Z</time>
      </trkpt>
      <trkpt lat="44.77614" lon="5.95359">
        <ele>1589.68</ele>
        <time>2014-08-21T08:59:01Z</time>
      </trkpt>
      <trkpt lat="44.77612" lon="5.95362">
        <ele>1589.2</ele>
        <time>2014-08-21T08:59:04Z</time>
      </trkpt>
      <trkpt lat="44.77599" lon="5.95371">
        <ele>1589.2</ele>
        <time>2014-08-21T08:59:19Z</time>
      </trkpt>
      <trkpt lat="44.77598" lon="5.95371">
        <ele>1589.2</ele>
        <time>2014-08-21T08:59:20Z</time>
      </trkpt>
      <trkpt lat="44.77579" lon="5.95374">
        <ele>1589.68</ele>
        <time>2014-08-21T08:59:37Z</time>
      </trkpt>
      <trkpt lat="44.77565" lon="5.95379">
        <ele>1589.68</ele>
        <time>2014-08-21T08:59:50Z</time>
      </trkpt>
      <trkpt lat="44.77559" lon="5.95385">
        <ele>1589.68</ele>
        <time>2014-08-21T08:59:57Z</time>
      </trkpt>
      <trkpt lat="44.77552" lon="5.95397">
        <ele>1590.64</ele>
        <time>2014-08-21T09:00:11Z</time>
      </trkpt>
      <trkpt lat="44.77553" lon="5.95408">
        <ele>1591.6</ele>
        <time>2014-08-21T09:00:25Z</time>
      </trkpt>
      <trkpt lat="44.77554" lon="5.95411">
        <ele>1591.12</ele>
        <time>2014-08-21T09:00:48Z</time>
      </trkpt>
      <trkpt lat="44.77555" lon="5.95414">
        <ele>1591.12</ele>
        <time>2014-08-21T09:00:50Z</time>
      </trkpt>
      <trkpt lat="44.77557" lon="5.95433">
        <ele>1590.16</ele>
        <time>2014-08-21T09:01:07Z</time>
      </trkpt>
      <trkpt lat="44.77559" lon="5.95438">
        <ele>1590.16</ele>
        <time>2014-08-21T09:01:12Z</time>
      </trkpt>
      <trkpt lat="44.77563" lon="5.9546">
        <ele>1591.12</ele>
        <time>2014-08-21T09:01:28Z</time>
      </trkpt>
      <trkpt lat="44.77559" lon="5.95481">
        <ele>1592.56</ele>
        <time>2014-08-21T09:01:45Z</time>
      </trkpt>
      <trkpt lat="44.77555" lon="5.95494">
        <ele>1594.48</ele>
        <time>2014-08-21T09:02:00Z</time>
      </trkpt>
      <trkpt lat="44.77551" lon="5.95504">
        <ele>1594.96</ele>
        <time>2014-08-21T09:02:12Z</time>
      </trkpt>
      <trkpt lat="44.77548" lon="5.95514">
        <ele>1596.41</ele>
        <time>2014-08-21T09:02:27Z</time>
      </trkpt>
      <trkpt lat="44.77543" lon="5.95526">
        <ele>1598.33</ele>
        <time>2014-08-21T09:02:44Z</time>
      </trkpt>
      <trkpt lat="44.77547" lon="5.95537">
        <ele>1598.81</ele>
        <time>2014-08-21T09:03:04Z</time>
      </trkpt>
      <trkpt lat="44.77544" lon="5.95529">
        <ele>1600.25</ele>
        <time>2014-08-21T09:03:21Z</time>
      </trkpt>
      <trkpt lat="44.77537" lon="5.9551">
        <ele>1603.62</ele>
        <time>2014-08-21T09:03:42Z</time>
      </trkpt>
      <trkpt lat="44.77537" lon="5.95495">
        <ele>1605.06</ele>
        <time>2014-08-21T09:04:01Z</time>
      </trkpt>
      <trkpt lat="44.77541" lon="5.95474">
        <ele>1607.46</ele>
        <time>2014-08-21T09:04:23Z</time>
      </trkpt>
      <trkpt lat="44.77539" lon="5.95466">
        <ele>1609.38</ele>
        <time>2014-08-21T09:04:40Z</time>
      </trkpt>
      <trkpt lat="44.77536" lon="5.9545">
        <ele>1609.86</ele>
        <time>2014-08-21T09:04:58Z</time>
      </trkpt>
      <trkpt lat="44.77535" lon="5.95433">
        <ele>1610.83</ele>
        <time>2014-08-21T09:05:14Z</time>
      </trkpt>
      <trkpt lat="44.77534" lon="5.95427">
        <ele>1612.75</ele>
        <time>2014-08-21T09:05:33Z</time>
      </trkpt>
      <trkpt lat="44.77532" lon="5.9544">
        <ele>1613.71</ele>
        <time>2014-08-21T09:05:48Z</time>
      </trkpt>
      <trkpt lat="44.77529" lon="5.95456">
        <ele>1616.11</ele>
        <time>2014-08-21T09:06:06Z</time>
      </trkpt>
      <trkpt lat="44.77526" lon="5.95469">
        <ele>1617.56</ele>
        <time>2014-08-21T09:06:22Z</time>
      </trkpt>
      <trkpt lat="44.77523" lon="5.95486">
        <ele>1620.92</ele>
        <time>2014-08-21T09:06:41Z</time>
      </trkpt>
      <trkpt lat="44.77517" lon="5.95499">
        <ele>1619.96</ele>
        <time>2014-08-21T09:06:56Z</time>
      </trkpt>
      <trkpt lat="44.77514" lon="5.95504">
        <ele>1621.88</ele>
        <time>2014-08-21T09:07:15Z</time>
      </trkpt>
      <trkpt lat="44.77516" lon="5.95507">
        <ele>1621.4</ele>
        <time>2014-08-21T09:07:47Z</time>
      </trkpt>
      <trkpt lat="44.77514" lon="5.95513">
        <ele>1623.32</ele>
        <time>2014-08-21T09:08:05Z</time>
      </trkpt>
      <trkpt lat="44.77511" lon="5.95501">
        <ele>1624.28</ele>
        <time>2014-08-21T09:08:23Z</time>
      </trkpt>
      <trkpt lat="44.77512" lon="5.95502">
        <ele>1625.25</ele>
        <time>2014-08-21T09:08:50Z</time>
      </trkpt>
      <trkpt lat="44.77518" lon="5.95501">
        <ele>1625.25</ele>
        <time>2014-08-21T09:09:14Z</time>
      </trkpt>
      <trkpt lat="44.77514" lon="5.95486">
        <ele>1626.21</ele>
        <time>2014-08-21T09:09:33Z</time>
      </trkpt>
      <trkpt lat="44.77513" lon="5.95471">
        <ele>1626.69</ele>
        <time>2014-08-21T09:09:51Z</time>
      </trkpt>
      <trkpt lat="44.77509" lon="5.95455">
        <ele>1629.09</ele>
        <time>2014-08-21T09:10:09Z</time>
      </trkpt>
      <trkpt lat="44.77509" lon="5.95439">
        <ele>1630.53</ele>
        <time>2014-08-21T09:10:28Z</time>
      </trkpt>
      <trkpt lat="44.77507" lon="5.95426">
        <ele>1631.98</ele>
        <time>2014-08-21T09:10:46Z</time>
      </trkpt>
      <trkpt lat="44.77504" lon="5.95411">
        <ele>1633.42</ele>
        <time>2014-08-21T09:11:05Z</time>
      </trkpt>
      <trkpt lat="44.77503" lon="5.95417">
        <ele>1635.34</ele>
        <time>2014-08-21T09:11:20Z</time>
      </trkpt>
      <trkpt lat="44.77504" lon="5.95424">
        <ele>1636.3</ele>
        <time>2014-08-21T09:11:36Z</time>
      </trkpt>
      <trkpt lat="44.77505" lon="5.95425">
        <ele>1635.34</ele>
        <time>2014-08-21T09:12:00Z</time>
      </trkpt>
      <trkpt lat="44.77506" lon="5.95436">
        <ele>1636.78</ele>
        <time>2014-08-21T09:12:23Z</time>
      </trkpt>
      <trkpt lat="44.77504" lon="5.95445">
        <ele>1637.26</ele>
        <time>2014-08-21T09:12:37Z</time>
      </trkpt>
      <trkpt lat="44.77501" lon="5.95458">
        <ele>1638.7</ele>
        <time>2014-08-21T09:12:52Z</time>
      </trkpt>
      <trkpt lat="44.77498" lon="5.95467">
        <ele>1639.67</ele>
        <time>2014-08-21T09:13:06Z</time>
      </trkpt>
      <trkpt lat="44.77494" lon="5.95472">
        <ele>1640.63</ele>
        <time>2014-08-21T09:13:27Z</time>
      </trkpt>
      <trkpt lat="44.77494" lon="5.95464">
        <ele>1641.59</ele>
        <time>2014-08-21T09:13:46Z</time>
      </trkpt>
      <trkpt lat="44.77494" lon="5.95455">
        <ele>1642.07</ele>
        <time>2014-08-21T09:14:03Z</time>
      </trkpt>
      <trkpt lat="44.77492" lon="5.95436">
        <ele>1643.99</ele>
        <time>2014-08-21T09:14:22Z</time>
      </trkpt>
      <trkpt lat="44.77487" lon="5.95422">
        <ele>1646.4</ele>
        <time>2014-08-21T09:14:41Z</time>
      </trkpt>
      <trkpt lat="44.77487" lon="5.95412">
        <ele>1647.36</ele>
        <time>2014-08-21T09:15:01Z</time>
      </trkpt>
      <trkpt lat="44.77487" lon="5.95415">
        <ele>1647.84</ele>
        <time>2014-08-21T09:15:13Z</time>
      </trkpt>
      <trkpt lat="44.77487" lon="5.9543">
        <ele>1648.8</ele>
        <time>2014-08-21T09:15:28Z</time>
      </trkpt>
      <trkpt lat="44.77491" lon="5.9543">
        <ele>1648.32</ele>
        <time>2014-08-21T09:15:54Z</time>
      </trkpt>
      <trkpt lat="44.77487" lon="5.95437">
        <ele>1649.28</ele>
        <time>2014-08-21T09:16:07Z</time>
      </trkpt>
      <trkpt lat="44.77489" lon="5.9544">
        <ele>1649.28</ele>
        <time>2014-08-21T09:16:30Z</time>
      </trkpt>
      <trkpt lat="44.77494" lon="5.95441">
        <ele>1649.28</ele>
        <time>2014-08-21T09:16:54Z</time>
      </trkpt>
      <trkpt lat="44.77492" lon="5.95447">
        <ele>1649.76</ele>
        <time>2014-08-21T09:17:18Z</time>
      </trkpt>
      <trkpt lat="44.77487" lon="5.9546">
        <ele>1651.2</ele>
        <time>2014-08-21T09:17:34Z</time>
      </trkpt>
      <trkpt lat="44.77483" lon="5.95468">
        <ele>1651.68</ele>
        <time>2014-08-21T09:17:52Z</time>
      </trkpt>
      <trkpt lat="44.77481" lon="5.9548">
        <ele>1653.12</ele>
        <time>2014-08-21T09:18:07Z</time>
      </trkpt>
      <trkpt lat="44.7748" lon="5.95486">
        <ele>1652.64</ele>
        <time>2014-08-21T09:18:25Z</time>
      </trkpt>
      <trkpt lat="44.7748" lon="5.95491">
        <ele>1653.12</ele>
        <time>2014-08-21T09:18:43Z</time>
      </trkpt>
      <trkpt lat="44.77477" lon="5.955">
        <ele>1652.64</ele>
        <time>2014-08-21T09:18:57Z</time>
      </trkpt>
      <trkpt lat="44.77472" lon="5.95508">
        <ele>1655.05</ele>
        <time>2014-08-21T09:19:14Z</time>
      </trkpt>
      <trkpt lat="44.77471" lon="5.95519">
        <ele>1656.01</ele>
        <time>2014-08-21T09:19:27Z</time>
      </trkpt>
      <trkpt lat="44.77467" lon="5.95531">
        <ele>1657.45</ele>
        <time>2014-08-21T09:19:43Z</time>
      </trkpt>
      <trkpt lat="44.77461" lon="5.95548">
        <ele>1658.41</ele>
        <time>2014-08-21T09:19:59Z</time>
      </trkpt>
      <trkpt lat="44.77455" lon="5.95562">
        <ele>1660.33</ele>
        <time>2014-08-21T09:20:13Z</time>
      </trkpt>
      <trkpt lat="44.77449" lon="5.95567">
        <ele>1661.78</ele>
        <time>2014-08-21T09:20:29Z</time>
      </trkpt>
      <trkpt lat="44.77457" lon="5.95578">
        <ele>1661.78</ele>
        <time>2014-08-21T09:20:48Z</time>
      </trkpt>
      <trkpt lat="44.77467" lon="5.95598">
        <ele>1663.22</ele>
        <time>2014-08-21T09:21:05Z</time>
      </trkpt>
      <trkpt lat="44.77471" lon="5.95612">
        <ele>1664.18</ele>
        <time>2014-08-21T09:21:22Z</time>
      </trkpt>
      <trkpt lat="44.77474" lon="5.95631">
        <ele>1665.62</ele>
        <time>2014-08-21T09:21:42Z</time>
      </trkpt>
      <trkpt lat="44.77476" lon="5.95646">
        <ele>1667.54</ele>
        <time>2014-08-21T09:21:58Z</time>
      </trkpt>
      <trkpt lat="44.7747" lon="5.95659">
        <ele>1669.95</ele>
        <time>2014-08-21T09:22:12Z</time>
      </trkpt>
      <trkpt lat="44.77474" lon="5.95675">
        <ele>1670.43</ele>
        <time>2014-08-21T09:22:28Z</time>
      </trkpt>
      <trkpt lat="44.77475" lon="5.95679">
        <ele>1670.91</ele>
        <time>2014-08-21T09:22:31Z</time>
      </trkpt>
      <trkpt lat="44.77474" lon="5.95693">
        <ele>1671.39</ele>
        <time>2014-08-21T09:22:46Z</time>
      </trkpt>
      <trkpt lat="44.77474" lon="5.95707">
        <ele>1673.31</ele>
        <time>2014-08-21T09:23:03Z</time>
      </trkpt>
      <trkpt lat="44.77476" lon="5.95722">
        <ele>1673.79</ele>
        <time>2014-08-21T09:23:19Z</time>
      </trkpt>
      <trkpt lat="44.77477" lon="5.95728">
        <ele>1675.23</ele>
        <time>2014-08-21T09:23:34Z</time>
      </trkpt>
      <trkpt lat="44.7748" lon="5.95734">
        <ele>1675.72</ele>
        <time>2014-08-21T09:23:55Z</time>
      </trkpt>
      <trkpt lat="44.77484" lon="5.9574">
        <ele>1675.72</ele>
        <time>2014-08-21T09:24:19Z</time>
      </trkpt>
      <trkpt lat="44.77487" lon="5.9575">
        <ele>1676.68</ele>
        <time>2014-08-21T09:24:35Z</time>
      </trkpt>
      <trkpt lat="44.77491" lon="5.95758">
        <ele>1677.16</ele>
        <time>2014-08-21T09:24:48Z</time>
      </trkpt>
      <trkpt lat="44.77495" lon="5.95771">
        <ele>1679.08</ele>
        <time>2014-08-21T09:25:05Z</time>
      </trkpt>
      <trkpt lat="44.77499" lon="5.95779">
        <ele>1680.04</ele>
        <time>2014-08-21T09:25:23Z</time>
      </trkpt>
      <trkpt lat="44.77501" lon="5.95785">
        <ele>1680.52</ele>
        <time>2014-08-21T09:25:43Z</time>
      </trkpt>
      <trkpt lat="44.77504" lon="5.95794">
        <ele>1681.48</ele>
        <time>2014-08-21T09:26:00Z</time>
      </trkpt>
      <trkpt lat="44.77507" lon="5.95801">
        <ele>1682.93</ele>
        <time>2014-08-21T09:26:13Z</time>
      </trkpt>
      <trkpt lat="44.77507" lon="5.95803">
        <ele>1682.93</ele>
        <time>2014-08-21T09:26:39Z</time>
      </trkpt>
      <trkpt lat="44.77512" lon="5.95803">
        <ele>1683.41</ele>
        <time>2014-08-21T09:27:01Z</time>
      </trkpt>
      <trkpt lat="44.77512" lon="5.95804">
        <ele>1683.41</ele>
        <time>2014-08-21T09:27:34Z</time>
      </trkpt>
      <trkpt lat="44.77511" lon="5.95804">
        <ele>1682.93</ele>
        <time>2014-08-21T09:28:13Z</time>
      </trkpt>
      <trkpt lat="44.77512" lon="5.95804">
        <ele>1682.93</ele>
        <time>2014-08-21T09:28:44Z</time>
      </trkpt>
      <trkpt lat="44.77511" lon="5.95804">
        <ele>1683.41</ele>
        <time>2014-08-21T09:29:03Z</time>
      </trkpt>
      <trkpt lat="44.77514" lon="5.95806">
        <ele>1682.93</ele>
        <time>2014-08-21T09:29:32Z</time>
      </trkpt>
      <trkpt lat="44.77513" lon="5.95805">
        <ele>1683.41</ele>
        <time>2014-08-21T09:29:55Z</time>
      </trkpt>
      <trkpt lat="44.77512" lon="5.95804">
        <ele>1683.41</ele>
        <time>2014-08-21T09:30:23Z</time>
      </trkpt>
      <trkpt lat="44.77513" lon="5.95807">
        <ele>1683.41</ele>
        <time>2014-08-21T09:30:47Z</time>
      </trkpt>
      <trkpt lat="44.77508" lon="5.95808">
        <ele>1684.37</ele>
        <time>2014-08-21T09:31:04Z</time>
      </trkpt>
      <trkpt lat="44.77513" lon="5.95813">
        <ele>1683.89</ele>
        <time>2014-08-21T09:31:21Z</time>
      </trkpt>
      <trkpt lat="44.77513" lon="5.9582">
        <ele>1684.85</ele>
        <time>2014-08-21T09:31:29Z</time>
      </trkpt>
      <trkpt lat="44.77512" lon="5.95822">
        <ele>1685.33</ele>
        <time>2014-08-21T09:31:31Z</time>
      </trkpt>
      <trkpt lat="44.77507" lon="5.95833">
        <ele>1685.33</ele>
        <time>2014-08-21T09:31:44Z</time>
      </trkpt>
      <trkpt lat="44.77502" lon="5.95843">
        <ele>1685.81</ele>
        <time>2014-08-21T09:32:01Z</time>
      </trkpt>
      <trkpt lat="44.775" lon="5.95857">
        <ele>1687.25</ele>
        <time>2014-08-21T09:32:16Z</time>
      </trkpt>
      <trkpt lat="44.77501" lon="5.95864">
        <ele>1687.73</ele>
        <time>2014-08-21T09:32:30Z</time>
      </trkpt>
      <trkpt lat="44.77497" lon="5.9588">
        <ele>1689.65</ele>
        <time>2014-08-21T09:32:48Z</time>
      </trkpt>
      <trkpt lat="44.77497" lon="5.95881">
        <ele>1690.14</ele>
        <time>2014-08-21T09:32:49Z</time>
      </trkpt>
      <trkpt lat="44.77494" lon="5.95893">
        <ele>1690.62</ele>
        <time>2014-08-21T09:33:04Z</time>
      </trkpt>
      <trkpt lat="44.77491" lon="5.95906">
        <ele>1692.54</ele>
        <time>2014-08-21T09:33:18Z</time>
      </trkpt>
      <trkpt lat="44.77481" lon="5.95914">
        <ele>1694.46</ele>
        <time>2014-08-21T09:33:36Z</time>
      </trkpt>
      <trkpt lat="44.77478" lon="5.95914">
        <ele>1694.46</ele>
        <time>2014-08-21T09:33:51Z</time>
      </trkpt>
      <trkpt lat="44.77474" lon="5.95917">
        <ele>1694.94</ele>
        <time>2014-08-21T09:34:07Z</time>
      </trkpt>
      <trkpt lat="44.77468" lon="5.95921">
        <ele>1694.94</ele>
        <time>2014-08-21T09:34:23Z</time>
      </trkpt>
      <trkpt lat="44.77463" lon="5.95923">
        <ele>1694.94</ele>
        <time>2014-08-21T09:34:36Z</time>
      </trkpt>
      <trkpt lat="44.77457" lon="5.95926">
        <ele>1696.38</ele>
        <time>2014-08-21T09:34:48Z</time>
      </trkpt>
      <trkpt lat="44.77451" lon="5.95927">
        <ele>1696.86</ele>
        <time>2014-08-21T09:35:10Z</time>
      </trkpt>
      <trkpt lat="44.77447" lon="5.95928">
        <ele>1697.83</ele>
        <time>2014-08-21T09:35:26Z</time>
      </trkpt>
      <trkpt lat="44.77442" lon="5.95934">
        <ele>1697.83</ele>
        <time>2014-08-21T09:35:40Z</time>
      </trkpt>
      <trkpt lat="44.77434" lon="5.95935">
        <ele>1699.27</ele>
        <time>2014-08-21T09:35:54Z</time>
      </trkpt>
      <trkpt lat="44.77426" lon="5.95937">
        <ele>1700.23</ele>
        <time>2014-08-21T09:36:08Z</time>
      </trkpt>
      <trkpt lat="44.7742" lon="5.95939">
        <ele>1701.19</ele>
        <time>2014-08-21T09:36:22Z</time>
      </trkpt>
      <trkpt lat="44.77414" lon="5.95938">
        <ele>1702.15</ele>
        <time>2014-08-21T09:36:40Z</time>
      </trkpt>
      <trkpt lat="44.77408" lon="5.95938">
        <ele>1702.63</ele>
        <time>2014-08-21T09:36:56Z</time>
      </trkpt>
      <trkpt lat="44.77407" lon="5.95937">
        <ele>1701.67</ele>
        <time>2014-08-21T09:37:14Z</time>
      </trkpt>
      <trkpt lat="44.77407" lon="5.95942">
        <ele>1702.63</ele>
        <time>2014-08-21T09:37:44Z</time>
      </trkpt>
      <trkpt lat="44.77403" lon="5.95943">
        <ele>1702.15</ele>
        <time>2014-08-21T09:38:11Z</time>
      </trkpt>
      <trkpt lat="44.77402" lon="5.95944">
        <ele>1701.67</ele>
        <time>2014-08-21T09:38:33Z</time>
      </trkpt>
      <trkpt lat="44.77397" lon="5.95943">
        <ele>1702.15</ele>
        <time>2014-08-21T09:38:49Z</time>
      </trkpt>
      <trkpt lat="44.77391" lon="5.95944">
        <ele>1702.15</ele>
        <time>2014-08-21T09:39:04Z</time>
      </trkpt>
      <trkpt lat="44.77382" lon="5.95941">
        <ele>1702.63</ele>
        <time>2014-08-21T09:39:23Z</time>
      </trkpt>
      <trkpt lat="44.77376" lon="5.95938">
        <ele>1704.07</ele>
        <time>2014-08-21T09:39:38Z</time>
      </trkpt>
      <trkpt lat="44.77374" lon="5.95935">
        <ele>1705.04</ele>
        <time>2014-08-21T09:39:54Z</time>
      </trkpt>
      <trkpt lat="44.7737" lon="5.95934">
        <ele>1706.48</ele>
        <time>2014-08-21T09:40:09Z</time>
      </trkpt>
      <trkpt lat="44.77366" lon="5.95931">
        <ele>1708.4</ele>
        <time>2014-08-21T09:40:23Z</time>
      </trkpt>
      <trkpt lat="44.77361" lon="5.9593">
        <ele>1709.84</ele>
        <time>2014-08-21T09:40:37Z</time>
      </trkpt>
      <trkpt lat="44.77358" lon="5.95925">
        <ele>1711.28</ele>
        <time>2014-08-21T09:40:51Z</time>
      </trkpt>
      <trkpt lat="44.77358" lon="5.95922">
        <ele>1712.73</ele>
        <time>2014-08-21T09:41:06Z</time>
      </trkpt>
      <trkpt lat="44.77358" lon="5.95918">
        <ele>1714.65</ele>
        <time>2014-08-21T09:41:23Z</time>
      </trkpt>
      <trkpt lat="44.77354" lon="5.95914">
        <ele>1717.05</ele>
        <time>2014-08-21T09:41:40Z</time>
      </trkpt>
      <trkpt lat="44.77356" lon="5.95913">
        <ele>1717.53</ele>
        <time>2014-08-21T09:41:54Z</time>
      </trkpt>
      <trkpt lat="44.77361" lon="5.95912">
        <ele>1718.01</ele>
        <time>2014-08-21T09:42:21Z</time>
      </trkpt>
      <trkpt lat="44.77368" lon="5.95904">
        <ele>1718.97</ele>
        <time>2014-08-21T09:42:36Z</time>
      </trkpt>
      <trkpt lat="44.77374" lon="5.95902">
        <ele>1719.94</ele>
        <time>2014-08-21T09:42:51Z</time>
      </trkpt>
      <trkpt lat="44.77376" lon="5.95897">
        <ele>1720.42</ele>
        <time>2014-08-21T09:43:07Z</time>
      </trkpt>
      <trkpt lat="44.77377" lon="5.95896">
        <ele>1719.94</ele>
        <time>2014-08-21T09:43:22Z</time>
      </trkpt>
      <trkpt lat="44.77376" lon="5.95896">
        <ele>1719.94</ele>
        <time>2014-08-21T09:43:56Z</time>
      </trkpt>
      <trkpt lat="44.77376" lon="5.95896">
        <ele>1719.46</ele>
        <time>2014-08-21T09:44:26Z</time>
      </trkpt>
      <trkpt lat="44.77378" lon="5.95895">
        <ele>1719.94</ele>
        <time>2014-08-21T09:44:57Z</time>
      </trkpt>
      <trkpt lat="44.77377" lon="5.95895">
        <ele>1720.42</ele>
        <time>2014-08-21T09:45:24Z</time>
      </trkpt>
      <trkpt lat="44.77378" lon="5.95896">
        <ele>1719.94</ele>
        <time>2014-08-21T09:45:56Z</time>
      </trkpt>
      <trkpt lat="44.77377" lon="5.95897">
        <ele>1719.94</ele>
        <time>2014-08-21T09:46:28Z</time>
      </trkpt>
      <trkpt lat="44.77377" lon="5.95897">
        <ele>1719.94</ele>
        <time>2014-08-21T09:46:54Z</time>
      </trkpt>
      <trkpt lat="44.77378" lon="5.95896">
        <ele>1719.94</ele>
        <time>2014-08-21T09:47:26Z</time>
      </trkpt>
      <trkpt lat="44.77377" lon="5.95899">
        <ele>1719.94</ele>
        <time>2014-08-21T09:47:51Z</time>
      </trkpt>
      <trkpt lat="44.77377" lon="5.95898">
        <ele>1719.94</ele>
        <time>2014-08-21T09:48:12Z</time>
      </trkpt>
      <trkpt lat="44.77383" lon="5.95898">
        <ele>1719.46</ele>
        <time>2014-08-21T09:48:37Z</time>
      </trkpt>
      <trkpt lat="44.77381" lon="5.95897">
        <ele>1719.46</ele>
        <time>2014-08-21T09:49:02Z</time>
      </trkpt>
      <trkpt lat="44.77383" lon="5.95899">
        <ele>1719.46</ele>
        <time>2014-08-21T09:49:35Z</time>
      </trkpt>
      <trkpt lat="44.77382" lon="5.959">
        <ele>1719.46</ele>
        <time>2014-08-21T09:50:08Z</time>
      </trkpt>
      <trkpt lat="44.77381" lon="5.959">
        <ele>1719.94</ele>
        <time>2014-08-21T09:50:36Z</time>
      </trkpt>
      <trkpt lat="44.77384" lon="5.95898">
        <ele>1720.42</ele>
        <time>2014-08-21T09:51:13Z</time>
      </trkpt>
      <trkpt lat="44.77382" lon="5.95897">
        <ele>1719.94</ele>
        <time>2014-08-21T09:51:48Z</time>
      </trkpt>
      <trkpt lat="44.77379" lon="5.95897">
        <ele>1720.42</ele>
        <time>2014-08-21T09:52:23Z</time>
      </trkpt>
      <trkpt lat="44.77379" lon="5.95897">
        <ele>1720.42</ele>
        <time>2014-08-21T09:53:01Z</time>
      </trkpt>
      <trkpt lat="44.77379" lon="5.95897">
        <ele>1720.42</ele>
        <time>2014-08-21T09:53:33Z</time>
      </trkpt>
      <trkpt lat="44.77384" lon="5.95897">
        <ele>1720.42</ele>
        <time>2014-08-21T09:54:10Z</time>
      </trkpt>
      <trkpt lat="44.77385" lon="5.95896">
        <ele>1720.42</ele>
        <time>2014-08-21T09:54:40Z</time>
      </trkpt>
      <trkpt lat="44.77383" lon="5.95897">
        <ele>1719.94</ele>
        <time>2014-08-21T09:55:07Z</time>
      </trkpt>
      <trkpt lat="44.77382" lon="5.95897">
        <ele>1719.94</ele>
        <time>2014-08-21T09:55:46Z</time>
      </trkpt>
      <trkpt lat="44.77377" lon="5.95893">
        <ele>1719.94</ele>
        <time>2014-08-21T09:56:20Z</time>
      </trkpt>
      <trkpt lat="44.7738" lon="5.95893">
        <ele>1719.94</ele>
        <time>2014-08-21T09:56:59Z</time>
      </trkpt>
      <trkpt lat="44.77378" lon="5.95896">
        <ele>1719.46</ele>
        <time>2014-08-21T09:57:38Z</time>
      </trkpt>
      <trkpt lat="44.77377" lon="5.95897">
        <ele>1718.97</ele>
        <time>2014-08-21T09:58:11Z</time>
      </trkpt>
      <trkpt lat="44.77377" lon="5.95898">
        <ele>1718.97</ele>
        <time>2014-08-21T09:58:50Z</time>
      </trkpt>
      <trkpt lat="44.77383" lon="5.95895">
        <ele>1718.97</ele>
        <time>2014-08-21T09:59:19Z</time>
      </trkpt>
      <trkpt lat="44.77387" lon="5.95895">
        <ele>1718.97</ele>
        <time>2014-08-21T09:59:53Z</time>
      </trkpt>
      <trkpt lat="44.77383" lon="5.95891">
        <ele>1718.01</ele>
        <time>2014-08-21T10:00:29Z</time>
      </trkpt>
      <trkpt lat="44.77381" lon="5.95892">
        <ele>1718.49</ele>
        <time>2014-08-21T10:01:07Z</time>
      </trkpt>
      <trkpt lat="44.77379" lon="5.95891">
        <ele>1718.01</ele>
        <time>2014-08-21T10:01:42Z</time>
      </trkpt>
      <trkpt lat="44.7738" lon="5.95889">
        <ele>1717.53</ele>
        <time>2014-08-21T10:02:17Z</time>
      </trkpt>
      <trkpt lat="44.7738" lon="5.95892">
        <ele>1717.05</ele>
        <time>2014-08-21T10:02:49Z</time>
      </trkpt>
      <trkpt lat="44.77382" lon="5.95896">
        <ele>1717.05</ele>
        <time>2014-08-21T10:03:26Z</time>
      </trkpt>
      <trkpt lat="44.77382" lon="5.95896">
        <ele>1717.05</ele>
        <time>2014-08-21T10:04:01Z</time>
      </trkpt>
      <trkpt lat="44.77383" lon="5.95896">
        <ele>1717.05</ele>
        <time>2014-08-21T10:04:34Z</time>
      </trkpt>
      <trkpt lat="44.77385" lon="5.95897">
        <ele>1717.05</ele>
        <time>2014-08-21T10:05:06Z</time>
      </trkpt>
      <trkpt lat="44.77381" lon="5.95893">
        <ele>1717.05</ele>
        <time>2014-08-21T10:05:48Z</time>
      </trkpt>
      <trkpt lat="44.7738" lon="5.95893">
        <ele>1717.05</ele>
        <time>2014-08-21T10:06:27Z</time>
      </trkpt>
      <trkpt lat="44.77379" lon="5.9589">
        <ele>1717.05</ele>
        <time>2014-08-21T10:07:04Z</time>
      </trkpt>
      <trkpt lat="44.7738" lon="5.95892">
        <ele>1717.05</ele>
        <time>2014-08-21T10:07:40Z</time>
      </trkpt>
      <trkpt lat="44.77379" lon="5.95894">
        <ele>1717.05</ele>
        <time>2014-08-21T10:08:21Z</time>
      </trkpt>
      <trkpt lat="44.77378" lon="5.95892">
        <ele>1716.57</ele>
        <time>2014-08-21T10:08:57Z</time>
      </trkpt>
      <trkpt lat="44.77382" lon="5.95894">
        <ele>1716.57</ele>
        <time>2014-08-21T10:09:37Z</time>
      </trkpt>
      <trkpt lat="44.77388" lon="5.959">
        <ele>1716.57</ele>
        <time>2014-08-21T10:10:14Z</time>
      </trkpt>
      <trkpt lat="44.77391" lon="5.95903">
        <ele>1716.57</ele>
        <time>2014-08-21T10:10:46Z</time>
      </trkpt>
      <trkpt lat="44.77389" lon="5.95901">
        <ele>1717.05</ele>
        <time>2014-08-21T10:11:17Z</time>
      </trkpt>
      <trkpt lat="44.77396" lon="5.95899">
        <ele>1717.05</ele>
        <time>2014-08-21T10:11:42Z</time>
      </trkpt>
      <trkpt lat="44.77395" lon="5.959">
        <ele>1717.53</ele>
        <time>2014-08-21T10:12:13Z</time>
      </trkpt>
      <trkpt lat="44.77384" lon="5.95899">
        <ele>1717.05</ele>
        <time>2014-08-21T10:12:45Z</time>
      </trkpt>
      <trkpt lat="44.77379" lon="5.95898">
        <ele>1717.53</ele>
        <time>2014-08-21T10:13:12Z</time>
      </trkpt>
      <trkpt lat="44.77379" lon="5.959">
        <ele>1717.53</ele>
        <time>2014-08-21T10:13:35Z</time>
      </trkpt>
      <trkpt lat="44.7738" lon="5.959">
        <ele>1717.53</ele>
        <time>2014-08-21T10:13:58Z</time>
      </trkpt>
      <trkpt lat="44.77377" lon="5.959">
        <ele>1717.53</ele>
        <time>2014-08-21T10:14:17Z</time>
      </trkpt>
      <trkpt lat="44.7738" lon="5.959">
        <ele>1717.53</ele>
        <time>2014-08-21T10:14:39Z</time>
      </trkpt>
      <trkpt lat="44.77379" lon="5.95901">
        <ele>1717.53</ele>
        <time>2014-08-21T10:15:03Z</time>
      </trkpt>
      <trkpt lat="44.77378" lon="5.959">
        <ele>1718.01</ele>
        <time>2014-08-21T10:15:24Z</time>
      </trkpt>
      <trkpt lat="44.77382" lon="5.959">
        <ele>1718.49</ele>
        <time>2014-08-21T10:15:57Z</time>
      </trkpt>
      <trkpt lat="44.77384" lon="5.95901">
        <ele>1718.97</ele>
        <time>2014-08-21T10:16:28Z</time>
      </trkpt>
      <trkpt lat="44.77385" lon="5.95901">
        <ele>1718.01</ele>
        <time>2014-08-21T10:16:58Z</time>
      </trkpt>
      <trkpt lat="44.77382" lon="5.95903">
        <ele>1718.49</ele>
        <time>2014-08-21T10:17:31Z</time>
      </trkpt>
      <trkpt lat="44.77377" lon="5.95903">
        <ele>1718.97</ele>
        <time>2014-08-21T10:18:10Z</time>
      </trkpt>
      <trkpt lat="44.77373" lon="5.95905">
        <ele>1718.97</ele>
        <time>2014-08-21T10:18:41Z</time>
      </trkpt>
      <trkpt lat="44.77363" lon="5.95906">
        <ele>1718.49</ele>
        <time>2014-08-21T10:19:22Z</time>
      </trkpt>
      <trkpt lat="44.77376" lon="5.95901">
        <ele>1718.97</ele>
        <time>2014-08-21T10:19:48Z</time>
      </trkpt>
      <trkpt lat="44.77374" lon="5.95901">
        <ele>1719.46</ele>
        <time>2014-08-21T10:20:21Z</time>
      </trkpt>
      <trkpt lat="44.77376" lon="5.95899">
        <ele>1719.46</ele>
        <time>2014-08-21T10:20:52Z</time>
      </trkpt>
      <trkpt lat="44.77376" lon="5.959">
        <ele>1719.94</ele>
        <time>2014-08-21T10:21:04Z</time>
      </trkpt>
      <trkpt lat="44.77385" lon="5.95901">
        <ele>1719.46</ele>
        <time>2014-08-21T10:21:32Z</time>
      </trkpt>
      <trkpt lat="44.7738" lon="5.95898">
        <ele>1719.46</ele>
        <time>2014-08-21T10:21:56Z</time>
      </trkpt>
      <trkpt lat="44.7738" lon="5.95899">
        <ele>1719.46</ele>
        <time>2014-08-21T10:22:24Z</time>
      </trkpt>
      <trkpt lat="44.7738" lon="5.95899">
        <ele>1719.94</ele>
        <time>2014-08-21T10:22:55Z</time>
      </trkpt>
      <trkpt lat="44.77381" lon="5.95899">
        <ele>1719.46</ele>
        <time>2014-08-21T10:23:27Z</time>
      </trkpt>
      <trkpt lat="44.77384" lon="5.95899">
        <ele>1719.46</ele>
        <time>2014-08-21T10:24:02Z</time>
      </trkpt>
      <trkpt lat="44.77384" lon="5.95898">
        <ele>1719.94</ele>
        <time>2014-08-21T10:24:35Z</time>
      </trkpt>
      <trkpt lat="44.77381" lon="5.95898">
        <ele>1719.94</ele>
        <time>2014-08-21T10:24:56Z</time>
      </trkpt>
      <trkpt lat="44.77378" lon="5.95899">
        <ele>1719.94</ele>
        <time>2014-08-21T10:25:18Z</time>
      </trkpt>
      <trkpt lat="44.77382" lon="5.959">
        <ele>1719.94</ele>
        <time>2014-08-21T10:25:46Z</time>
      </trkpt>
      <trkpt lat="44.77381" lon="5.959">
        <ele>1719.94</ele>
        <time>2014-08-21T10:26:17Z</time>
      </trkpt>
      <trkpt lat="44.77385" lon="5.95902">
        <ele>1720.42</ele>
        <time>2014-08-21T10:26:46Z</time>
      </trkpt>
      <trkpt lat="44.77384" lon="5.959">
        <ele>1720.42</ele>
        <time>2014-08-21T10:27:14Z</time>
      </trkpt>
      <trkpt lat="44.77383" lon="5.959">
        <ele>1720.42</ele>
        <time>2014-08-21T10:27:51Z</time>
      </trkpt>
      <trkpt lat="44.77382" lon="5.95899">
        <ele>1720.9</ele>
        <time>2014-08-21T10:28:22Z</time>
      </trkpt>
      <trkpt lat="44.77379" lon="5.95901">
        <ele>1720.9</ele>
        <time>2014-08-21T10:28:51Z</time>
      </trkpt>
      <trkpt lat="44.77378" lon="5.95899">
        <ele>1721.38</ele>
        <time>2014-08-21T10:29:23Z</time>
      </trkpt>
      <trkpt lat="44.77375" lon="5.95899">
        <ele>1720.42</ele>
        <time>2014-08-21T10:29:53Z</time>
      </trkpt>
      <trkpt lat="44.77374" lon="5.95899">
        <ele>1721.38</ele>
        <time>2014-08-21T10:30:23Z</time>
      </trkpt>
      <trkpt lat="44.77376" lon="5.95899">
        <ele>1721.38</ele>
        <time>2014-08-21T10:31:00Z</time>
      </trkpt>
      <trkpt lat="44.7738" lon="5.959">
        <ele>1720.9</ele>
        <time>2014-08-21T10:31:26Z</time>
      </trkpt>
      <trkpt lat="44.77388" lon="5.95902">
        <ele>1721.86</ele>
        <time>2014-08-21T10:31:38Z</time>
      </trkpt>
      <trkpt lat="44.77381" lon="5.959">
        <ele>1721.38</ele>
        <time>2014-08-21T10:32:03Z</time>
      </trkpt>
      <trkpt lat="44.77373" lon="5.95896">
        <ele>1721.38</ele>
        <time>2014-08-21T10:32:38Z</time>
      </trkpt>
      <trkpt lat="44.77381" lon="5.95898">
        <ele>1721.38</ele>
        <time>2014-08-21T10:33:23Z</time>
      </trkpt>
      <trkpt lat="44.77384" lon="5.95898">
        <ele>1721.38</ele>
        <time>2014-08-21T10:34:03Z</time>
      </trkpt>
      <trkpt lat="44.77382" lon="5.95898">
        <ele>1720.9</ele>
        <time>2014-08-21T10:34:36Z</time>
      </trkpt>
      <trkpt lat="44.77377" lon="5.95898">
        <ele>1720.9</ele>
        <time>2014-08-21T10:35:08Z</time>
      </trkpt>
      <trkpt lat="44.77377" lon="5.95897">
        <ele>1720.9</ele>
        <time>2014-08-21T10:35:43Z</time>
      </trkpt>
      <trkpt lat="44.77379" lon="5.95898">
        <ele>1720.9</ele>
        <time>2014-08-21T10:36:13Z</time>
      </trkpt>
      <trkpt lat="44.77384" lon="5.959">
        <ele>1720.9</ele>
        <time>2014-08-21T10:36:40Z</time>
      </trkpt>
      <trkpt lat="44.77386" lon="5.959">
        <ele>1720.9</ele>
        <time>2014-08-21T10:37:08Z</time>
      </trkpt>
      <trkpt lat="44.77389" lon="5.959">
        <ele>1720.9</ele>
        <time>2014-08-21T10:37:47Z</time>
      </trkpt>
      <trkpt lat="44.77386" lon="5.95898">
        <ele>1721.38</ele>
        <time>2014-08-21T10:38:12Z</time>
      </trkpt>
      <trkpt lat="44.77386" lon="5.95899">
        <ele>1721.38</ele>
        <time>2014-08-21T10:38:38Z</time>
      </trkpt>
      <trkpt lat="44.77383" lon="5.959">
        <ele>1717.53</ele>
        <time>2014-08-21T10:38:50Z</time>
      </trkpt>
      <trkpt lat="44.77382" lon="5.959">
        <ele>1724.26</ele>
        <time>2014-08-21T10:38:51Z</time>
      </trkpt>
      <trkpt lat="44.77382" lon="5.959">
        <ele>1721.38</ele>
        <time>2014-08-21T10:38:52Z</time>
      </trkpt>
      <trkpt lat="44.77376" lon="5.95897">
        <ele>1721.38</ele>
        <time>2014-08-21T10:39:23Z</time>
      </trkpt>
      <trkpt lat="44.77381" lon="5.95897">
        <ele>1721.38</ele>
        <time>2014-08-21T10:39:57Z</time>
      </trkpt>
      <trkpt lat="44.77377" lon="5.95897">
        <ele>1721.38</ele>
        <time>2014-08-21T10:40:25Z</time>
      </trkpt>
      <trkpt lat="44.77375" lon="5.95897">
        <ele>1721.38</ele>
        <time>2014-08-21T10:40:54Z</time>
      </trkpt>
      <trkpt lat="44.77374" lon="5.959">
        <ele>1721.86</ele>
        <time>2014-08-21T10:41:24Z</time>
      </trkpt>
      <trkpt lat="44.77377" lon="5.95898">
        <ele>1721.86</ele>
        <time>2014-08-21T10:42:02Z</time>
      </trkpt>
      <trkpt lat="44.77379" lon="5.95896">
        <ele>1721.86</ele>
        <time>2014-08-21T10:42:35Z</time>
      </trkpt>
      <trkpt lat="44.77382" lon="5.95899">
        <ele>1721.38</ele>
        <time>2014-08-21T10:43:09Z</time>
      </trkpt>
      <trkpt lat="44.7738" lon="5.95899">
        <ele>1721.38</ele>
        <time>2014-08-21T10:43:35Z</time>
      </trkpt>
      <trkpt lat="44.77376" lon="5.95898">
        <ele>1721.86</ele>
        <time>2014-08-21T10:44:00Z</time>
      </trkpt>
      <trkpt lat="44.77378" lon="5.95898">
        <ele>1721.86</ele>
        <time>2014-08-21T10:44:31Z</time>
      </trkpt>
      <trkpt lat="44.77376" lon="5.95898">
        <ele>1721.86</ele>
        <time>2014-08-21T10:45:02Z</time>
      </trkpt>
      <trkpt lat="44.77378" lon="5.95898">
        <ele>1721.38</ele>
        <time>2014-08-21T10:45:28Z</time>
      </trkpt>
      <trkpt lat="44.77379" lon="5.95898">
        <ele>1721.38</ele>
        <time>2014-08-21T10:45:55Z</time>
      </trkpt>
      <trkpt lat="44.77379" lon="5.95898">
        <ele>1721.38</ele>
        <time>2014-08-21T10:46:22Z</time>
      </trkpt>
      <trkpt lat="44.77379" lon="5.95899">
        <ele>1721.38</ele>
        <time>2014-08-21T10:46:51Z</time>
      </trkpt>
      <trkpt lat="44.7738" lon="5.95898">
        <ele>1720.9</ele>
        <time>2014-08-21T10:47:23Z</time>
      </trkpt>
      <trkpt lat="44.7738" lon="5.959">
        <ele>1721.38</ele>
        <time>2014-08-21T10:47:53Z</time>
      </trkpt>
      <trkpt lat="44.77378" lon="5.95901">
        <ele>1720.9</ele>
        <time>2014-08-21T10:48:22Z</time>
      </trkpt>
      <trkpt lat="44.77376" lon="5.959">
        <ele>1720.9</ele>
        <time>2014-08-21T10:48:51Z</time>
      </trkpt>
      <trkpt lat="44.77376" lon="5.959">
        <ele>1720.9</ele>
        <time>2014-08-21T10:49:26Z</time>
      </trkpt>
      <trkpt lat="44.77377" lon="5.95898">
        <ele>1720.9</ele>
        <time>2014-08-21T10:49:52Z</time>
      </trkpt>
      <trkpt lat="44.77378" lon="5.95898">
        <ele>1720.9</ele>
        <time>2014-08-21T10:50:14Z</time>
      </trkpt>
      <trkpt lat="44.77379" lon="5.95899">
        <ele>1720.9</ele>
        <time>2014-08-21T10:50:41Z</time>
      </trkpt>
      <trkpt lat="44.77378" lon="5.95899">
        <ele>1720.9</ele>
        <time>2014-08-21T10:51:10Z</time>
      </trkpt>
      <trkpt lat="44.77378" lon="5.95899">
        <ele>1721.38</ele>
        <time>2014-08-21T10:51:41Z</time>
      </trkpt>
      <trkpt lat="44.77379" lon="5.95899">
        <ele>1721.38</ele>
        <time>2014-08-21T10:52:14Z</time>
      </trkpt>
      <trkpt lat="44.77379" lon="5.959">
        <ele>1721.38</ele>
        <time>2014-08-21T10:52:50Z</time>
      </trkpt>
      <trkpt lat="44.77379" lon="5.959">
        <ele>1721.38</ele>
        <time>2014-08-21T10:53:32Z</time>
      </trkpt>
      <trkpt lat="44.77378" lon="5.959">
        <ele>1721.86</ele>
        <time>2014-08-21T10:54:09Z</time>
      </trkpt>
      <trkpt lat="44.77379" lon="5.95899">
        <ele>1721.38</ele>
        <time>2014-08-21T10:54:43Z</time>
      </trkpt>
      <trkpt lat="44.77378" lon="5.959">
        <ele>1721.86</ele>
        <time>2014-08-21T10:55:15Z</time>
      </trkpt>
      <trkpt lat="44.77379" lon="5.95899">
        <ele>1721.38</ele>
        <time>2014-08-21T10:55:39Z</time>
      </trkpt>
      <trkpt lat="44.7738" lon="5.95898">
        <ele>1721.86</ele>
        <time>2014-08-21T10:56:09Z</time>
      </trkpt>
      <trkpt lat="44.77382" lon="5.95897">
        <ele>1721.38</ele>
        <time>2014-08-21T10:56:50Z</time>
      </trkpt>
      <trkpt lat="44.77383" lon="5.95897">
        <ele>1721.38</ele>
        <time>2014-08-21T10:57:24Z</time>
      </trkpt>
      <trkpt lat="44.77381" lon="5.95896">
        <ele>1721.38</ele>
        <time>2014-08-21T10:57:52Z</time>
      </trkpt>
      <trkpt lat="44.7738" lon="5.95898">
        <ele>1722.34</ele>
        <time>2014-08-21T10:58:23Z</time>
      </trkpt>
      <trkpt lat="44.7738" lon="5.95897">
        <ele>1722.34</ele>
        <time>2014-08-21T10:58:42Z</time>
      </trkpt>
      <trkpt lat="44.77381" lon="5.95899">
        <ele>1722.34</ele>
        <time>2014-08-21T10:59:04Z</time>
      </trkpt>
      <trkpt lat="44.77375" lon="5.95903">
        <ele>1722.34</ele>
        <time>2014-08-21T10:59:16Z</time>
      </trkpt>
      <trkpt lat="44.77372" lon="5.95909">
        <ele>1720.42</ele>
        <time>2014-08-21T10:59:31Z</time>
      </trkpt>
      <trkpt lat="44.77374" lon="5.95912">
        <ele>1718.97</ele>
        <time>2014-08-21T10:59:51Z</time>
      </trkpt>
      <trkpt lat="44.77374" lon="5.95912">
        <ele>1717.53</ele>
        <time>2014-08-21T11:00:06Z</time>
      </trkpt>
      <trkpt lat="44.77379" lon="5.95918">
        <ele>1716.09</ele>
        <time>2014-08-21T11:00:22Z</time>
      </trkpt>
      <trkpt lat="44.77384" lon="5.95919">
        <ele>1714.65</ele>
        <time>2014-08-21T11:00:38Z</time>
      </trkpt>
      <trkpt lat="44.7738" lon="5.95929">
        <ele>1712.25</ele>
        <time>2014-08-21T11:00:53Z</time>
      </trkpt>
      <trkpt lat="44.7738" lon="5.95934">
        <ele>1709.36</ele>
        <time>2014-08-21T11:01:07Z</time>
      </trkpt>
      <trkpt lat="44.77375" lon="5.95942">
        <ele>1706.96</ele>
        <time>2014-08-21T11:01:20Z</time>
      </trkpt>
      <trkpt lat="44.77382" lon="5.95942">
        <ele>1705.04</ele>
        <time>2014-08-21T11:01:35Z</time>
      </trkpt>
      <trkpt lat="44.77384" lon="5.95948">
        <ele>1703.11</ele>
        <time>2014-08-21T11:01:50Z</time>
      </trkpt>
      <trkpt lat="44.77381" lon="5.95951">
        <ele>1701.67</ele>
        <time>2014-08-21T11:02:03Z</time>
      </trkpt>
      <trkpt lat="44.7738" lon="5.95952">
        <ele>1701.67</ele>
        <time>2014-08-21T11:02:09Z</time>
      </trkpt>
      <trkpt lat="44.77377" lon="5.95953">
        <ele>1701.19</ele>
        <time>2014-08-21T11:02:25Z</time>
      </trkpt>
      <trkpt lat="44.77376" lon="5.95952">
        <ele>1701.19</ele>
        <time>2014-08-21T11:02:56Z</time>
      </trkpt>
      <trkpt lat="44.77376" lon="5.95951">
        <ele>1701.19</ele>
        <time>2014-08-21T11:03:13Z</time>
      </trkpt>
      <trkpt lat="44.77376" lon="5.95951">
        <ele>1701.19</ele>
        <time>2014-08-21T11:03:37Z</time>
      </trkpt>
      <trkpt lat="44.77381" lon="5.95952">
        <ele>1701.19</ele>
        <time>2014-08-21T11:04:02Z</time>
      </trkpt>
      <trkpt lat="44.77382" lon="5.95952">
        <ele>1701.19</ele>
        <time>2014-08-21T11:04:23Z</time>
      </trkpt>
      <trkpt lat="44.77382" lon="5.95952">
        <ele>1701.19</ele>
        <time>2014-08-21T11:04:44Z</time>
      </trkpt>
      <trkpt lat="44.77384" lon="5.95953">
        <ele>1701.19</ele>
        <time>2014-08-21T11:05:04Z</time>
      </trkpt>
      <trkpt lat="44.77383" lon="5.95952">
        <ele>1701.19</ele>
        <time>2014-08-21T11:05:32Z</time>
      </trkpt>
      <trkpt lat="44.77385" lon="5.95953">
        <ele>1701.19</ele>
        <time>2014-08-21T11:06:02Z</time>
      </trkpt>
      <trkpt lat="44.77392" lon="5.9595">
        <ele>1701.19</ele>
        <time>2014-08-21T11:06:22Z</time>
      </trkpt>
      <trkpt lat="44.774" lon="5.95946">
        <ele>1702.63</ele>
        <time>2014-08-21T11:06:39Z</time>
      </trkpt>
      <trkpt lat="44.77403" lon="5.95948">
        <ele>1703.11</ele>
        <time>2014-08-21T11:06:59Z</time>
      </trkpt>
      <trkpt lat="44.77405" lon="5.95947">
        <ele>1703.11</ele>
        <time>2014-08-21T11:07:08Z</time>
      </trkpt>
      <trkpt lat="44.77414" lon="5.95941">
        <ele>1704.07</ele>
        <time>2014-08-21T11:07:23Z</time>
      </trkpt>
      <trkpt lat="44.77424" lon="5.95939">
        <ele>1702.15</ele>
        <time>2014-08-21T11:07:40Z</time>
      </trkpt>
      <trkpt lat="44.77433" lon="5.95937">
        <ele>1701.19</ele>
        <time>2014-08-21T11:07:56Z</time>
      </trkpt>
      <trkpt lat="44.77441" lon="5.95936">
        <ele>1699.75</ele>
        <time>2014-08-21T11:08:12Z</time>
      </trkpt>
      <trkpt lat="44.77446" lon="5.95934">
        <ele>1698.79</ele>
        <time>2014-08-21T11:08:26Z</time>
      </trkpt>
      <trkpt lat="44.77453" lon="5.9593">
        <ele>1698.31</ele>
        <time>2014-08-21T11:08:40Z</time>
      </trkpt>
      <trkpt lat="44.7746" lon="5.95926">
        <ele>1697.34</ele>
        <time>2014-08-21T11:08:57Z</time>
      </trkpt>
      <trkpt lat="44.77468" lon="5.95924">
        <ele>1695.9</ele>
        <time>2014-08-21T11:09:13Z</time>
      </trkpt>
      <trkpt lat="44.77473" lon="5.95919">
        <ele>1695.9</ele>
        <time>2014-08-21T11:09:26Z</time>
      </trkpt>
      <trkpt lat="44.77483" lon="5.95913">
        <ele>1694.94</ele>
        <time>2014-08-21T11:09:42Z</time>
      </trkpt>
      <trkpt lat="44.7749" lon="5.95908">
        <ele>1693.5</ele>
        <time>2014-08-21T11:10:03Z</time>
      </trkpt>
      <trkpt lat="44.77495" lon="5.95898">
        <ele>1691.58</ele>
        <time>2014-08-21T11:10:25Z</time>
      </trkpt>
      <trkpt lat="44.77495" lon="5.95885">
        <ele>1690.62</ele>
        <time>2014-08-21T11:10:41Z</time>
      </trkpt>
      <trkpt lat="44.77495" lon="5.95872">
        <ele>1689.65</ele>
        <time>2014-08-21T11:11:06Z</time>
      </trkpt>
      <trkpt lat="44.77501" lon="5.95851">
        <ele>1688.21</ele>
        <time>2014-08-21T11:11:25Z</time>
      </trkpt>
      <trkpt lat="44.77504" lon="5.95841">
        <ele>1686.77</ele>
        <time>2014-08-21T11:11:44Z</time>
      </trkpt>
      <trkpt lat="44.77506" lon="5.95829">
        <ele>1686.29</ele>
        <time>2014-08-21T11:12:04Z</time>
      </trkpt>
      <trkpt lat="44.7751" lon="5.95817">
        <ele>1685.33</ele>
        <time>2014-08-21T11:12:22Z</time>
      </trkpt>
      <trkpt lat="44.77511" lon="5.95812">
        <ele>1686.29</ele>
        <time>2014-08-21T11:12:53Z</time>
      </trkpt>
      <trkpt lat="44.77509" lon="5.9581">
        <ele>1685.33</ele>
        <time>2014-08-21T11:13:14Z</time>
      </trkpt>
      <trkpt lat="44.7751" lon="5.9581">
        <ele>1685.81</ele>
        <time>2014-08-21T11:13:37Z</time>
      </trkpt>
      <trkpt lat="44.7751" lon="5.95812">
        <ele>1685.81</ele>
        <time>2014-08-21T11:14:02Z</time>
      </trkpt>
      <trkpt lat="44.77507" lon="5.95807">
        <ele>1686.29</ele>
        <time>2014-08-21T11:14:26Z</time>
      </trkpt>
      <trkpt lat="44.77505" lon="5.95802">
        <ele>1685.81</ele>
        <time>2014-08-21T11:14:49Z</time>
      </trkpt>
      <trkpt lat="44.77505" lon="5.95803">
        <ele>1684.85</ele>
        <time>2014-08-21T11:15:17Z</time>
      </trkpt>
      <trkpt lat="44.77506" lon="5.95799">
        <ele>1684.85</ele>
        <time>2014-08-21T11:15:41Z</time>
      </trkpt>
      <trkpt lat="44.77506" lon="5.95804">
        <ele>1684.37</ele>
        <time>2014-08-21T11:16:01Z</time>
      </trkpt>
      <trkpt lat="44.77505" lon="5.95796">
        <ele>1683.89</ele>
        <time>2014-08-21T11:16:24Z</time>
      </trkpt>
      <trkpt lat="44.77501" lon="5.95785">
        <ele>1681.96</ele>
        <time>2014-08-21T11:16:45Z</time>
      </trkpt>
      <trkpt lat="44.77497" lon="5.95779">
        <ele>1681.48</ele>
        <time>2014-08-21T11:17:03Z</time>
      </trkpt>
      <trkpt lat="44.77495" lon="5.95772">
        <ele>1681.48</ele>
        <time>2014-08-21T11:17:18Z</time>
      </trkpt>
      <trkpt lat="44.7749" lon="5.9576">
        <ele>1679.56</ele>
        <time>2014-08-21T11:17:37Z</time>
      </trkpt>
      <trkpt lat="44.77487" lon="5.95754">
        <ele>1679.08</ele>
        <time>2014-08-21T11:17:55Z</time>
      </trkpt>
      <trkpt lat="44.77485" lon="5.95747">
        <ele>1678.12</ele>
        <time>2014-08-21T11:18:18Z</time>
      </trkpt>
      <trkpt lat="44.7748" lon="5.95738">
        <ele>1677.64</ele>
        <time>2014-08-21T11:18:40Z</time>
      </trkpt>
      <trkpt lat="44.77482" lon="5.95735">
        <ele>1677.64</ele>
        <time>2014-08-21T11:19:03Z</time>
      </trkpt>
      <trkpt lat="44.77476" lon="5.95719">
        <ele>1676.68</ele>
        <time>2014-08-21T11:19:26Z</time>
      </trkpt>
      <trkpt lat="44.77476" lon="5.95705">
        <ele>1675.72</ele>
        <time>2014-08-21T11:19:43Z</time>
      </trkpt>
      <trkpt lat="44.77477" lon="5.9569">
        <ele>1673.31</ele>
        <time>2014-08-21T11:20:04Z</time>
      </trkpt>
      <trkpt lat="44.77476" lon="5.95675">
        <ele>1672.35</ele>
        <time>2014-08-21T11:20:20Z</time>
      </trkpt>
      <trkpt lat="44.77473" lon="5.9566">
        <ele>1671.87</ele>
        <time>2014-08-21T11:20:38Z</time>
      </trkpt>
      <trkpt lat="44.77475" lon="5.95641">
        <ele>1669.47</ele>
        <time>2014-08-21T11:21:00Z</time>
      </trkpt>
      <trkpt lat="44.77472" lon="5.95624">
        <ele>1667.54</ele>
        <time>2014-08-21T11:21:23Z</time>
      </trkpt>
      <trkpt lat="44.77469" lon="5.95604">
        <ele>1665.62</ele>
        <time>2014-08-21T11:21:43Z</time>
      </trkpt>
      <trkpt lat="44.77464" lon="5.95583">
        <ele>1664.18</ele>
        <time>2014-08-21T11:22:00Z</time>
      </trkpt>
      <trkpt lat="44.77455" lon="5.95569">
        <ele>1663.22</ele>
        <time>2014-08-21T11:22:21Z</time>
      </trkpt>
      <trkpt lat="44.7745" lon="5.95561">
        <ele>1663.7</ele>
        <time>2014-08-21T11:22:38Z</time>
      </trkpt>
      <trkpt lat="44.77459" lon="5.95551">
        <ele>1661.78</ele>
        <time>2014-08-21T11:22:56Z</time>
      </trkpt>
      <trkpt lat="44.77469" lon="5.95533">
        <ele>1659.85</ele>
        <time>2014-08-21T11:23:19Z</time>
      </trkpt>
      <trkpt lat="44.7747" lon="5.95522">
        <ele>1658.41</ele>
        <time>2014-08-21T11:23:42Z</time>
      </trkpt>
      <trkpt lat="44.77471" lon="5.95503">
        <ele>1657.93</ele>
        <time>2014-08-21T11:24:05Z</time>
      </trkpt>
      <trkpt lat="44.7747" lon="5.95498">
        <ele>1656.97</ele>
        <time>2014-08-21T11:24:22Z</time>
      </trkpt>
      <trkpt lat="44.77471" lon="5.9549">
        <ele>1655.05</ele>
        <time>2014-08-21T11:24:39Z</time>
      </trkpt>
      <trkpt lat="44.77473" lon="5.95485">
        <ele>1655.53</ele>
        <time>2014-08-21T11:24:54Z</time>
      </trkpt>
      <trkpt lat="44.77481" lon="5.95468">
        <ele>1654.09</ele>
        <time>2014-08-21T11:25:15Z</time>
      </trkpt>
      <trkpt lat="44.77485" lon="5.95448">
        <ele>1652.64</ele>
        <time>2014-08-21T11:25:37Z</time>
      </trkpt>
      <trkpt lat="44.77486" lon="5.95429">
        <ele>1651.2</ele>
        <time>2014-08-21T11:25:54Z</time>
      </trkpt>
      <trkpt lat="44.77488" lon="5.95413">
        <ele>1650.24</ele>
        <time>2014-08-21T11:26:11Z</time>
      </trkpt>
      <trkpt lat="44.77491" lon="5.95425">
        <ele>1648.8</ele>
        <time>2014-08-21T11:26:28Z</time>
      </trkpt>
      <trkpt lat="44.77492" lon="5.95436">
        <ele>1647.36</ele>
        <time>2014-08-21T11:26:45Z</time>
      </trkpt>
      <trkpt lat="44.77494" lon="5.95454">
        <ele>1644.95</ele>
        <time>2014-08-21T11:27:05Z</time>
      </trkpt>
      <trkpt lat="44.77494" lon="5.95466">
        <ele>1643.99</ele>
        <time>2014-08-21T11:27:23Z</time>
      </trkpt>
      <trkpt lat="44.77495" lon="5.95471">
        <ele>1643.03</ele>
        <time>2014-08-21T11:27:43Z</time>
      </trkpt>
      <trkpt lat="44.77497" lon="5.95453">
        <ele>1641.59</ele>
        <time>2014-08-21T11:28:02Z</time>
      </trkpt>
      <trkpt lat="44.77501" lon="5.95443">
        <ele>1639.67</ele>
        <time>2014-08-21T11:28:21Z</time>
      </trkpt>
      <trkpt lat="44.77506" lon="5.95432">
        <ele>1638.7</ele>
        <time>2014-08-21T11:28:38Z</time>
      </trkpt>
      <trkpt lat="44.77508" lon="5.95409">
        <ele>1637.26</ele>
        <time>2014-08-21T11:28:56Z</time>
      </trkpt>
      <trkpt lat="44.7751" lon="5.95423">
        <ele>1635.34</ele>
        <time>2014-08-21T11:29:14Z</time>
      </trkpt>
      <trkpt lat="44.77511" lon="5.9544">
        <ele>1633.42</ele>
        <time>2014-08-21T11:29:34Z</time>
      </trkpt>
      <trkpt lat="44.77513" lon="5.95453">
        <ele>1631.98</ele>
        <time>2014-08-21T11:29:51Z</time>
      </trkpt>
      <trkpt lat="44.77514" lon="5.95473">
        <ele>1629.57</ele>
        <time>2014-08-21T11:30:09Z</time>
      </trkpt>
      <trkpt lat="44.77515" lon="5.95487">
        <ele>1628.61</ele>
        <time>2014-08-21T11:30:26Z</time>
      </trkpt>
      <trkpt lat="44.77512" lon="5.95494">
        <ele>1627.65</ele>
        <time>2014-08-21T11:30:44Z</time>
      </trkpt>
      <trkpt lat="44.77515" lon="5.955">
        <ele>1627.17</ele>
        <time>2014-08-21T11:31:04Z</time>
      </trkpt>
      <trkpt lat="44.77514" lon="5.95507">
        <ele>1626.69</ele>
        <time>2014-08-21T11:31:23Z</time>
      </trkpt>
      <trkpt lat="44.77515" lon="5.95513">
        <ele>1624.77</ele>
        <time>2014-08-21T11:31:39Z</time>
      </trkpt>
      <trkpt lat="44.77515" lon="5.95495">
        <ele>1621.88</ele>
        <time>2014-08-21T11:31:59Z</time>
      </trkpt>
      <trkpt lat="44.77525" lon="5.95477">
        <ele>1620.44</ele>
        <time>2014-08-21T11:32:21Z</time>
      </trkpt>
      <trkpt lat="44.77529" lon="5.95454">
        <ele>1618.04</ele>
        <time>2014-08-21T11:32:42Z</time>
      </trkpt>
      <trkpt lat="44.77533" lon="5.95439">
        <ele>1615.15</ele>
        <time>2014-08-21T11:33:05Z</time>
      </trkpt>
      <trkpt lat="44.77538" lon="5.95426">
        <ele>1614.19</ele>
        <time>2014-08-21T11:33:26Z</time>
      </trkpt>
      <trkpt lat="44.77538" lon="5.95442">
        <ele>1612.27</ele>
        <time>2014-08-21T11:33:42Z</time>
      </trkpt>
      <trkpt lat="44.77542" lon="5.95461">
        <ele>1609.86</ele>
        <time>2014-08-21T11:34:04Z</time>
      </trkpt>
      <trkpt lat="44.77541" lon="5.95484">
        <ele>1607.94</ele>
        <time>2014-08-21T11:34:24Z</time>
      </trkpt>
      <trkpt lat="44.77539" lon="5.955">
        <ele>1606.5</ele>
        <time>2014-08-21T11:34:41Z</time>
      </trkpt>
      <trkpt lat="44.77539" lon="5.95515">
        <ele>1604.58</ele>
        <time>2014-08-21T11:35:01Z</time>
      </trkpt>
      <trkpt lat="44.77538" lon="5.95529">
        <ele>1603.14</ele>
        <time>2014-08-21T11:35:23Z</time>
      </trkpt>
      <trkpt lat="44.77539" lon="5.95533">
        <ele>1601.21</ele>
        <time>2014-08-21T11:35:48Z</time>
      </trkpt>
      <trkpt lat="44.77539" lon="5.95516">
        <ele>1598.81</ele>
        <time>2014-08-21T11:36:12Z</time>
      </trkpt>
      <trkpt lat="44.77546" lon="5.95498">
        <ele>1596.89</ele>
        <time>2014-08-21T11:36:33Z</time>
      </trkpt>
      <trkpt lat="44.77556" lon="5.9548">
        <ele>1594.96</ele>
        <time>2014-08-21T11:36:55Z</time>
      </trkpt>
      <trkpt lat="44.77561" lon="5.95461">
        <ele>1592.56</ele>
        <time>2014-08-21T11:37:15Z</time>
      </trkpt>
      <trkpt lat="44.7756" lon="5.95452">
        <ele>1592.08</ele>
        <time>2014-08-21T11:37:43Z</time>
      </trkpt>
      <trkpt lat="44.77559" lon="5.95444">
        <ele>1591.6</ele>
        <time>2014-08-21T11:38:11Z</time>
      </trkpt>
      <trkpt lat="44.77563" lon="5.95451">
        <ele>1591.6</ele>
        <time>2014-08-21T11:38:36Z</time>
      </trkpt>
      <trkpt lat="44.77567" lon="5.95452">
        <ele>1591.6</ele>
        <time>2014-08-21T11:38:59Z</time>
      </trkpt>
      <trkpt lat="44.77567" lon="5.95457">
        <ele>1591.6</ele>
        <time>2014-08-21T11:39:20Z</time>
      </trkpt>
      <trkpt lat="44.77565" lon="5.95458">
        <ele>1591.6</ele>
        <time>2014-08-21T11:39:45Z</time>
      </trkpt>
      <trkpt lat="44.7757" lon="5.95456">
        <ele>1591.6</ele>
        <time>2014-08-21T11:40:12Z</time>
      </trkpt>
      <trkpt lat="44.7757" lon="5.95477">
        <ele>1588.72</ele>
        <time>2014-08-21T11:40:33Z</time>
      </trkpt>
      <trkpt lat="44.77568" lon="5.95503">
        <ele>1585.83</ele>
        <time>2014-08-21T11:40:54Z</time>
      </trkpt>
      <trkpt lat="44.77565" lon="5.9552">
        <ele>1583.91</ele>
        <time>2014-08-21T11:41:12Z</time>
      </trkpt>
      <trkpt lat="44.77565" lon="5.95537">
        <ele>1581.51</ele>
        <time>2014-08-21T11:41:30Z</time>
      </trkpt>
      <trkpt lat="44.77574" lon="5.95535">
        <ele>1579.1</ele>
        <time>2014-08-21T11:41:46Z</time>
      </trkpt>
      <trkpt lat="44.77583" lon="5.95541">
        <ele>1576.22</ele>
        <time>2014-08-21T11:42:03Z</time>
      </trkpt>
      <trkpt lat="44.77594" lon="5.95564">
        <ele>1573.82</ele>
        <time>2014-08-21T11:42:21Z</time>
      </trkpt>
      <trkpt lat="44.77602" lon="5.95592">
        <ele>1570.93</ele>
        <time>2014-08-21T11:42:41Z</time>
      </trkpt>
      <trkpt lat="44.77609" lon="5.95615">
        <ele>1568.05</ele>
        <time>2014-08-21T11:43:03Z</time>
      </trkpt>
      <trkpt lat="44.77611" lon="5.95642">
        <ele>1565.64</ele>
        <time>2014-08-21T11:43:27Z</time>
      </trkpt>
      <trkpt lat="44.7762" lon="5.95646">
        <ele>1562.76</ele>
        <time>2014-08-21T11:43:45Z</time>
      </trkpt>
      <trkpt lat="44.77632" lon="5.9566">
        <ele>1559.88</ele>
        <time>2014-08-21T11:44:03Z</time>
      </trkpt>
      <trkpt lat="44.77639" lon="5.95669">
        <ele>1557.47</ele>
        <time>2014-08-21T11:44:21Z</time>
      </trkpt>
      <trkpt lat="44.77651" lon="5.95683">
        <ele>1554.59</ele>
        <time>2014-08-21T11:44:37Z</time>
      </trkpt>
      <trkpt lat="44.77669" lon="5.95698">
        <ele>1551.22</ele>
        <time>2014-08-21T11:44:57Z</time>
      </trkpt>
      <trkpt lat="44.7768" lon="5.95713">
        <ele>1548.34</ele>
        <time>2014-08-21T11:45:16Z</time>
      </trkpt>
      <trkpt lat="44.77692" lon="5.95733">
        <ele>1544.98</ele>
        <time>2014-08-21T11:45:35Z</time>
      </trkpt>
      <trkpt lat="44.77704" lon="5.95749">
        <ele>1543.05</ele>
        <time>2014-08-21T11:45:53Z</time>
      </trkpt>
      <trkpt lat="44.7771" lon="5.95761">
        <ele>1540.65</ele>
        <time>2014-08-21T11:46:13Z</time>
      </trkpt>
      <trkpt lat="44.77715" lon="5.95772">
        <ele>1539.69</ele>
        <time>2014-08-21T11:46:30Z</time>
      </trkpt>
      <trkpt lat="44.77723" lon="5.9579">
        <ele>1537.29</ele>
        <time>2014-08-21T11:46:47Z</time>
      </trkpt>
      <trkpt lat="44.77721" lon="5.95806">
        <ele>1534.88</ele>
        <time>2014-08-21T11:47:03Z</time>
      </trkpt>
      <trkpt lat="44.77711" lon="5.95824">
        <ele>1532.96</ele>
        <time>2014-08-21T11:47:18Z</time>
      </trkpt>
      <trkpt lat="44.7771" lon="5.95842">
        <ele>1530.56</ele>
        <time>2014-08-21T11:47:35Z</time>
      </trkpt>
      <trkpt lat="44.77712" lon="5.9586">
        <ele>1528.15</ele>
        <time>2014-08-21T11:47:52Z</time>
      </trkpt>
      <trkpt lat="44.77714" lon="5.95879">
        <ele>1526.23</ele>
        <time>2014-08-21T11:48:08Z</time>
      </trkpt>
      <trkpt lat="44.77715" lon="5.95893">
        <ele>1524.79</ele>
        <time>2014-08-21T11:48:23Z</time>
      </trkpt>
      <trkpt lat="44.77717" lon="5.95911">
        <ele>1521.9</ele>
        <time>2014-08-21T11:48:40Z</time>
      </trkpt>
      <trkpt lat="44.7772" lon="5.95931">
        <ele>1519.98</ele>
        <time>2014-08-21T11:48:55Z</time>
      </trkpt>
      <trkpt lat="44.77721" lon="5.95941">
        <ele>1518.54</ele>
        <time>2014-08-21T11:49:03Z</time>
      </trkpt>
      <trkpt lat="44.77726" lon="5.95963">
        <ele>1515.18</ele>
        <time>2014-08-21T11:49:16Z</time>
      </trkpt>
      <trkpt lat="44.77733" lon="5.95981">
        <ele>1511.81</ele>
        <time>2014-08-21T11:49:27Z</time>
      </trkpt>
      <trkpt lat="44.77736" lon="5.96004">
        <ele>1509.41</ele>
        <time>2014-08-21T11:49:43Z</time>
      </trkpt>
      <trkpt lat="44.77739" lon="5.96026">
        <ele>1506.52</ele>
        <time>2014-08-21T11:49:57Z</time>
      </trkpt>
      <trkpt lat="44.77747" lon="5.9605">
        <ele>1503.16</ele>
        <time>2014-08-21T11:50:13Z</time>
      </trkpt>
      <trkpt lat="44.77758" lon="5.96071">
        <ele>1500.27</ele>
        <time>2014-08-21T11:50:28Z</time>
      </trkpt>
      <trkpt lat="44.77761" lon="5.96077">
        <ele>1499.31</ele>
        <time>2014-08-21T11:50:32Z</time>
      </trkpt>
      <trkpt lat="44.77766" lon="5.96101">
        <ele>1495.95</ele>
        <time>2014-08-21T11:50:47Z</time>
      </trkpt>
      <trkpt lat="44.77769" lon="5.96129">
        <ele>1493.06</ele>
        <time>2014-08-21T11:51:04Z</time>
      </trkpt>
      <trkpt lat="44.7777" lon="5.96154">
        <ele>1490.18</ele>
        <time>2014-08-21T11:51:21Z</time>
      </trkpt>
      <trkpt lat="44.77771" lon="5.9617">
        <ele>1487.3</ele>
        <time>2014-08-21T11:51:36Z</time>
      </trkpt>
      <trkpt lat="44.77773" lon="5.96185">
        <ele>1483.45</ele>
        <time>2014-08-21T11:51:45Z</time>
      </trkpt>
      <trkpt lat="44.77782" lon="5.96207">
        <ele>1480.57</ele>
        <time>2014-08-21T11:51:59Z</time>
      </trkpt>
      <trkpt lat="44.77793" lon="5.96219">
        <ele>1477.68</ele>
        <time>2014-08-21T11:52:14Z</time>
      </trkpt>
      <trkpt lat="44.77808" lon="5.96231">
        <ele>1474.32</ele>
        <time>2014-08-21T11:52:27Z</time>
      </trkpt>
      <trkpt lat="44.77819" lon="5.96247">
        <ele>1471.44</ele>
        <time>2014-08-21T11:52:47Z</time>
      </trkpt>
      <trkpt lat="44.77817" lon="5.96263">
        <ele>1470.95</ele>
        <time>2014-08-21T11:53:03Z</time>
      </trkpt>
      <trkpt lat="44.77818" lon="5.96265">
        <ele>1470.47</ele>
        <time>2014-08-21T11:53:30Z</time>
      </trkpt>
      <trkpt lat="44.77819" lon="5.96263">
        <ele>1470.47</ele>
        <time>2014-08-21T11:53:53Z</time>
      </trkpt>
      <trkpt lat="44.77819" lon="5.96258">
        <ele>1470.47</ele>
        <time>2014-08-21T11:54:11Z</time>
      </trkpt>
      <trkpt lat="44.77817" lon="5.96251">
        <ele>1470.95</ele>
        <time>2014-08-21T11:54:41Z</time>
      </trkpt>
      <trkpt lat="44.77815" lon="5.96239">
        <ele>1471.92</ele>
        <time>2014-08-21T11:54:57Z</time>
      </trkpt>
      <trkpt lat="44.77824" lon="5.96241">
        <ele>1472.4</ele>
        <time>2014-08-21T11:55:15Z</time>
      </trkpt>
      <trkpt lat="44.77825" lon="5.9624">
        <ele>1471.44</ele>
        <time>2014-08-21T11:55:26Z</time>
      </trkpt>
      <trkpt lat="44.77823" lon="5.96242">
        <ele>1471.44</ele>
        <time>2014-08-21T11:55:40Z</time>
      </trkpt>
      <trkpt lat="44.77821" lon="5.96242">
        <ele>1471.44</ele>
        <time>2014-08-21T11:56:00Z</time>
      </trkpt>
      <trkpt lat="44.77823" lon="5.96239">
        <ele>1471.44</ele>
        <time>2014-08-21T11:56:22Z</time>
      </trkpt>
      <trkpt lat="44.77827" lon="5.96233">
        <ele>1469.51</ele>
        <time>2014-08-21T11:56:49Z</time>
      </trkpt>
      <trkpt lat="44.77827" lon="5.96223">
        <ele>1466.15</ele>
        <time>2014-08-21T11:56:59Z</time>
      </trkpt>
      <trkpt lat="44.77828" lon="5.96215">
        <ele>1463.26</ele>
        <time>2014-08-21T11:57:07Z</time>
      </trkpt>
      <trkpt lat="44.77828" lon="5.96194">
        <ele>1459.9</ele>
        <time>2014-08-21T11:57:21Z</time>
      </trkpt>
      <trkpt lat="44.7783" lon="5.96165">
        <ele>1456.53</ele>
        <time>2014-08-21T11:57:35Z</time>
      </trkpt>
      <trkpt lat="44.77828" lon="5.96157">
        <ele>1456.05</ele>
        <time>2014-08-21T11:57:39Z</time>
      </trkpt>
      <trkpt lat="44.77828" lon="5.96131">
        <ele>1453.17</ele>
        <time>2014-08-21T11:57:56Z</time>
      </trkpt>
      <trkpt lat="44.77829" lon="5.9611">
        <ele>1450.77</ele>
        <time>2014-08-21T11:58:13Z</time>
      </trkpt>
      <trkpt lat="44.77828" lon="5.96087">
        <ele>1448.36</ele>
        <time>2014-08-21T11:58:33Z</time>
      </trkpt>
      <trkpt lat="44.77825" lon="5.9606">
        <ele>1446.92</ele>
        <time>2014-08-21T11:58:50Z</time>
      </trkpt>
      <trkpt lat="44.77819" lon="5.96031">
        <ele>1447.88</ele>
        <time>2014-08-21T11:59:08Z</time>
      </trkpt>
      <trkpt lat="44.77816" lon="5.96006">
        <ele>1448.36</ele>
        <time>2014-08-21T11:59:25Z</time>
      </trkpt>
      <trkpt lat="44.77818" lon="5.95979">
        <ele>1447.4</ele>
        <time>2014-08-21T11:59:42Z</time>
      </trkpt>
      <trkpt lat="44.77821" lon="5.95958">
        <ele>1445</ele>
        <time>2014-08-21T12:00:01Z</time>
      </trkpt>
      <trkpt lat="44.77823" lon="5.95943">
        <ele>1442.6</ele>
        <time>2014-08-21T12:00:17Z</time>
      </trkpt>
      <trkpt lat="44.77826" lon="5.9593">
        <ele>1440.67</ele>
        <time>2014-08-21T12:00:32Z</time>
      </trkpt>
      <trkpt lat="44.77826" lon="5.9591">
        <ele>1437.79</ele>
        <time>2014-08-21T12:00:45Z</time>
      </trkpt>
      <trkpt lat="44.77828" lon="5.95899">
        <ele>1435.87</ele>
        <time>2014-08-21T12:00:53Z</time>
      </trkpt>
      <trkpt lat="44.77842" lon="5.95889">
        <ele>1434.42</ele>
        <time>2014-08-21T12:01:05Z</time>
      </trkpt>
      <trkpt lat="44.77863" lon="5.95875">
        <ele>1431.54</ele>
        <time>2014-08-21T12:01:24Z</time>
      </trkpt>
      <trkpt lat="44.77871" lon="5.95857">
        <ele>1428.18</ele>
        <time>2014-08-21T12:01:40Z</time>
      </trkpt>
      <trkpt lat="44.77879" lon="5.95839">
        <ele>1425.29</ele>
        <time>2014-08-21T12:01:56Z</time>
      </trkpt>
      <trkpt lat="44.77887" lon="5.95825">
        <ele>1421.93</ele>
        <time>2014-08-21T12:02:09Z</time>
      </trkpt>
      <trkpt lat="44.77895" lon="5.95814">
        <ele>1419.04</ele>
        <time>2014-08-21T12:02:21Z</time>
      </trkpt>
      <trkpt lat="44.77896" lon="5.95804">
        <ele>1415.68</ele>
        <time>2014-08-21T12:02:31Z</time>
      </trkpt>
      <trkpt lat="44.779" lon="5.95796">
        <ele>1413.28</ele>
        <time>2014-08-21T12:02:49Z</time>
      </trkpt>
      <trkpt lat="44.77906" lon="5.95785">
        <ele>1410.39</ele>
        <time>2014-08-21T12:03:00Z</time>
      </trkpt>
      <trkpt lat="44.77911" lon="5.95768">
        <ele>1407.03</ele>
        <time>2014-08-21T12:03:13Z</time>
      </trkpt>
      <trkpt lat="44.77909" lon="5.95753">
        <ele>1403.66</ele>
        <time>2014-08-21T12:03:26Z</time>
      </trkpt>
      <trkpt lat="44.77909" lon="5.95741">
        <ele>1402.7</ele>
        <time>2014-08-21T12:03:46Z</time>
      </trkpt>
      <trkpt lat="44.77917" lon="5.95749">
        <ele>1402.7</ele>
        <time>2014-08-21T12:04:13Z</time>
      </trkpt>
      <trkpt lat="44.77923" lon="5.95759">
        <ele>1400.3</ele>
        <time>2014-08-21T12:04:32Z</time>
      </trkpt>
      <trkpt lat="44.77926" lon="5.95769">
        <ele>1398.37</ele>
        <time>2014-08-21T12:04:41Z</time>
      </trkpt>
      <trkpt lat="44.77933" lon="5.95788">
        <ele>1395.97</ele>
        <time>2014-08-21T12:04:57Z</time>
      </trkpt>
      <trkpt lat="44.77936" lon="5.95799">
        <ele>1393.57</ele>
        <time>2014-08-21T12:05:11Z</time>
      </trkpt>
      <trkpt lat="44.77933" lon="5.95773">
        <ele>1390.68</ele>
        <time>2014-08-21T12:05:30Z</time>
      </trkpt>
      <trkpt lat="44.7793" lon="5.95749">
        <ele>1388.28</ele>
        <time>2014-08-21T12:05:47Z</time>
      </trkpt>
      <trkpt lat="44.77926" lon="5.95725">
        <ele>1384.92</ele>
        <time>2014-08-21T12:06:04Z</time>
      </trkpt>
      <trkpt lat="44.77929" lon="5.95721">
        <ele>1382.51</ele>
        <time>2014-08-21T12:06:20Z</time>
      </trkpt>
      <trkpt lat="44.77941" lon="5.95739">
        <ele>1380.11</ele>
        <time>2014-08-21T12:06:38Z</time>
      </trkpt>
      <trkpt lat="44.77951" lon="5.95755">
        <ele>1377.23</ele>
        <time>2014-08-21T12:06:54Z</time>
      </trkpt>
      <trkpt lat="44.77962" lon="5.95776">
        <ele>1374.34</ele>
        <time>2014-08-21T12:07:12Z</time>
      </trkpt>
      <trkpt lat="44.77963" lon="5.95794">
        <ele>1372.42</ele>
        <time>2014-08-21T12:07:26Z</time>
      </trkpt>
      <trkpt lat="44.77956" lon="5.95816">
        <ele>1370.5</ele>
        <time>2014-08-21T12:07:40Z</time>
      </trkpt>
      <trkpt lat="44.77954" lon="5.95837">
        <ele>1368.09</ele>
        <time>2014-08-21T12:07:57Z</time>
      </trkpt>
      <trkpt lat="44.77954" lon="5.95839">
        <ele>1366.65</ele>
        <time>2014-08-21T12:08:16Z</time>
      </trkpt>
      <trkpt lat="44.77952" lon="5.95862">
        <ele>1364.73</ele>
        <time>2014-08-21T12:08:34Z</time>
      </trkpt>
      <trkpt lat="44.77944" lon="5.95885">
        <ele>1361.84</ele>
        <time>2014-08-21T12:08:48Z</time>
      </trkpt>
      <trkpt lat="44.77939" lon="5.95909">
        <ele>1358.96</ele>
        <time>2014-08-21T12:09:05Z</time>
      </trkpt>
      <trkpt lat="44.77937" lon="5.95926">
        <ele>1356.56</ele>
        <time>2014-08-21T12:09:22Z</time>
      </trkpt>
      <trkpt lat="44.77934" lon="5.95941">
        <ele>1353.67</ele>
        <time>2014-08-21T12:09:38Z</time>
      </trkpt>
      <trkpt lat="44.77942" lon="5.9596">
        <ele>1351.27</ele>
        <time>2014-08-21T12:09:55Z</time>
      </trkpt>
      <trkpt lat="44.77947" lon="5.95982">
        <ele>1349.83</ele>
        <time>2014-08-21T12:10:12Z</time>
      </trkpt>
      <trkpt lat="44.7795" lon="5.95989">
        <ele>1347.43</ele>
        <time>2014-08-21T12:10:28Z</time>
      </trkpt>
      <trkpt lat="44.77948" lon="5.95974">
        <ele>1344.54</ele>
        <time>2014-08-21T12:10:52Z</time>
      </trkpt>
      <trkpt lat="44.77953" lon="5.95991">
        <ele>1341.66</ele>
        <time>2014-08-21T12:11:13Z</time>
      </trkpt>
      <trkpt lat="44.77954" lon="5.96001">
        <ele>1340.7</ele>
        <time>2014-08-21T12:11:30Z</time>
      </trkpt>
      <trkpt lat="44.77957" lon="5.96006">
        <ele>1339.73</ele>
        <time>2014-08-21T12:11:35Z</time>
      </trkpt>
      <trkpt lat="44.77976" lon="5.96019">
        <ele>1336.85</ele>
        <time>2014-08-21T12:11:57Z</time>
      </trkpt>
      <trkpt lat="44.77984" lon="5.96033">
        <ele>1333.49</ele>
        <time>2014-08-21T12:12:13Z</time>
      </trkpt>
      <trkpt lat="44.7799" lon="5.96048">
        <ele>1332.04</ele>
        <time>2014-08-21T12:12:29Z</time>
      </trkpt>
      <trkpt lat="44.77994" lon="5.96057">
        <ele>1331.08</ele>
        <time>2014-08-21T12:12:47Z</time>
      </trkpt>
      <trkpt lat="44.77996" lon="5.96068">
        <ele>1330.6</ele>
        <time>2014-08-21T12:13:12Z</time>
      </trkpt>
      <trkpt lat="44.78001" lon="5.96089">
        <ele>1328.2</ele>
        <time>2014-08-21T12:13:29Z</time>
      </trkpt>
      <trkpt lat="44.78" lon="5.96114">
        <ele>1325.31</ele>
        <time>2014-08-21T12:13:48Z</time>
      </trkpt>
      <trkpt lat="44.78008" lon="5.96122">
        <ele>1322.91</ele>
        <time>2014-08-21T12:14:07Z</time>
      </trkpt>
      <trkpt lat="44.78016" lon="5.9613">
        <ele>1320.99</ele>
        <time>2014-08-21T12:14:27Z</time>
      </trkpt>
      <trkpt lat="44.7803" lon="5.96148">
        <ele>1318.59</ele>
        <time>2014-08-21T12:14:46Z</time>
      </trkpt>
      <trkpt lat="44.78041" lon="5.96155">
        <ele>1316.66</ele>
        <time>2014-08-21T12:15:02Z</time>
      </trkpt>
      <trkpt lat="44.78033" lon="5.96149">
        <ele>1315.22</ele>
        <time>2014-08-21T12:15:21Z</time>
      </trkpt>
      <trkpt lat="44.78027" lon="5.96132">
        <ele>1313.3</ele>
        <time>2014-08-21T12:15:43Z</time>
      </trkpt>
      <trkpt lat="44.78019" lon="5.96124">
        <ele>1310.9</ele>
        <time>2014-08-21T12:16:10Z</time>
      </trkpt>
      <trkpt lat="44.78023" lon="5.9612">
        <ele>1308.49</ele>
        <time>2014-08-21T12:16:36Z</time>
      </trkpt>
      <trkpt lat="44.78024" lon="5.96106">
        <ele>1306.57</ele>
        <time>2014-08-21T12:16:52Z</time>
      </trkpt>
      <trkpt lat="44.78036" lon="5.9609">
        <ele>1304.65</ele>
        <time>2014-08-21T12:17:11Z</time>
      </trkpt>
      <trkpt lat="44.78038" lon="5.9606">
        <ele>1301.76</ele>
        <time>2014-08-21T12:17:32Z</time>
      </trkpt>
      <trkpt lat="44.78037" lon="5.96045">
        <ele>1300.8</ele>
        <time>2014-08-21T12:17:52Z</time>
      </trkpt>
      <trkpt lat="44.78035" lon="5.96044">
        <ele>1300.32</ele>
        <time>2014-08-21T12:18:13Z</time>
      </trkpt>
      <trkpt lat="44.78041" lon="5.96042">
        <ele>1299.84</ele>
        <time>2014-08-21T12:18:38Z</time>
      </trkpt>
      <trkpt lat="44.78036" lon="5.96017">
        <ele>1297.44</ele>
        <time>2014-08-21T12:19:00Z</time>
      </trkpt>
      <trkpt lat="44.78031" lon="5.96007">
        <ele>1296.48</ele>
        <time>2014-08-21T12:19:26Z</time>
      </trkpt>
      <trkpt lat="44.78033" lon="5.96004">
        <ele>1295.51</ele>
        <time>2014-08-21T12:19:52Z</time>
      </trkpt>
      <trkpt lat="44.78029" lon="5.96002">
        <ele>1295.03</ele>
        <time>2014-08-21T12:20:10Z</time>
      </trkpt>
      <trkpt lat="44.78022" lon="5.96003">
        <ele>1295.03</ele>
        <time>2014-08-21T12:20:29Z</time>
      </trkpt>
      <trkpt lat="44.78024" lon="5.95991">
        <ele>1293.59</ele>
        <time>2014-08-21T12:20:46Z</time>
      </trkpt>
      <trkpt lat="44.78016" lon="5.95978">
        <ele>1291.67</ele>
        <time>2014-08-21T12:21:08Z</time>
      </trkpt>
      <trkpt lat="44.77998" lon="5.95955">
        <ele>1288.78</ele>
        <time>2014-08-21T12:21:34Z</time>
      </trkpt>
      <trkpt lat="44.78" lon="5.9594">
        <ele>1286.86</ele>
        <time>2014-08-21T12:21:53Z</time>
      </trkpt>
      <trkpt lat="44.78009" lon="5.95934">
        <ele>1283.5</ele>
        <time>2014-08-21T12:22:07Z</time>
      </trkpt>
      <trkpt lat="44.78017" lon="5.95929">
        <ele>1280.61</ele>
        <time>2014-08-21T12:22:21Z</time>
      </trkpt>
      <trkpt lat="44.78028" lon="5.95911">
        <ele>1279.65</ele>
        <time>2014-08-21T12:22:41Z</time>
      </trkpt>
      <trkpt lat="44.78033" lon="5.95899">
        <ele>1280.13</ele>
        <time>2014-08-21T12:23:00Z</time>
      </trkpt>
      <trkpt lat="44.78038" lon="5.95894">
        <ele>1280.13</ele>
        <time>2014-08-21T12:23:27Z</time>
      </trkpt>
      <trkpt lat="44.78041" lon="5.95887">
        <ele>1280.13</ele>
        <time>2014-08-21T12:23:45Z</time>
      </trkpt>
      <trkpt lat="44.78049" lon="5.95876">
        <ele>1279.65</ele>
        <time>2014-08-21T12:24:03Z</time>
      </trkpt>
      <trkpt lat="44.78053" lon="5.95864">
        <ele>1279.17</ele>
        <time>2014-08-21T12:24:23Z</time>
      </trkpt>
      <trkpt lat="44.78068" lon="5.95845">
        <ele>1278.21</ele>
        <time>2014-08-21T12:24:44Z</time>
      </trkpt>
      <trkpt lat="44.78082" lon="5.95832">
        <ele>1277.25</ele>
        <time>2014-08-21T12:25:02Z</time>
      </trkpt>
      <trkpt lat="44.7809" lon="5.95824">
        <ele>1276.77</ele>
        <time>2014-08-21T12:25:12Z</time>
      </trkpt>
      <trkpt lat="44.78099" lon="5.95815">
        <ele>1276.77</ele>
        <time>2014-08-21T12:25:29Z</time>
      </trkpt>
      <trkpt lat="44.78108" lon="5.95796">
        <ele>1273.88</ele>
        <time>2014-08-21T12:25:46Z</time>
      </trkpt>
      <trkpt lat="44.78114" lon="5.95782">
        <ele>1271.96</ele>
        <time>2014-08-21T12:26:04Z</time>
      </trkpt>
      <trkpt lat="44.7812" lon="5.95759">
        <ele>1269.08</ele>
        <time>2014-08-21T12:26:23Z</time>
      </trkpt>
      <trkpt lat="44.78121" lon="5.95734">
        <ele>1266.19</ele>
        <time>2014-08-21T12:26:46Z</time>
      </trkpt>
      <trkpt lat="44.78129" lon="5.95736">
        <ele>1265.23</ele>
        <time>2014-08-21T12:27:09Z</time>
      </trkpt>
      <trkpt lat="44.78139" lon="5.95747">
        <ele>1261.87</ele>
        <time>2014-08-21T12:27:26Z</time>
      </trkpt>
      <trkpt lat="44.7814" lon="5.95748">
        <ele>1261.87</ele>
        <time>2014-08-21T12:27:27Z</time>
      </trkpt>
      <trkpt lat="44.78152" lon="5.95768">
        <ele>1258.5</ele>
        <time>2014-08-21T12:27:45Z</time>
      </trkpt>
      <trkpt lat="44.7816" lon="5.95779">
        <ele>1256.58</ele>
        <time>2014-08-21T12:27:59Z</time>
      </trkpt>
      <trkpt lat="44.78166" lon="5.95796">
        <ele>1253.22</ele>
        <time>2014-08-21T12:28:16Z</time>
      </trkpt>
      <trkpt lat="44.78168" lon="5.95807">
        <ele>1251.77</ele>
        <time>2014-08-21T12:28:32Z</time>
      </trkpt>
      <trkpt lat="44.78162" lon="5.95811">
        <ele>1250.81</ele>
        <time>2014-08-21T12:28:51Z</time>
      </trkpt>
      <trkpt lat="44.78161" lon="5.95816">
        <ele>1249.37</ele>
        <time>2014-08-21T12:29:10Z</time>
      </trkpt>
      <trkpt lat="44.78162" lon="5.95811">
        <ele>1246.49</ele>
        <time>2014-08-21T12:29:25Z</time>
      </trkpt>
      <trkpt lat="44.78161" lon="5.95792">
        <ele>1243.6</ele>
        <time>2014-08-21T12:29:50Z</time>
      </trkpt>
      <trkpt lat="44.78158" lon="5.95776">
        <ele>1241.68</ele>
        <time>2014-08-21T12:30:14Z</time>
      </trkpt>
      <trkpt lat="44.78163" lon="5.95759">
        <ele>1239.28</ele>
        <time>2014-08-21T12:30:32Z</time>
      </trkpt>
      <trkpt lat="44.7816" lon="5.95736">
        <ele>1237.83</ele>
        <time>2014-08-21T12:30:57Z</time>
      </trkpt>
      <trkpt lat="44.78158" lon="5.95725">
        <ele>1235.91</ele>
        <time>2014-08-21T12:31:19Z</time>
      </trkpt>
      <trkpt lat="44.78174" lon="5.95729">
        <ele>1233.99</ele>
        <time>2014-08-21T12:31:41Z</time>
      </trkpt>
      <trkpt lat="44.78175" lon="5.95729">
        <ele>1233.51</ele>
        <time>2014-08-21T12:32:04Z</time>
      </trkpt>
      <trkpt lat="44.78186" lon="5.95729">
        <ele>1232.55</ele>
        <time>2014-08-21T12:32:31Z</time>
      </trkpt>
      <trkpt lat="44.78192" lon="5.95741">
        <ele>1231.11</ele>
        <time>2014-08-21T12:32:51Z</time>
      </trkpt>
      <trkpt lat="44.78194" lon="5.95748">
        <ele>1230.14</ele>
        <time>2014-08-21T12:33:11Z</time>
      </trkpt>
      <trkpt lat="44.78192" lon="5.95746">
        <ele>1230.14</ele>
        <time>2014-08-21T12:33:32Z</time>
      </trkpt>
      <trkpt lat="44.7819" lon="5.95745">
        <ele>1230.14</ele>
        <time>2014-08-21T12:33:35Z</time>
      </trkpt>
      <trkpt lat="44.78167" lon="5.95748">
        <ele>1228.7</ele>
        <time>2014-08-21T12:33:55Z</time>
      </trkpt>
      <trkpt lat="44.78175" lon="5.95762">
        <ele>1227.74</ele>
        <time>2014-08-21T12:34:12Z</time>
      </trkpt>
      <trkpt lat="44.78184" lon="5.9578">
        <ele>1225.82</ele>
        <time>2014-08-21T12:34:29Z</time>
      </trkpt>
      <trkpt lat="44.78186" lon="5.95781">
        <ele>1226.3</ele>
        <time>2014-08-21T12:34:51Z</time>
      </trkpt>
      <trkpt lat="44.78193" lon="5.95796">
        <ele>1224.86</ele>
        <time>2014-08-21T12:35:08Z</time>
      </trkpt>
      <trkpt lat="44.78194" lon="5.95809">
        <ele>1222.93</ele>
        <time>2014-08-21T12:35:25Z</time>
      </trkpt>
      <trkpt lat="44.78196" lon="5.95817">
        <ele>1222.93</ele>
        <time>2014-08-21T12:35:54Z</time>
      </trkpt>
      <trkpt lat="44.78203" lon="5.95822">
        <ele>1221.01</ele>
        <time>2014-08-21T12:36:10Z</time>
      </trkpt>
      <trkpt lat="44.7821" lon="5.95824">
        <ele>1218.13</ele>
        <time>2014-08-21T12:36:30Z</time>
      </trkpt>
      <trkpt lat="44.78212" lon="5.95823">
        <ele>1218.13</ele>
        <time>2014-08-21T12:36:32Z</time>
      </trkpt>
      <trkpt lat="44.78228" lon="5.95808">
        <ele>1215.72</ele>
        <time>2014-08-21T12:36:53Z</time>
      </trkpt>
      <trkpt lat="44.78229" lon="5.95793">
        <ele>1212.84</ele>
        <time>2014-08-21T12:37:17Z</time>
      </trkpt>
      <trkpt lat="44.78238" lon="5.95774">
        <ele>1209.96</ele>
        <time>2014-08-21T12:37:38Z</time>
      </trkpt>
      <trkpt lat="44.78239" lon="5.95753">
        <ele>1208.51</ele>
        <time>2014-08-21T12:37:59Z</time>
      </trkpt>
      <trkpt lat="44.78235" lon="5.95747">
        <ele>1206.11</ele>
        <time>2014-08-21T12:38:24Z</time>
      </trkpt>
      <trkpt lat="44.78238" lon="5.95746">
        <ele>1204.67</ele>
        <time>2014-08-21T12:38:41Z</time>
      </trkpt>
      <trkpt lat="44.78245" lon="5.95754">
        <ele>1203.71</ele>
        <time>2014-08-21T12:38:52Z</time>
      </trkpt>
      <trkpt lat="44.78248" lon="5.95756">
        <ele>1203.23</ele>
        <time>2014-08-21T12:38:54Z</time>
      </trkpt>
      <trkpt lat="44.78265" lon="5.95776">
        <ele>1201.79</ele>
        <time>2014-08-21T12:39:12Z</time>
      </trkpt>
      <trkpt lat="44.78271" lon="5.95782">
        <ele>1201.3</ele>
        <time>2014-08-21T12:39:36Z</time>
      </trkpt>
      <trkpt lat="44.78278" lon="5.95794">
        <ele>1200.82</ele>
        <time>2014-08-21T12:39:56Z</time>
      </trkpt>
      <trkpt lat="44.78281" lon="5.95803">
        <ele>1200.34</ele>
        <time>2014-08-21T12:40:14Z</time>
      </trkpt>
      <trkpt lat="44.78282" lon="5.95817">
        <ele>1197.46</ele>
        <time>2014-08-21T12:40:31Z</time>
      </trkpt>
      <trkpt lat="44.78292" lon="5.9581">
        <ele>1194.58</ele>
        <time>2014-08-21T12:40:53Z</time>
      </trkpt>
      <trkpt lat="44.78299" lon="5.95798">
        <ele>1191.69</ele>
        <time>2014-08-21T12:41:15Z</time>
      </trkpt>
      <trkpt lat="44.78304" lon="5.95789">
        <ele>1189.29</ele>
        <time>2014-08-21T12:41:37Z</time>
      </trkpt>
      <trkpt lat="44.78265" lon="5.95767">
        <ele>1188.33</ele>
        <time>2014-08-21T12:41:53Z</time>
      </trkpt>
      <trkpt lat="44.78262" lon="5.95782">
        <ele>1186.4</ele>
        <time>2014-08-21T12:42:08Z</time>
      </trkpt>
      <trkpt lat="44.78264" lon="5.95797">
        <ele>1184.96</ele>
        <time>2014-08-21T12:42:25Z</time>
      </trkpt>
      <trkpt lat="44.78264" lon="5.95807">
        <ele>1184.48</ele>
        <time>2014-08-21T12:42:43Z</time>
      </trkpt>
      <trkpt lat="44.78266" lon="5.9582">
        <ele>1183.52</ele>
        <time>2014-08-21T12:43:00Z</time>
      </trkpt>
      <trkpt lat="44.7827" lon="5.95825">
        <ele>1181.12</ele>
        <time>2014-08-21T12:43:18Z</time>
      </trkpt>
      <trkpt lat="44.78268" lon="5.95824">
        <ele>1181.6</ele>
        <time>2014-08-21T12:43:36Z</time>
      </trkpt>
      <trkpt lat="44.78265" lon="5.9582">
        <ele>1181.12</ele>
        <time>2014-08-21T12:43:56Z</time>
      </trkpt>
      <trkpt lat="44.78273" lon="5.95814">
        <ele>1179.19</ele>
        <time>2014-08-21T12:44:16Z</time>
      </trkpt>
      <trkpt lat="44.78283" lon="5.95809">
        <ele>1176.79</ele>
        <time>2014-08-21T12:44:32Z</time>
      </trkpt>
      <trkpt lat="44.7828" lon="5.95828">
        <ele>1173.91</ele>
        <time>2014-08-21T12:44:49Z</time>
      </trkpt>
      <trkpt lat="44.78276" lon="5.95844">
        <ele>1172.95</ele>
        <time>2014-08-21T12:45:06Z</time>
      </trkpt>
      <trkpt lat="44.78264" lon="5.95868">
        <ele>1172.95</ele>
        <time>2014-08-21T12:45:26Z</time>
      </trkpt>
      <trkpt lat="44.78253" lon="5.95884">
        <ele>1172.95</ele>
        <time>2014-08-21T12:45:43Z</time>
      </trkpt>
      <trkpt lat="44.78245" lon="5.95909">
        <ele>1172.47</ele>
        <time>2014-08-21T12:46:00Z</time>
      </trkpt>
      <trkpt lat="44.78239" lon="5.95914">
        <ele>1172.47</ele>
        <time>2014-08-21T12:46:19Z</time>
      </trkpt>
      <trkpt lat="44.78229" lon="5.9592">
        <ele>1171.5</ele>
        <time>2014-08-21T12:46:49Z</time>
      </trkpt>
      <trkpt lat="44.78221" lon="5.9593">
        <ele>1170.54</ele>
        <time>2014-08-21T12:47:04Z</time>
      </trkpt>
      <trkpt lat="44.78208" lon="5.95945">
        <ele>1169.1</ele>
        <time>2014-08-21T12:47:21Z</time>
      </trkpt>
      <trkpt lat="44.78196" lon="5.95967">
        <ele>1167.18</ele>
        <time>2014-08-21T12:47:38Z</time>
      </trkpt>
      <trkpt lat="44.78195" lon="5.95998">
        <ele>1165.74</ele>
        <time>2014-08-21T12:47:56Z</time>
      </trkpt>
      <trkpt lat="44.78191" lon="5.96015">
        <ele>1164.77</ele>
        <time>2014-08-21T12:48:07Z</time>
      </trkpt>
      <trkpt lat="44.782" lon="5.96046">
        <ele>1161.89</ele>
        <time>2014-08-21T12:48:28Z</time>
      </trkpt>
      <trkpt lat="44.78203" lon="5.9605">
        <ele>1161.41</ele>
        <time>2014-08-21T12:48:31Z</time>
      </trkpt>
      <trkpt lat="44.78214" lon="5.96057">
        <ele>1161.41</ele>
        <time>2014-08-21T12:48:42Z</time>
      </trkpt>
      <trkpt lat="44.78227" lon="5.96065">
        <ele>1159.49</ele>
        <time>2014-08-21T12:48:56Z</time>
      </trkpt>
      <trkpt lat="44.78242" lon="5.9608">
        <ele>1157.56</ele>
        <time>2014-08-21T12:49:11Z</time>
      </trkpt>
      <trkpt lat="44.78251" lon="5.96087">
        <ele>1156.12</ele>
        <time>2014-08-21T12:49:27Z</time>
      </trkpt>
      <trkpt lat="44.78255" lon="5.9609">
        <ele>1155.64</ele>
        <time>2014-08-21T12:49:42Z</time>
      </trkpt>
      <trkpt lat="44.78257" lon="5.96092">
        <ele>1155.64</ele>
        <time>2014-08-21T12:50:06Z</time>
      </trkpt>
      <trkpt lat="44.78264" lon="5.96096">
        <ele>1154.68</ele>
        <time>2014-08-21T12:50:22Z</time>
      </trkpt>
      <trkpt lat="44.78267" lon="5.96101">
        <ele>1153.24</ele>
        <time>2014-08-21T12:50:36Z</time>
      </trkpt>
      <trkpt lat="44.78272" lon="5.96101">
        <ele>1152.76</ele>
        <time>2014-08-21T12:50:53Z</time>
      </trkpt>
      <trkpt lat="44.7828" lon="5.96109">
        <ele>1151.32</ele>
        <time>2014-08-21T12:51:10Z</time>
      </trkpt>
      <trkpt lat="44.7829" lon="5.96113">
        <ele>1149.39</ele>
        <time>2014-08-21T12:51:25Z</time>
      </trkpt>
      <trkpt lat="44.78291" lon="5.96114">
        <ele>1148.91</ele>
        <time>2014-08-21T12:51:26Z</time>
      </trkpt>
      <trkpt lat="44.78293" lon="5.96124">
        <ele>1147.47</ele>
        <time>2014-08-21T12:51:41Z</time>
      </trkpt>
      <trkpt lat="44.78308" lon="5.96137">
        <ele>1144.59</ele>
        <time>2014-08-21T12:51:59Z</time>
      </trkpt>
      <trkpt lat="44.78329" lon="5.96169">
        <ele>1141.22</ele>
        <time>2014-08-21T12:52:18Z</time>
      </trkpt>
      <trkpt lat="44.78338" lon="5.96191">
        <ele>1138.34</ele>
        <time>2014-08-21T12:52:37Z</time>
      </trkpt>
      <trkpt lat="44.78341" lon="5.96211">
        <ele>1135.45</ele>
        <time>2014-08-21T12:52:57Z</time>
      </trkpt>
      <trkpt lat="44.78338" lon="5.96237">
        <ele>1132.57</ele>
        <time>2014-08-21T12:53:16Z</time>
      </trkpt>
      <trkpt lat="44.78332" lon="5.96261">
        <ele>1129.69</ele>
        <time>2014-08-21T12:53:34Z</time>
      </trkpt>
      <trkpt lat="44.78326" lon="5.96285">
        <ele>1126.8</ele>
        <time>2014-08-21T12:53:51Z</time>
      </trkpt>
      <trkpt lat="44.78324" lon="5.96313">
        <ele>1123.92</ele>
        <time>2014-08-21T12:54:11Z</time>
      </trkpt>
      <trkpt lat="44.78324" lon="5.96346">
        <ele>1120.55</ele>
        <time>2014-08-21T12:54:32Z</time>
      </trkpt>
      <trkpt lat="44.78319" lon="5.9637">
        <ele>1117.67</ele>
        <time>2014-08-21T12:54:50Z</time>
      </trkpt>
      <trkpt lat="44.78317" lon="5.96394">
        <ele>1114.31</ele>
        <time>2014-08-21T12:55:05Z</time>
      </trkpt>
      <trkpt lat="44.78317" lon="5.96417">
        <ele>1111.42</ele>
        <time>2014-08-21T12:55:21Z</time>
      </trkpt>
      <trkpt lat="44.78319" lon="5.96436">
        <ele>1108.54</ele>
        <time>2014-08-21T12:55:39Z</time>
      </trkpt>
      <trkpt lat="44.78332" lon="5.96461">
        <ele>1105.17</ele>
        <time>2014-08-21T12:55:58Z</time>
      </trkpt>
      <trkpt lat="44.78337" lon="5.96486">
        <ele>1102.29</ele>
        <time>2014-08-21T12:56:14Z</time>
      </trkpt>
      <trkpt lat="44.78341" lon="5.96496">
        <ele>1100.85</ele>
        <time>2014-08-21T12:56:21Z</time>
      </trkpt>
      <trkpt lat="44.78342" lon="5.96503">
        <ele>1100.37</ele>
        <time>2014-08-21T12:56:25Z</time>
      </trkpt>
      <trkpt lat="44.78349" lon="5.96531">
        <ele>1097</ele>
        <time>2014-08-21T12:56:44Z</time>
      </trkpt>
      <trkpt lat="44.78348" lon="5.9656">
        <ele>1094.6</ele>
        <time>2014-08-21T12:57:04Z</time>
      </trkpt>
      <trkpt lat="44.78353" lon="5.96585">
        <ele>1091.23</ele>
        <time>2014-08-21T12:57:20Z</time>
      </trkpt>
      <trkpt lat="44.78356" lon="5.96605">
        <ele>1088.83</ele>
        <time>2014-08-21T12:57:39Z</time>
      </trkpt>
      <trkpt lat="44.78353" lon="5.96601">
        <ele>1088.35</ele>
        <time>2014-08-21T12:57:52Z</time>
      </trkpt>
      <trkpt lat="44.78357" lon="5.96592">
        <ele>1086.91</ele>
        <time>2014-08-21T12:58:00Z</time>
      </trkpt>
      <trkpt lat="44.78362" lon="5.96562">
        <ele>1084.5</ele>
        <time>2014-08-21T12:58:22Z</time>
      </trkpt>
      <trkpt lat="44.78368" lon="5.96546">
        <ele>1081.14</ele>
        <time>2014-08-21T12:58:37Z</time>
      </trkpt>
      <trkpt lat="44.78368" lon="5.96531">
        <ele>1077.78</ele>
        <time>2014-08-21T12:58:50Z</time>
      </trkpt>
      <trkpt lat="44.78373" lon="5.96513">
        <ele>1074.89</ele>
        <time>2014-08-21T12:59:03Z</time>
      </trkpt>
      <trkpt lat="44.78384" lon="5.96494">
        <ele>1071.53</ele>
        <time>2014-08-21T12:59:16Z</time>
      </trkpt>
      <trkpt lat="44.7839" lon="5.96471">
        <ele>1068.64</ele>
        <time>2014-08-21T12:59:33Z</time>
      </trkpt>
      <trkpt lat="44.78401" lon="5.96457">
        <ele>1065.28</ele>
        <time>2014-08-21T12:59:49Z</time>
      </trkpt>
      <trkpt lat="44.78408" lon="5.96442">
        <ele>1062.39</ele>
        <time>2014-08-21T13:00:01Z</time>
      </trkpt>
      <trkpt lat="44.78423" lon="5.96419">
        <ele>1059.03</ele>
        <time>2014-08-21T13:00:16Z</time>
      </trkpt>
      <trkpt lat="44.78424" lon="5.96392">
        <ele>1057.11</ele>
        <time>2014-08-21T13:00:34Z</time>
      </trkpt>
      <trkpt lat="44.7843" lon="5.96367">
        <ele>1053.74</ele>
        <time>2014-08-21T13:00:54Z</time>
      </trkpt>
      <trkpt lat="44.78454" lon="5.96341">
        <ele>1050.38</ele>
        <time>2014-08-21T13:01:15Z</time>
      </trkpt>
      <trkpt lat="44.7845" lon="5.96299">
        <ele>1047.97</ele>
        <time>2014-08-21T13:01:35Z</time>
      </trkpt>
      <trkpt lat="44.78455" lon="5.96289">
        <ele>1047.01</ele>
        <time>2014-08-21T13:01:42Z</time>
      </trkpt>
      <trkpt lat="44.7847" lon="5.96266">
        <ele>1043.17</ele>
        <time>2014-08-21T13:02:02Z</time>
      </trkpt>
      <trkpt lat="44.78476" lon="5.96247">
        <ele>1040.28</ele>
        <time>2014-08-21T13:02:17Z</time>
      </trkpt>
      <trkpt lat="44.78482" lon="5.96239">
        <ele>1038.84</ele>
        <time>2014-08-21T13:02:24Z</time>
      </trkpt>
      <trkpt lat="44.78495" lon="5.9622">
        <ele>1035</ele>
        <time>2014-08-21T13:02:39Z</time>
      </trkpt>
      <trkpt lat="44.785" lon="5.96204">
        <ele>1032.11</ele>
        <time>2014-08-21T13:02:52Z</time>
      </trkpt>
      <trkpt lat="44.78511" lon="5.96192">
        <ele>1028.75</ele>
        <time>2014-08-21T13:03:05Z</time>
      </trkpt>
      <trkpt lat="44.78525" lon="5.96178">
        <ele>1025.86</ele>
        <time>2014-08-21T13:03:19Z</time>
      </trkpt>
      <trkpt lat="44.78538" lon="5.96167">
        <ele>1022.5</ele>
        <time>2014-08-21T13:03:34Z</time>
      </trkpt>
      <trkpt lat="44.78551" lon="5.96151">
        <ele>1019.62</ele>
        <time>2014-08-21T13:03:51Z</time>
      </trkpt>
      <trkpt lat="44.78566" lon="5.96131">
        <ele>1016.25</ele>
        <time>2014-08-21T13:04:09Z</time>
      </trkpt>
      <trkpt lat="44.78571" lon="5.96111">
        <ele>1012.89</ele>
        <time>2014-08-21T13:04:24Z</time>
      </trkpt>
      <trkpt lat="44.78585" lon="5.96097">
        <ele>1009.52</ele>
        <time>2014-08-21T13:04:38Z</time>
      </trkpt>
      <trkpt lat="44.78596" lon="5.96083">
        <ele>1006.64</ele>
        <time>2014-08-21T13:04:54Z</time>
      </trkpt>
      <trkpt lat="44.78601" lon="5.96077">
        <ele>1004.72</ele>
        <time>2014-08-21T13:05:09Z</time>
      </trkpt>
      <trkpt lat="44.78601" lon="5.96085">
        <ele>1002.31</ele>
        <time>2014-08-21T13:05:21Z</time>
      </trkpt>
      <trkpt lat="44.78603" lon="5.96089">
        <ele>1001.83</ele>
        <time>2014-08-21T13:05:25Z</time>
      </trkpt>
      <trkpt lat="44.78611" lon="5.96107">
        <ele>998.47</ele>
        <time>2014-08-21T13:05:42Z</time>
      </trkpt>
      <trkpt lat="44.78619" lon="5.96111">
        <ele>995.58</ele>
        <time>2014-08-21T13:05:54Z</time>
      </trkpt>
      <trkpt lat="44.7862" lon="5.9611">
        <ele>995.1</ele>
        <time>2014-08-21T13:05:56Z</time>
      </trkpt>
      <trkpt lat="44.78631" lon="5.96119">
        <ele>992.7</ele>
        <time>2014-08-21T13:06:07Z</time>
      </trkpt>
      <trkpt lat="44.78647" lon="5.96129">
        <ele>989.33</ele>
        <time>2014-08-21T13:06:22Z</time>
      </trkpt>
      <trkpt lat="44.78657" lon="5.96137">
        <ele>986.93</ele>
        <time>2014-08-21T13:06:34Z</time>
      </trkpt>
      <trkpt lat="44.78666" lon="5.96141">
        <ele>985.01</ele>
        <time>2014-08-21T13:06:43Z</time>
      </trkpt>
      <trkpt lat="44.78679" lon="5.96153">
        <ele>981.16</ele>
        <time>2014-08-21T13:06:58Z</time>
      </trkpt>
      <trkpt lat="44.78691" lon="5.96165">
        <ele>978.28</ele>
        <time>2014-08-21T13:07:13Z</time>
      </trkpt>
      <trkpt lat="44.78699" lon="5.96172">
        <ele>974.91</ele>
        <time>2014-08-21T13:07:26Z</time>
      </trkpt>
      <trkpt lat="44.78706" lon="5.96172">
        <ele>972.99</ele>
        <time>2014-08-21T13:07:34Z</time>
      </trkpt>
      <trkpt lat="44.78716" lon="5.96174">
        <ele>971.55</ele>
        <time>2014-08-21T13:07:52Z</time>
      </trkpt>
      <trkpt lat="44.78716" lon="5.96177">
        <ele>971.55</ele>
        <time>2014-08-21T13:07:54Z</time>
      </trkpt>
      <trkpt lat="44.78719" lon="5.96183">
        <ele>970.59</ele>
        <time>2014-08-21T13:07:59Z</time>
      </trkpt>
      <trkpt lat="44.78723" lon="5.96188">
        <ele>970.11</ele>
        <time>2014-08-21T13:08:03Z</time>
      </trkpt>
      <trkpt lat="44.78745" lon="5.96202">
        <ele>966.26</ele>
        <time>2014-08-21T13:08:22Z</time>
      </trkpt>
      <trkpt lat="44.78764" lon="5.96213">
        <ele>963.86</ele>
        <time>2014-08-21T13:08:40Z</time>
      </trkpt>
      <trkpt lat="44.78783" lon="5.9623">
        <ele>961.46</ele>
        <time>2014-08-21T13:08:58Z</time>
      </trkpt>
      <trkpt lat="44.78802" lon="5.96247">
        <ele>958.57</ele>
        <time>2014-08-21T13:09:18Z</time>
      </trkpt>
      <trkpt lat="44.78821" lon="5.96266">
        <ele>956.65</ele>
        <time>2014-08-21T13:09:36Z</time>
      </trkpt>
      <trkpt lat="44.78847" lon="5.96289">
        <ele>954.25</ele>
        <time>2014-08-21T13:09:59Z</time>
      </trkpt>
      <trkpt lat="44.7885" lon="5.96306">
        <ele>952.8</ele>
        <time>2014-08-21T13:10:10Z</time>
      </trkpt>
      <trkpt lat="44.7885" lon="5.96305">
        <ele>951.84</ele>
        <time>2014-08-21T13:10:22Z</time>
      </trkpt>
      <trkpt lat="44.7885" lon="5.96303">
        <ele>948</ele>
        <time>2014-08-21T13:10:31Z</time>
      </trkpt>
      <trkpt lat="44.7885" lon="5.96303">
        <ele>953.77</ele>
        <time>2014-08-21T13:10:32Z</time>
      </trkpt>
      <trkpt lat="44.78848" lon="5.96303">
        <ele>947.52</ele>
        <time>2014-08-21T13:10:35Z</time>
      </trkpt>
      <trkpt lat="44.78847" lon="5.96303">
        <ele>952.8</ele>
        <time>2014-08-21T13:10:36Z</time>
      </trkpt>
      <trkpt lat="44.78846" lon="5.96304">
        <ele>953.28</ele>
        <time>2014-08-21T13:10:42Z</time>
      </trkpt>
      <trkpt lat="44.78846" lon="5.96304">
        <ele>951.84</ele>
        <time>2014-08-21T13:10:45Z</time>
      </trkpt>
      <trkpt lat="44.78845" lon="5.96303">
        <ele>952.32</ele>
        <time>2014-08-21T13:11:19Z</time>
      </trkpt>
      <trkpt lat="44.78841" lon="5.96302">
        <ele>951.84</ele>
        <time>2014-08-21T13:11:55Z</time>
      </trkpt>
      <trkpt lat="44.78844" lon="5.96305">
        <ele>951.84</ele>
        <time>2014-08-21T13:12:29Z</time>
      </trkpt>
      <trkpt lat="44.78848" lon="5.96306">
        <ele>951.84</ele>
        <time>2014-08-21T13:13:06Z</time>
      </trkpt>
      <trkpt lat="44.78852" lon="5.96307">
        <ele>951.36</ele>
        <time>2014-08-21T13:13:43Z</time>
      </trkpt>
      <trkpt lat="44.78848" lon="5.96308">
        <ele>951.84</ele>
        <time>2014-08-21T13:14:24Z</time>
      </trkpt>
      <trkpt lat="44.78845" lon="5.96305">
        <ele>952.32</ele>
        <time>2014-08-21T13:14:59Z</time>
      </trkpt>
      <trkpt lat="44.78843" lon="5.96304">
        <ele>952.32</ele>
        <time>2014-08-21T13:15:35Z</time>
      </trkpt>
      <trkpt lat="44.78845" lon="5.96306">
        <ele>952.32</ele>
        <time>2014-08-21T13:16:09Z</time>
      </trkpt>
      <trkpt lat="44.7885" lon="5.96308">
        <ele>952.32</ele>
        <time>2014-08-21T13:16:45Z</time>
      </trkpt>
      <trkpt lat="44.7885" lon="5.96307">
        <ele>952.32</ele>
        <time>2014-08-21T13:17:21Z</time>
      </trkpt>
      <trkpt lat="44.7885" lon="5.96305">
        <ele>952.32</ele>
        <time>2014-08-21T13:17:56Z</time>
      </trkpt>
      <trkpt lat="44.78845" lon="5.96302">
        <ele>952.32</ele>
        <time>2014-08-21T13:18:25Z</time>
      </trkpt>
      <trkpt lat="44.78837" lon="5.96296">
        <ele>952.8</ele>
        <time>2014-08-21T13:19:00Z</time>
      </trkpt>
      <trkpt lat="44.78833" lon="5.96291">
        <ele>953.28</ele>
        <time>2014-08-21T13:19:37Z</time>
      </trkpt>
      <trkpt lat="44.78843" lon="5.96302">
        <ele>952.8</ele>
        <time>2014-08-21T13:20:11Z</time>
      </trkpt>
      <trkpt lat="44.78845" lon="5.96302">
        <ele>952.8</ele>
        <time>2014-08-21T13:20:48Z</time>
      </trkpt>
      <trkpt lat="44.78846" lon="5.96301">
        <ele>953.28</ele>
        <time>2014-08-21T13:21:19Z</time>
      </trkpt>
      <trkpt lat="44.78843" lon="5.96298">
        <ele>953.28</ele>
        <time>2014-08-21T13:21:50Z</time>
      </trkpt>
      <trkpt lat="44.78852" lon="5.96307">
        <ele>953.28</ele>
        <time>2014-08-21T13:22:25Z</time>
      </trkpt>
      <trkpt lat="44.78851" lon="5.96308">
        <ele>952.8</ele>
        <time>2014-08-21T13:22:59Z</time>
      </trkpt>
      <trkpt lat="44.78855" lon="5.96311">
        <ele>953.28</ele>
        <time>2014-08-21T13:23:34Z</time>
      </trkpt>
      <trkpt lat="44.78851" lon="5.96307">
        <ele>953.28</ele>
        <time>2014-08-21T13:24:11Z</time>
      </trkpt>
      <trkpt lat="44.78847" lon="5.96305">
        <ele>953.28</ele>
        <time>2014-08-21T13:24:47Z</time>
      </trkpt>
      <trkpt lat="44.78848" lon="5.96304">
        <ele>953.28</ele>
        <time>2014-08-21T13:25:23Z</time>
      </trkpt>
      <trkpt lat="44.78855" lon="5.96308">
        <ele>953.28</ele>
        <time>2014-08-21T13:25:55Z</time>
      </trkpt>
      <trkpt lat="44.78855" lon="5.9631">
        <ele>953.28</ele>
        <time>2014-08-21T13:26:31Z</time>
      </trkpt>
      <trkpt lat="44.78854" lon="5.96306">
        <ele>953.77</ele>
        <time>2014-08-21T13:27:14Z</time>
      </trkpt>
      <trkpt lat="44.78852" lon="5.96307">
        <ele>953.28</ele>
        <time>2014-08-21T13:28:05Z</time>
      </trkpt>
      <trkpt lat="44.78851" lon="5.96308">
        <ele>952.8</ele>
        <time>2014-08-21T13:28:49Z</time>
      </trkpt>
      <trkpt lat="44.78849" lon="5.96304">
        <ele>953.28</ele>
        <time>2014-08-21T13:29:28Z</time>
      </trkpt>
      <trkpt lat="44.7885" lon="5.96312">
        <ele>952.8</ele>
        <time>2014-08-21T13:30:10Z</time>
      </trkpt>
      <trkpt lat="44.78851" lon="5.96304">
        <ele>953.28</ele>
        <time>2014-08-21T13:30:47Z</time>
      </trkpt>
      <trkpt lat="44.78851" lon="5.96304">
        <ele>953.28</ele>
        <time>2014-08-21T13:31:19Z</time>
      </trkpt>
      <trkpt lat="44.78851" lon="5.96304">
        <ele>953.28</ele>
        <time>2014-08-21T13:31:50Z</time>
      </trkpt>
      <trkpt lat="44.78851" lon="5.96302">
        <ele>954.25</ele>
        <time>2014-08-21T13:32:05Z</time>
      </trkpt>
      <trkpt lat="44.78855" lon="5.96295">
        <ele>954.25</ele>
        <time>2014-08-21T13:32:22Z</time>
      </trkpt>
      <trkpt lat="44.78854" lon="5.96299">
        <ele>954.25</ele>
        <time>2014-08-21T13:32:37Z</time>
      </trkpt>
      <trkpt lat="44.78853" lon="5.96301">
        <ele>954.25</ele>
        <time>2014-08-21T13:33:04Z</time>
      </trkpt>
      <trkpt lat="44.78853" lon="5.96299">
        <ele>953.77</ele>
        <time>2014-08-21T13:33:19Z</time>
      </trkpt>
      <trkpt lat="44.78853" lon="5.963">
        <ele>954.25</ele>
        <time>2014-08-21T13:33:35Z</time>
      </trkpt>
    </trkseg>
  </trk>
</gpx>